Provisional Data: Little Juniata River near Tipton, PA


Please select a monitoring station.
Please select start date.
Please select start date.

Toggle Unit: C/F Toggle Unit: C/F
Sample Time Temperature (C) Temperature (F) Specific Conductivity (mS/cm) pH   Turbidity (NTU+) DO (mg/L)
2/4/2021 12:00:00 AM 0.68 33.224 0.748 7.95 2.96 13.54
2/4/2021 12:15:00 AM 0.65 33.17 0.751 7.92 2.87 13.54
2/4/2021 12:30:00 AM 0.63 33.134 0.754 7.91 2.88 13.53
2/4/2021 12:45:00 AM 0.63 33.134 0.76 7.89 2.82 13.52
2/4/2021 1:00:00 AM 0.63 33.134 0.766 7.87 2.78 13.52
2/4/2021 1:15:00 AM 0.62 33.116 0.77 7.86 2.8 13.51
2/4/2021 1:30:00 AM 0.6 33.08 0.773 7.85 2.84 13.51
2/4/2021 1:45:00 AM 0.61 33.098 0.778 7.85 2.82 13.5
2/4/2021 2:00:00 AM 0.61 33.098 0.782 7.83 2.76 13.49
2/4/2021 2:15:00 AM 0.6 33.08 0.787 7.83 2.73 13.49
2/4/2021 2:30:00 AM 0.59 33.062 0.791 7.81 2.7 13.48
2/4/2021 2:45:00 AM 0.57 33.026 0.797 7.81 2.75 13.48
2/4/2021 3:00:00 AM 0.55 32.99 0.803 7.81 2.68 13.48
2/4/2021 3:15:00 AM 0.53 32.954 0.808 7.8 2.62 13.48
2/4/2021 3:30:00 AM 0.52 32.936 0.814 7.8 2.61 13.48
2/4/2021 3:45:00 AM 0.5 32.9 0.821 7.79 2.61 13.48
2/4/2021 4:00:00 AM 0.49 32.882 0.827 7.79 2.56 13.48
2/4/2021 4:15:00 AM 0.48 32.864 0.834 7.78 2.54 13.47
2/4/2021 4:30:00 AM 0.48 32.864 0.842 7.77 2.55 13.47
2/4/2021 4:45:00 AM 0.46 32.828 0.846 7.76 2.55 13.47
2/4/2021 5:00:00 AM 0.45 32.81 0.852 7.77 2.6 13.46
2/4/2021 5:15:00 AM 0.46 32.828 0.858 7.76 2.53 13.46
2/4/2021 5:30:00 AM 0.45 32.81 0.859 7.76 2.49 13.45
2/4/2021 5:45:00 AM 0.44 32.792 0.861 7.74 2.53 13.45
2/4/2021 6:00:00 AM 0.43 32.774 0.862 7.75 2.5 13.46
2/4/2021 6:15:00 AM 0.41 32.738 0.863 7.74 2.48 13.46
2/4/2021 6:30:00 AM 0.38 32.684 0.864 7.74 2.54 13.46
2/4/2021 6:45:00 AM 0.35 32.63 0.863 7.74 2.46 13.47
2/4/2021 7:00:00 AM 0.31 32.558 0.863 7.73 2.49 13.49
2/4/2021 7:15:00 AM 0.26 32.468 0.863 7.73 2.5 13.5
2/4/2021 7:30:00 AM 0.21 32.378 0.863 7.73 2.55 13.53
2/4/2021 7:45:00 AM 0.18 32.324 0.864 7.74 2.5 13.6
2/4/2021 8:00:00 AM 0.14 32.252 0.864 7.75 2.51 13.71
2/4/2021 8:15:00 AM 0.12 32.216 0.864 7.77 2.54 13.86
2/4/2021 8:30:00 AM 0.11 32.198 0.863 7.8 2.49 14.02
2/4/2021 8:45:00 AM 0.11 32.198 0.86 7.82 2.43 14.22
2/4/2021 9:00:00 AM 0.14 32.252 0.856 7.86 2.48 14.43
2/4/2021 9:15:00 AM 0.19 32.342 0.852 7.9 2.49 14.63
2/4/2021 9:30:00 AM 0.25 32.45 0.846 7.94 2.46 14.84
2/4/2021 9:45:00 AM 0.36 32.648 0.841 8 2.42 15.05
2/4/2021 10:00:00 AM 0.49 32.882 0.833 8.05 2.43 15.26
2/4/2021 10:15:00 AM 0.64 33.152 0.827 8.1 2.43 15.42
2/4/2021 10:30:00 AM 0.79 33.422 0.822 8.17 2.45 15.55
2/4/2021 10:45:00 AM 0.91 33.638 0.819 8.22 2.45 15.67
2/4/2021 11:00:00 AM 1.05 33.89 0.817 8.28 2.41 15.77
2/4/2021 11:15:00 AM 1.2 34.16 0.813 8.34 2.52 15.85
2/4/2021 11:30:00 AM 1.34 34.412 0.81 8.38 2.46 15.91
2/4/2021 11:45:00 AM 1.45 34.61 0.807 8.43 2.39 15.97
2/4/2021 12:00:00 PM 1.55 34.79 0.808 8.48 2.42 16
2/4/2021 12:15:00 PM 1.64 34.952 0.806 8.53 2.55 16.03
2/4/2021 12:30:00 PM 1.73 35.114 0.804 8.57 2.56 16.06
2/4/2021 12:45:00 PM 1.83 35.294 0.806 8.6 2.41 16.07
2/4/2021 1:00:00 PM 1.93 35.474 0.808 8.65 2.45 16.09
2/4/2021 1:15:00 PM 2 35.6 0.808 8.68 2.37 16.1
2/4/2021 1:30:00 PM 2.08 35.744 0.811 8.7 2.37 16.11
2/4/2021 1:45:00 PM 2.19 35.942 0.817 8.74 2.46 16.13
2/4/2021 2:00:00 PM 2.29 36.122 0.825 8.77 2.4 16.13
2/4/2021 2:15:00 PM 2.36 36.248 0.832 8.81 2.41 16.13
2/4/2021 2:30:00 PM 2.42 36.356 0.841 8.82 2.37 16.12
2/4/2021 2:45:00 PM 2.49 36.482 0.849 8.87 2.4 16.12
2/4/2021 3:00:00 PM 2.53 36.554 0.855 8.89 2.42 16.09
2/4/2021 3:15:00 PM 2.56 36.608 0.863 8.91 2.43 16.06
2/4/2021 3:30:00 PM 2.56 36.608 0.868 8.94 2.41 16.02
2/4/2021 3:45:00 PM 2.55 36.59 0.876 8.94 2.52 15.96
2/4/2021 4:00:00 PM 2.52 36.536 0.88 8.97 2.64 15.88
2/4/2021 4:15:00 PM 2.48 36.464 0.886 8.97 2.56 15.8
2/4/2021 4:30:00 PM 2.44 36.392 0.889 8.98 2.67 15.7
2/4/2021 4:45:00 PM 2.41 36.338 0.892 8.98 2.56 15.58
2/4/2021 5:00:00 PM 2.37 36.266 0.893 8.98 2.52 15.43
2/4/2021 5:15:00 PM 2.33 36.194 0.891 8.96 2.52 15.25
2/4/2021 5:30:00 PM 2.3 36.14 0.885 8.94 2.54 15.04
2/4/2021 5:45:00 PM 2.27 36.086 0.879 8.92 2.56 14.82
2/4/2021 6:00:00 PM 2.24 36.032 0.871 8.88 2.46 14.61
2/4/2021 6:15:00 PM 2.21 35.978 0.86 8.85 2.63 14.44
2/4/2021 6:30:00 PM 2.18 35.924 0.847 8.81 2.55 14.29
2/4/2021 6:45:00 PM 2.13 35.834 0.833 8.76 2.52 14.17
2/4/2021 7:00:00 PM 2.07 35.726 0.816 8.73 2.54 14.07
2/4/2021 7:15:00 PM 2.01 35.618 0.803 8.69 2.55 13.99
2/4/2021 7:30:00 PM 1.96 35.528 0.792 8.63 2.53 13.92
2/4/2021 7:45:00 PM 1.89 35.402 0.784 8.59 2.57 13.87
2/4/2021 8:00:00 PM 1.83 35.294 0.78 8.54 2.55 13.81
2/4/2021 8:15:00 PM 1.78 35.204 0.78 8.49 2.54 13.76
2/4/2021 8:30:00 PM 1.73 35.114 0.784 8.44 2.54 13.72
2/4/2021 8:45:00 PM 1.69 35.042 0.791 8.37 2.45 13.66
2/4/2021 9:00:00 PM 1.64 34.952 0.798 8.32 2.53 13.62
2/4/2021 9:15:00 PM 1.61 34.898 0.81 8.26 2.56 13.57
2/4/2021 9:30:00 PM 1.58 34.844 0.819 8.2 2.53 13.53
2/4/2021 9:45:00 PM 1.55 34.79 0.829 8.15 2.49 13.49
2/4/2021 10:00:00 PM 1.52 34.736 0.838 8.1 2.49 13.45
2/4/2021 10:15:00 PM 1.5 34.7 0.846 8.06 2.55 13.42
2/4/2021 10:30:00 PM 1.49 34.682 0.856 8.01 2.49 13.38
2/4/2021 10:45:00 PM 1.48 34.664 0.864 7.99 2.48 13.35
2/4/2021 11:00:00 PM 1.46 34.628 0.871 7.95 2.51 13.31
2/4/2021 11:15:00 PM 1.46 34.628 0.88 7.93 2.52 13.28
2/4/2021 11:30:00 PM 1.46 34.628 0.888 7.9 2.51 13.25
2/4/2021 11:45:00 PM 1.47 34.646 0.897 7.88 2.55 13.22
2/5/2021 12:00:00 AM 1.47 34.646 0.905 7.86 2.56 13.19
2/5/2021 12:15:00 AM 1.46 34.628 0.911 7.86 2.5 13.17
2/5/2021 12:30:00 AM 1.41 34.538 0.918 7.85 2.61 13.15
2/5/2021 12:45:00 AM 1.4 34.52 0.928 7.83 2.59 13.12
2/5/2021 1:00:00 AM 1.41 34.538 0.936 7.83 2.57 13.1
2/5/2021 1:15:00 AM 1.43 34.574 0.944 7.82 2.58 13.08
2/5/2021 1:30:00 AM 1.45 34.61 0.952 7.8 2.54 13.06
2/5/2021 1:45:00 AM 1.48 34.664 0.964 7.8 2.58 13.03
2/5/2021 2:00:00 AM 1.51 34.718 0.971 7.78 2.57 13.01
2/5/2021 2:15:00 AM 1.53 34.754 0.978 7.79 2.62 12.98
2/5/2021 2:30:00 AM 1.55 34.79 0.984 7.76 2.55 12.96
2/5/2021 2:45:00 AM 1.58 34.844 0.988 7.77 2.57 12.94
2/5/2021 3:00:00 AM 1.61 34.898 0.991 7.77 2.57 12.92
2/5/2021 3:15:00 AM 1.64 34.952 0.995 7.75 2.58 12.9
2/5/2021 3:30:00 AM 1.66 34.988 0.994 7.75 2.54 12.88
2/5/2021 3:45:00 AM 1.67 35.006 0.993 7.75 2.58 12.87
2/5/2021 4:00:00 AM 1.68 35.024 0.99 7.75 2.56 12.86
2/5/2021 4:15:00 AM 1.69 35.042 0.987 7.73 2.52 12.85
2/5/2021 4:30:00 AM 1.7 35.06 0.983 7.73 2.59 12.84
2/5/2021 4:45:00 AM 1.71 35.078 0.979 7.74 2.55 12.82
2/5/2021 5:00:00 AM 1.73 35.114 0.973 7.72 2.58 12.81
2/5/2021 5:15:00 AM 1.74 35.132 0.968 7.73 2.59 12.8
2/5/2021 5:30:00 AM 1.75 35.15 0.96 7.73 2.57 12.8
2/5/2021 5:45:00 AM 1.76 35.168 0.953 7.72 2.58 12.79
2/5/2021 6:00:00 AM 1.77 35.186 0.946 7.72 2.54 12.78
2/5/2021 6:15:00 AM 1.77 35.186 0.938 7.72 2.57 12.78
2/5/2021 6:30:00 AM 1.76 35.168 0.93 7.71 2.56 12.78
2/5/2021 6:45:00 AM 1.74 35.132 0.925 7.71 2.54 12.78
2/5/2021 7:00:00 AM 1.74 35.132 0.923 7.71 2.58 12.78
2/5/2021 7:15:00 AM 1.73 35.114 0.921 7.71 2.55 12.78
2/5/2021 7:30:00 AM 1.73 35.114 0.921 7.72 2.51 12.79
2/5/2021 7:45:00 AM 1.73 35.114 0.922 7.72 2.6 12.85
2/5/2021 8:00:00 AM 1.75 35.15 0.922 7.72 2.49 12.93
2/5/2021 8:15:00 AM 1.77 35.186 0.922 7.76 2.52 13.05
2/5/2021 8:30:00 AM 1.81 35.258 0.924 7.78 2.5 13.22
2/5/2021 8:45:00 AM 1.86 35.348 0.924 7.81 2.47 13.43
2/5/2021 9:00:00 AM 1.93 35.474 0.925 7.86 2.52 13.68
2/5/2021 9:15:00 AM 1.98 35.564 0.921 7.92 2.52 13.94
2/5/2021 9:30:00 AM 2.04 35.672 0.923 7.99 2.49 14.2
2/5/2021 9:45:00 AM 2.14 35.852 0.92 8.06 2.48 14.44
2/5/2021 10:00:00 AM 2.19 35.942 0.918 8.15 2.49 14.66
2/5/2021 10:15:00 AM 2.27 36.086 0.917 8.22 2.5 14.86
2/5/2021 10:30:00 AM 2.34 36.212 0.916 8.3 2.49 15.02
2/5/2021 10:45:00 AM 2.37 36.266 0.914 8.38 2.49 15.15
2/5/2021 11:00:00 AM 2.38 36.284 0.911 8.43 2.54 15.26
2/5/2021 11:15:00 AM 2.39 36.302 0.907 8.5 2.48 15.33
2/5/2021 11:30:00 AM 2.42 36.356 0.902 8.54 2.47 15.4
2/5/2021 11:45:00 AM 2.48 36.464 0.895 8.6 2.45 15.51
2/5/2021 12:00:00 PM 2.54 36.572 0.89 8.65 2.45 15.6
2/5/2021 12:15:00 PM 2.6 36.68 0.885 8.69 2.47 15.68
2/5/2021 12:30:00 PM 2.65 36.77 0.88 8.74 2.46 15.75
2/5/2021 12:45:00 PM 2.65 36.77 0.872 8.79 2.64 15.8
2/5/2021 1:00:00 PM 2.68 36.824 0.871 8.82 2.46 15.85
2/5/2021 1:15:00 PM 2.67 36.806 0.865 8.86 2.51 15.86
2/5/2021 1:30:00 PM 2.7 36.86 0.861 8.89 2.52 15.89
2/5/2021 1:45:00 PM 2.74 36.932 0.857 8.92 2.59 15.93
2/5/2021 2:00:00 PM 2.77 36.986 0.851 8.95 2.5 15.97
2/5/2021 2:15:00 PM 2.8 37.04 0.845 8.98 2.49 15.99
2/5/2021 2:30:00 PM 2.85 37.13 0.841 9.02 2.49 16.03
2/5/2021 2:45:00 PM 2.86 37.148 0.835 9.05 2.56 16.03
2/5/2021 3:00:00 PM 2.9 37.22 0.831 9.07 2.53 16.03
2/5/2021 3:15:00 PM 2.9 37.22 0.826 9.11 2.52 16.03
2/5/2021 3:30:00 PM 2.92 37.256 0.824 9.13 2.62 16.01
2/5/2021 3:45:00 PM 2.92 37.256 0.82 9.15 2.59 15.94
2/5/2021 4:00:00 PM 2.9 37.22 0.815 9.16 2.55 15.85
2/5/2021 4:15:00 PM 2.88 37.184 0.811 9.18 2.57 15.73
2/5/2021 4:30:00 PM 2.85 37.13 0.805 9.17 2.58 15.61
2/5/2021 4:45:00 PM 2.81 37.058 0.801 9.17 2.58 15.46
2/5/2021 5:00:00 PM 2.77 36.986 0.796 9.16 2.63 15.28
2/5/2021 5:15:00 PM 2.73 36.914 0.792 9.15 2.63 15.09
2/5/2021 5:30:00 PM 2.7 36.86 0.789 9.12 2.58 14.91
2/5/2021 5:45:00 PM 2.66 36.788 0.785 9.1 2.59 14.68
2/5/2021 6:00:00 PM 2.62 36.716 0.781 9.07 2.58 14.46
2/5/2021 6:15:00 PM 2.56 36.608 0.779 9.03 2.65 14.27
2/5/2021 6:30:00 PM 2.52 36.536 0.778 8.99 2.6 14.12
2/5/2021 6:45:00 PM 2.44 36.392 0.771 8.97 2.58 13.98
2/5/2021 7:00:00 PM 2.4 36.32 0.77 8.92 2.71 13.88
2/5/2021 7:15:00 PM 2.32 36.176 0.764 8.89 2.64 13.8
2/5/2021 7:30:00 PM 2.26 36.068 0.76 8.86 2.64 13.71
2/5/2021 7:45:00 PM 2.21 35.978 0.758 8.83 2.58 13.66
2/5/2021 8:00:00 PM 2.15 35.87 0.752 8.8 2.56 13.6
2/5/2021 8:15:00 PM 2.1 35.78 0.751 8.77 2.69 13.54
2/5/2021 8:30:00 PM 2.05 35.69 0.749 8.71 2.56 13.49
2/5/2021 8:45:00 PM 2.02 35.636 0.749 8.68 2.54 13.43
2/5/2021 9:00:00 PM 1.99 35.582 0.748 8.63 2.59 13.39
2/5/2021 9:15:00 PM 1.97 35.546 0.749 8.56 2.53 13.34
2/5/2021 9:30:00 PM 1.96 35.528 0.75 8.51 2.56 13.29
2/5/2021 9:45:00 PM 1.93 35.474 0.751 8.45 2.57 13.25
2/5/2021 10:00:00 PM 1.9 35.42 0.752 8.39 2.5 13.22
2/5/2021 10:15:00 PM 1.87 35.366 0.753 8.32 2.58 13.2
2/5/2021 10:30:00 PM 1.82 35.276 0.755 8.26 2.6 13.17
2/5/2021 10:45:00 PM 1.75 35.15 0.758 8.19 2.5 13.15
2/5/2021 11:00:00 PM 1.72 35.096 0.762 8.15 2.52 13.13
2/5/2021 11:15:00 PM 1.68 35.024 0.766 8.08 2.45 13.12
2/5/2021 11:30:00 PM 1.67 35.006 0.769 8.06 2.51 13.09
2/5/2021 11:45:00 PM 1.64 34.952 0.772 8.01 2.52 13.08
2/6/2021 12:00:00 AM 1.61 34.898 0.776 7.98 2.52 13.06
2/6/2021 12:15:00 AM 1.58 34.844 0.777 7.97 2.46 13.06
2/6/2021 12:30:00 AM 1.56 34.808 0.78 7.94 2.58 13.05
2/6/2021 12:45:00 AM 1.54 34.772 0.783 7.91 2.5 13.05
2/6/2021 1:00:00 AM 1.53 34.754 0.787 7.9 2.63 13.04
2/6/2021 1:15:00 AM 1.51 34.718 0.789 7.88 2.53 13.04
2/6/2021 1:30:00 AM 1.5 34.7 0.795 7.86 2.53 13.03
2/6/2021 1:45:00 AM 1.49 34.682 0.801 7.86 2.48 13.03
2/6/2021 2:00:00 AM 1.48 34.664 0.804 7.83 2.53 13.03
2/6/2021 2:15:00 AM 1.46 34.628 0.809 7.83 2.57 13.02
2/6/2021 2:30:00 AM 1.44 34.592 0.815 7.82 2.51 13.02
2/6/2021 2:45:00 AM 1.4 34.52 0.819 7.82 2.56 13.03
2/6/2021 3:00:00 AM 1.38 34.484 0.823 7.81 2.48 13.03
2/6/2021 3:15:00 AM 1.38 34.484 0.829 7.79 2.54 13.02
2/6/2021 3:30:00 AM 1.38 34.484 0.832 7.79 2.56 13.02
2/6/2021 3:45:00 AM 1.37 34.466 0.836 7.79 2.47 13.02
2/6/2021 4:00:00 AM 1.36 34.448 0.841 7.78 2.53 13.03
2/6/2021 4:15:00 AM 1.34 34.412 0.845 7.77 2.77 13.02
2/6/2021 4:30:00 AM 1.3 34.34 0.849 7.77 2.58 13.03
2/6/2021 4:45:00 AM 1.27 34.286 0.854 7.77 2.59 13.03
2/6/2021 5:00:00 AM 1.24 34.232 0.859 7.76 2.53 13.03
2/6/2021 5:15:00 AM 1.21 34.178 0.863 7.76 2.56 13.04
2/6/2021 5:30:00 AM 1.19 34.142 0.868 7.76 2.52 13.05
2/6/2021 5:45:00 AM 1.17 34.106 0.873 7.75 2.57 13.06
2/6/2021 6:00:00 AM 1.14 34.052 0.878 7.75 2.51 13.06
2/6/2021 6:15:00 AM 1.11 33.998 0.884 7.75 2.53 13.07
2/6/2021 6:30:00 AM 1.09 33.962 0.889 7.74 2.49 13.07
2/6/2021 6:45:00 AM 1.06 33.908 0.893 7.74 2.54 13.09
2/6/2021 7:00:00 AM 1.02 33.836 0.897 7.74 2.51 13.1
2/6/2021 7:15:00 AM 0.99 33.782 0.9 7.74 2.58 13.11
2/6/2021 7:30:00 AM 0.97 33.746 0.904 7.74 2.56 13.16
2/6/2021 7:45:00 AM 0.93 33.674 0.907 7.75 2.54 13.23
2/6/2021 8:00:00 AM 0.91 33.638 0.912 7.77 2.57 13.36
2/6/2021 8:15:00 AM 0.89 33.602 0.915 7.79 2.6 13.51
2/6/2021 8:30:00 AM 0.87 33.566 0.919 7.82 2.59 13.69
2/6/2021 8:45:00 AM 0.87 33.566 0.919 7.85 2.61 13.91
2/6/2021 9:00:00 AM 0.88 33.584 0.921 7.89 2.67 14.13
2/6/2021 9:15:00 AM 0.91 33.638 0.92 7.94 2.59 14.36
2/6/2021 9:30:00 AM 0.95 33.71 0.919 7.99 2.58 14.59
2/6/2021 9:45:00 AM 1.03 33.854 0.913 8.05 2.65 14.83
2/6/2021 10:00:00 AM 1.14 34.052 0.907 8.11 2.61 15.05
2/6/2021 10:15:00 AM 1.26 34.268 0.902 8.17 2.6 15.22
2/6/2021 10:30:00 AM 1.34 34.412 0.897 8.23 2.62 15.36
2/6/2021 10:45:00 AM 1.45 34.61 0.895 8.29 2.66 15.48
2/6/2021 11:00:00 AM 1.56 34.808 0.892 8.36 2.55 15.62
2/6/2021 11:15:00 AM 1.69 35.042 0.894 8.42 2.62 15.73
2/6/2021 11:30:00 AM 1.81 35.258 0.901 8.48 2.6 15.83
2/6/2021 11:45:00 AM 1.92 35.456 0.909 8.54 2.54 15.91
2/6/2021 12:00:00 PM 2.02 35.636 0.908 8.59 2.54 15.98
2/6/2021 12:15:00 PM 2.09 35.762 0.908 8.63 2.53 16.03
2/6/2021 12:30:00 PM 2.17 35.906 0.913 8.66 2.58 16.09
2/6/2021 12:45:00 PM 2.25 36.05 0.914 8.72 2.57 16.13
2/6/2021 1:00:00 PM 2.31 36.158 0.915 8.76 2.59 16.16
2/6/2021 1:15:00 PM 2.37 36.266 0.917 8.79 2.58 16.18
2/6/2021 1:30:00 PM 2.45 36.41 0.917 8.82 2.53 16.2
2/6/2021 1:45:00 PM 2.55 36.59 0.916 8.86 2.55 16.22
2/6/2021 2:00:00 PM 2.62 36.716 0.916 8.89 2.52 16.24
2/6/2021 2:15:00 PM 2.68 36.824 0.915 8.92 2.57 16.24
2/6/2021 2:30:00 PM 2.72 36.896 0.914 8.95 2.54 16.23
2/6/2021 2:45:00 PM 2.76 36.968 0.912 8.97 2.52 16.21
2/6/2021 3:00:00 PM 2.78 37.004 0.911 9 2.64 16.19
2/6/2021 3:15:00 PM 2.79 37.022 0.909 9.02 2.55 16.16
2/6/2021 3:30:00 PM 2.78 37.004 0.909 9.05 2.56 16.12
2/6/2021 3:45:00 PM 2.76 36.968 0.909 9.06 2.52 16.06
2/6/2021 4:00:00 PM 2.72 36.896 0.908 9.08 2.56 16
2/6/2021 4:15:00 PM 2.64 36.752 0.904 9.08 2.6 15.9
2/6/2021 4:30:00 PM 2.59 36.662 0.902 9.09 2.61 15.81
2/6/2021 4:45:00 PM 2.53 36.554 0.899 9.09 2.61 15.69
2/6/2021 5:00:00 PM 2.46 36.428 0.892 9.09 2.64 15.53
2/6/2021 5:15:00 PM 2.41 36.338 0.888 9.07 2.62 15.35
2/6/2021 5:30:00 PM 2.33 36.194 0.881 9.05 2.65 15.15
2/6/2021 5:45:00 PM 2.26 36.068 0.876 9.02 2.57 14.93
2/6/2021 6:00:00 PM 2.2 35.96 0.871 9 2.62 14.73
2/6/2021 6:15:00 PM 2.13 35.834 0.867 8.96 2.58 14.54
2/6/2021 6:30:00 PM 2.06 35.708 0.864 8.93 2.66 14.39
2/6/2021 6:45:00 PM 1.99 35.582 0.861 8.89 2.63 14.27
2/6/2021 7:00:00 PM 1.91 35.438 0.86 8.86 2.63 14.17
2/6/2021 7:15:00 PM 1.82 35.276 0.858 8.83 2.56 14.1
2/6/2021 7:30:00 PM 1.73 35.114 0.86 8.8 2.6 14.05
2/6/2021 7:45:00 PM 1.63 34.934 0.86 8.77 2.66 14
2/6/2021 8:00:00 PM 1.54 34.772 0.861 8.74 2.64 13.96
2/6/2021 8:15:00 PM 1.46 34.628 0.867 8.71 2.66 13.93
2/6/2021 8:30:00 PM 1.39 34.502 0.875 8.68 2.65 13.89
2/6/2021 8:45:00 PM 1.31 34.358 0.882 8.65 2.72 13.86
2/6/2021 9:00:00 PM 1.24 34.232 0.884 8.6 2.63 13.83
2/6/2021 9:15:00 PM 1.15 34.07 0.883 8.55 2.69 13.79
2/6/2021 9:30:00 PM 1.07 33.926 0.882 8.49 2.66 13.76
2/6/2021 9:45:00 PM 1 33.8 0.882 8.43 2.64 13.74
2/6/2021 10:00:00 PM 0.94 33.692 0.88 8.37 2.64 13.71
2/6/2021 10:15:00 PM 0.88 33.584 0.881 8.31 2.72 13.69
2/6/2021 10:30:00 PM 0.82 33.476 0.878 8.25 2.6 13.67
2/6/2021 10:45:00 PM 0.76 33.368 0.875 8.19 2.61 13.66
2/6/2021 11:00:00 PM 0.7 33.26 0.872 8.13 2.61 13.64
2/6/2021 11:15:00 PM 0.64 33.152 0.868 8.09 2.58 13.63
2/6/2021 11:30:00 PM 0.59 33.062 0.865 8.04 2.58 13.62
2/6/2021 11:45:00 PM 0.54 32.972 0.864 8.01 2.57 13.61
2/7/2021 12:00:00 AM 0.49 32.882 0.862 7.98 2.62 13.61
2/7/2021 12:15:00 AM 0.45 32.81 0.859 7.95 2.59 13.6
2/7/2021 12:30:00 AM 0.4 32.72 0.856 7.93 2.59 13.6
2/7/2021 12:45:00 AM 0.35 32.63 0.853 7.91 2.64 13.6
2/7/2021 1:00:00 AM 0.31 32.558 0.847 7.89 2.64 13.6
2/7/2021 1:15:00 AM 0.27 32.486 0.846 7.87 2.6 13.61
2/7/2021 1:30:00 AM 0.24 32.432 0.842 7.86 2.61 13.61
2/7/2021 1:45:00 AM 0.21 32.378 0.839 7.85 2.6 13.62
2/7/2021 2:00:00 AM 0.18 32.324 0.838 7.82 2.62 13.62
2/7/2021 2:15:00 AM 0.16 32.288 0.837 7.83 3.78 13.62
2/7/2021 2:30:00 AM 0.14 32.252 0.836 7.82 2.58 13.63
2/7/2021 2:45:00 AM 0.13 32.234 0.837 7.81 2.58 13.62
2/7/2021 3:00:00 AM 0.12 32.216 0.839 7.8 2.55 13.62
2/7/2021 3:15:00 AM 0.12 32.216 0.839 7.79 2.56 13.62
2/7/2021 3:30:00 AM 0.12 32.216 0.84 7.78 2.53 13.62
2/7/2021 3:45:00 AM 0.12 32.216 0.839 7.78 2.56 13.62
2/7/2021 4:00:00 AM 0.12 32.216 0.84 7.78 2.56 13.61
2/7/2021 4:15:00 AM 0.12 32.216 0.839 7.77 3.18 13.61
2/7/2021 4:30:00 AM 0.12 32.216 0.837 7.76 2.56 13.6
2/7/2021 4:45:00 AM 0.12 32.216 0.838 7.75 2.52 13.6
2/7/2021 5:00:00 AM 0.13 32.234 0.837 7.76 2.58 13.59
2/7/2021 5:15:00 AM 0.13 32.234 0.837 7.75 2.53 13.59
2/7/2021 5:30:00 AM 0.14 32.252 0.838 7.73 2.5 13.58
2/7/2021 5:45:00 AM 0.15 32.27 0.838 7.74 2.48 13.57
2/7/2021 6:00:00 AM 0.15 32.27 0.839 7.74 2.51 13.56
2/7/2021 6:15:00 AM 0.16 32.288 0.841 7.74 2.57 13.55
2/7/2021 6:30:00 AM 0.16 32.288 0.842 7.73 2.52 13.55
2/7/2021 6:45:00 AM 0.16 32.288 0.842 7.73 2.5 13.55
2/7/2021 7:00:00 AM 0.17 32.306 0.841 7.71 2.57 13.54
2/7/2021 7:15:00 AM 0.17 32.306 0.842 7.72 2.56 13.54
2/7/2021 7:30:00 AM 0.17 32.306 0.842 7.73 2.56 13.55
2/7/2021 7:45:00 AM 0.17 32.306 0.841 7.73 2.53 13.58
2/7/2021 8:00:00 AM 0.16 32.288 0.841 7.73 2.53 13.64
2/7/2021 8:15:00 AM 0.15 32.27 0.841 7.76 2.53 13.73
2/7/2021 8:30:00 AM 0.12 32.216 0.844 7.77 2.61 13.81
2/7/2021 8:45:00 AM 0.11 32.198 0.846 7.79 2.6 13.93
2/7/2021 9:00:00 AM 0.12 32.216 0.848 7.8 2.54 14.11
2/7/2021 9:15:00 AM 0.14 32.252 0.85 7.85 2.66 14.34
2/7/2021 9:30:00 AM 0.21 32.378 0.85 7.9 2.57 14.63
2/7/2021 9:45:00 AM 0.25 32.45 0.854 7.96 2.6 14.88
2/7/2021 10:00:00 AM 0.32 32.576 0.851 8.02 2.61 15.12
2/7/2021 10:15:00 AM 0.36 32.648 0.849 8.08 2.53 15.3
2/7/2021 10:30:00 AM 0.41 32.738 0.85 8.14 2.54 15.47
2/7/2021 10:45:00 AM 0.47 32.846 0.849 8.2 2.53 15.62
2/7/2021 11:00:00 AM 0.55 32.99 0.848 8.27 2.56 15.77
2/7/2021 11:15:00 AM 0.61 33.098 0.844 8.33 2.62 15.9
2/7/2021 11:30:00 AM 0.71 33.278 0.842 8.4 2.56 16.03
2/7/2021 11:45:00 AM 0.77 33.386 0.843 8.46 2.57 16.14
2/7/2021 12:00:00 PM 0.85 33.53 0.838 8.52 2.52 16.24
2/7/2021 12:15:00 PM 0.91 33.638 0.838 8.57 2.58 16.33
2/7/2021 12:30:00 PM 0.94 33.692 0.839 8.62 2.59 16.39
2/7/2021 12:45:00 PM 0.95 33.71 0.839 8.66 2.56 16.46
2/7/2021 1:00:00 PM 1 33.8 0.839 8.71 2.54 16.53
2/7/2021 1:15:00 PM 1.14 34.052 0.836 8.75 2.48 16.61
2/7/2021 1:30:00 PM 1.27 34.286 0.834 8.79 2.55 16.67
2/7/2021 1:45:00 PM 1.4 34.52 0.832 8.83 2.53 16.71
2/7/2021 2:00:00 PM 1.5 34.7 0.83 8.86 2.49 16.73
2/7/2021 2:15:00 PM 1.61 34.898 0.829 8.9 2.44 16.76
2/7/2021 2:30:00 PM 1.69 35.042 0.825 8.93 2.5 16.78
2/7/2021 2:45:00 PM 1.74 35.132 0.823 8.96 2.51 16.77
2/7/2021 3:00:00 PM 1.77 35.186 0.818 8.98 2.55 16.77
2/7/2021 3:15:00 PM 1.75 35.15 0.814 9.02 2.54 16.73
2/7/2021 3:30:00 PM 1.67 35.006 0.809 9.03 2.54 16.67
2/7/2021 3:45:00 PM 1.6 34.88 0.804 9.05 2.54 16.61
2/7/2021 4:00:00 PM 1.56 34.808 0.8 9.07 2.58 16.56
2/7/2021 4:15:00 PM 1.5 34.7 0.796 9.09 2.8 16.51
2/7/2021 4:30:00 PM 1.44 34.592 0.793 9.1 2.62 16.43
2/7/2021 4:45:00 PM 1.37 34.466 0.789 9.11 2.68 16.33
2/7/2021 5:00:00 PM 1.3 34.34 0.786 9.11 2.59 16.18
2/7/2021 5:15:00 PM 1.23 34.214 0.781 9.11 2.65 15.99
2/7/2021 5:30:00 PM 1.16 34.088 0.776 9.09 2.62 15.78
2/7/2021 5:45:00 PM 1.11 33.998 0.772 9.07 2.65 15.56
2/7/2021 6:00:00 PM 1.06 33.908 0.765 9.04 2.65 15.35
2/7/2021 6:15:00 PM 1 33.8 0.757 9.01 2.73 15.15
2/7/2021 6:30:00 PM 0.95 33.71 0.751 8.99 2.71 15
2/7/2021 6:45:00 PM 0.91 33.638 0.742 8.96 2.66 14.87
2/7/2021 7:00:00 PM 0.86 33.548 0.734 8.93 2.7 14.76
2/7/2021 7:15:00 PM 0.81 33.458 0.728 8.9 2.64 14.67
2/7/2021 7:30:00 PM 0.76 33.368 0.723 8.87 2.66 14.59
2/7/2021 7:45:00 PM 0.7 33.26 0.719 8.83 2.62 14.52
2/7/2021 8:00:00 PM 0.64 33.152 0.716 8.79 2.67 14.46
2/7/2021 8:15:00 PM 0.57 33.026 0.715 8.75 2.63 14.41
2/7/2021 8:30:00 PM 0.5 32.9 0.717 8.71 2.6 14.36
2/7/2021 8:45:00 PM 0.43 32.774 0.718 8.67 2.67 14.31
2/7/2021 9:00:00 PM 0.35 32.63 0.721 8.61 2.55 14.27
2/7/2021 9:15:00 PM 0.28 32.504 0.724 8.56 2.58 14.24
2/7/2021 9:30:00 PM 0.22 32.396 0.728 8.5 2.69 14.2
2/7/2021 9:45:00 PM 0.16 32.288 0.732 8.45 2.58 14.17
2/7/2021 10:00:00 PM 0.1 32.18 0.736 8.39 2.6 14.15
2/7/2021 10:15:00 PM 0.04 32.072 0.74 8.33 2.63 14.12
2/7/2021 10:30:00 PM -0.01 31.982 0.743 8.27 2.63 14.1
2/7/2021 10:45:00 PM -0.06 31.892 0.747 8.22 2.61 14.07
2/7/2021 11:00:00 PM -0.09 31.838 0.75 8.18 2.6 14.06
2/7/2021 11:15:00 PM -0.11 31.802 0.753 8.13 2.62 14.05
2/7/2021 11:30:00 PM -0.1 31.82 0.755 8.11 2.62 14.03
2/7/2021 11:45:00 PM -0.08 31.856 0.756 8.07 2.67 14.02
2/8/2021 12:00:00 AM -0.08 31.856 0.756 8.05 2.59 14.02
2/8/2021 12:15:00 AM -0.07 31.874 0.757 8.04 2.66 14.01
2/8/2021 12:30:00 AM -0.07 31.874 0.757 8.01 2.65 14
2/8/2021 12:45:00 AM -0.07 31.874 0.755 8 2.85 13.99
2/8/2021 1:00:00 AM -0.07 31.874 0.753 7.98 2.92 13.98
2/8/2021 1:15:00 AM -0.07 31.874 0.751 7.96 3.08 13.97
2/8/2021 1:30:00 AM -0.07 31.874 0.75 7.95 3.02 13.97
2/8/2021 1:45:00 AM -0.07 31.874 0.749 7.93 3.23 13.96
2/8/2021 2:00:00 AM -0.07 31.874 0.747 7.92 3.93 13.95
2/8/2021 2:15:00 AM -0.06 31.892 0.745 7.91 5.24 13.95
2/8/2021 2:30:00 AM -0.06 31.892 0.744 7.89 3.65 13.95
2/8/2021 2:45:00 AM -0.06 31.892 0.742 7.88 3.92 13.95
2/8/2021 3:00:00 AM -0.07 31.874 0.741 7.87 4.16 13.95
2/8/2021 3:15:00 AM -0.06 31.892 0.739 7.86 2.97 13.95
2/8/2021 3:30:00 AM -0.06 31.892 0.739 7.85 3.32 13.94
2/8/2021 3:45:00 AM -0.06 31.892 0.738 7.84 2.87 13.95
2/8/2021 4:00:00 AM -0.07 31.874 0.738 7.84 3.04 13.94
2/8/2021 4:15:00 AM -0.07 31.874 0.737 7.83 3.16 13.95
2/8/2021 4:30:00 AM -0.07 31.874 0.736 7.82 2.82 13.95
2/8/2021 4:45:00 AM -0.07 31.874 0.735 7.82 2.75 13.94
2/8/2021 5:00:00 AM -0.07 31.874 0.733 7.81 2.76 13.94
2/8/2021 5:15:00 AM -0.07 31.874 0.731 7.79 3.08 13.94
2/8/2021 5:30:00 AM -0.07 31.874 0.73 7.79 3.29 13.94
2/8/2021 5:45:00 AM -0.07 31.874 0.727 7.79 2.94 13.93
2/8/2021 6:00:00 AM -0.07 31.874 0.726 7.77 2.61 13.92
2/8/2021 6:15:00 AM -0.07 31.874 0.726 7.77 2.67 13.92
2/8/2021 6:30:00 AM -0.07 31.874 0.726 7.76 2.91 13.9
2/8/2021 6:45:00 AM -0.07 31.874 0.725 7.76 2.57 13.9
2/8/2021 7:00:00 AM -0.07 31.874 0.724 7.76 2.53 13.89
2/8/2021 7:15:00 AM -0.07 31.874 0.726 7.76 2.59 13.89
2/8/2021 7:30:00 AM -0.07 31.874 0.727 7.75 2.58 13.91
2/8/2021 7:45:00 AM -0.07 31.874 0.728 7.76 2.52 13.96
2/8/2021 8:00:00 AM -0.07 31.874 0.729 7.76 2.49 14.04
2/8/2021 8:15:00 AM -0.07 31.874 0.73 7.78 2.68 14.13
2/8/2021 8:30:00 AM -0.06 31.892 0.73 7.8 2.51 14.27
2/8/2021 8:45:00 AM -0.05 31.91 0.729 7.81 2.53 14.46
2/8/2021 9:00:00 AM -0.05 31.91 0.728 7.84 2.53 14.65
2/8/2021 9:15:00 AM -0.05 31.91 0.727 7.87 2.52 14.87
2/8/2021 9:30:00 AM -0.03 31.946 0.721 7.9 2.6 15.1
2/8/2021 9:45:00 AM -0.03 31.946 0.719 7.94 2.58 15.32
2/8/2021 10:00:00 AM -0.03 31.946 0.714 8 2.58 15.55
2/8/2021 10:15:00 AM -0.03 31.946 0.716 8.06 2.57 15.77
2/8/2021 10:30:00 AM -0.03 31.946 0.719 8.12 2.57 16
2/8/2021 10:45:00 AM -0.03 31.946 0.724 8.19 2.59 16.23
2/8/2021 11:00:00 AM -0.02 31.964 0.727 8.26 2.61 16.47
2/8/2021 11:15:00 AM -0.02 31.964 0.727 8.33 2.76 16.7
2/8/2021 11:30:00 AM -0.02 31.964 0.73 8.42 3 16.92
2/8/2021 11:45:00 AM -0.02 31.964 0.731 8.48 2.82 17.12
2/8/2021 12:00:00 PM -0.01 31.982 0.735 8.55 2.81 17.26
2/8/2021 12:15:00 PM -0.01 31.982 0.735 8.6 2.94 17.36
2/8/2021 12:30:00 PM 0 32 0.736 8.65 2.63 17.46
2/8/2021 12:45:00 PM 0.01 32.018 0.739 8.68 3.09 17.54
2/8/2021 1:00:00 PM 0.04 32.072 0.743 8.73 2.57 17.59
2/8/2021 1:15:00 PM 0.09 32.162 0.742 8.76 4.84 17.59
2/8/2021 1:30:00 PM 0.15 32.27 0.738 8.79 4.7 17.61
2/8/2021 1:45:00 PM 0.21 32.378 0.734 8.83 4.77 17.62
2/8/2021 2:00:00 PM 0.28 32.504 0.727 8.88 4.8 17.59
2/8/2021 2:15:00 PM 0.36 32.648 0.721 8.92 4.85 17.57
2/8/2021 2:30:00 PM 0.43 32.774 0.713 8.94 4.88 17.5
2/8/2021 2:45:00 PM 0.5 32.9 0.708 8.96 4.81 17.43
2/8/2021 3:00:00 PM 0.6 33.08 0.706 8.98 4.84 17.37
2/8/2021 3:15:00 PM 0.64 33.152 0.706 9.01 4.8 17.33
2/8/2021 3:30:00 PM 0.68 33.224 0.706 9.02 4.77 17.29
2/8/2021 3:45:00 PM 0.68 33.224 0.709 9.04 4.97 17.24
2/8/2021 4:00:00 PM 0.68 33.224 0.709 9.06 4.8 17.18
2/8/2021 4:15:00 PM 0.65 33.17 0.707 9.06 4.84 17.11
2/8/2021 4:30:00 PM 0.6 33.08 0.708 9.08 4.83 17.03
2/8/2021 4:45:00 PM 0.55 32.99 0.708 9.08 4.96 16.94
2/8/2021 5:00:00 PM 0.48 32.864 0.708 9.08 4.94 16.82
2/8/2021 5:15:00 PM 0.42 32.756 0.708 9.07 4.8 16.66
2/8/2021 5:30:00 PM 0.36 32.648 0.709 9.06 4.91 16.48
2/8/2021 5:45:00 PM 0.3 32.54 0.708 9.04 5.25 16.27
2/8/2021 6:00:00 PM 0.25 32.45 0.707 9.03 5.31 16.07
2/8/2021 6:15:00 PM 0.2 32.36 0.705 9.01 5.28 15.88
2/8/2021 6:30:00 PM 0.16 32.288 0.702 8.99 5.25 15.73
2/8/2021 6:45:00 PM 0.13 32.234 0.698 8.97 5.89 15.58
2/8/2021 7:00:00 PM 0.09 32.162 0.692 8.95 5.76 15.46
2/8/2021 7:15:00 PM 0.06 32.108 0.685 8.92 5.85 15.36
2/8/2021 7:30:00 PM 0.03 32.054 0.678 8.9 5.76 15.27
2/8/2021 7:45:00 PM 0 32 0.669 8.88 5.91 15.18
2/8/2021 8:00:00 PM -0.04 31.928 0.661 8.85 6.02 15.09
2/8/2021 8:15:00 PM -0.08 31.856 0.655 8.81 6.01 15.02
2/8/2021 8:30:00 PM -0.11 31.802 0.65 8.77 5.84 14.94
2/8/2021 8:45:00 PM -0.1 31.82 0.647 8.73 5.76 14.88
2/8/2021 9:00:00 PM -0.08 31.856 0.646 8.67 5.74 14.8
2/8/2021 9:15:00 PM -0.08 31.856 0.646 8.61 5.81 14.74
2/8/2021 9:30:00 PM -0.07 31.874 0.648 8.56 5.77 14.68
2/8/2021 9:45:00 PM -0.07 31.874 0.649 8.5 5.78 14.6
2/8/2021 10:00:00 PM -0.07 31.874 0.653 8.43 5.78 14.54
2/8/2021 10:15:00 PM -0.07 31.874 0.657 8.37 5.81 14.48
2/8/2021 10:30:00 PM -0.07 31.874 0.662 8.31 5.74 14.43
2/8/2021 10:45:00 PM -0.07 31.874 0.667 8.24 5.82 14.38
2/8/2021 11:00:00 PM -0.07 31.874 0.673 8.19 5.75 14.32
2/8/2021 11:15:00 PM -0.07 31.874 0.68 8.14 5.77 14.27
2/8/2021 11:30:00 PM -0.07 31.874 0.684 8.09 5.74 14.24
2/8/2021 11:45:00 PM -0.07 31.874 0.689 8.05 5.8 14.2
2/9/2021 12:00:00 AM -0.07 31.874 0.694 8.03 5.77 14.16
2/9/2021 12:15:00 AM -0.07 31.874 0.698 8 5.79 14.12
2/9/2021 12:30:00 AM -0.07 31.874 0.7 7.98 5.78 14.1
2/9/2021 12:45:00 AM -0.07 31.874 0.703 7.95 5.79 14.08
2/9/2021 1:00:00 AM -0.07 31.874 0.704 7.94 5.81 14.05
2/9/2021 1:15:00 AM -0.07 31.874 0.707 7.92 5.86 14.03
2/9/2021 1:30:00 AM -0.07 31.874 0.707 7.91 5.82 14
2/9/2021 1:45:00 AM -0.07 31.874 0.71 7.9 5.81 13.99
2/9/2021 2:00:00 AM -0.07 31.874 0.711 7.9 5.81 13.97
2/9/2021 2:15:00 AM -0.07 31.874 0.712 7.88 5.88 13.95
2/9/2021 2:30:00 AM -0.07 31.874 0.712 7.87 5.81 13.93
2/9/2021 2:45:00 AM -0.07 31.874 0.712 7.86 5.8 13.91
2/9/2021 3:00:00 AM -0.07 31.874 0.712 7.86 5.76 13.89
2/9/2021 3:15:00 AM -0.07 31.874 0.711 7.85 5.69 13.87
2/9/2021 3:30:00 AM -0.07 31.874 0.708 7.84 5.57 13.85
2/9/2021 3:45:00 AM -0.07 31.874 0.706 7.83 5.2 13.84
2/9/2021 4:00:00 AM -0.07 31.874 0.703 7.82 2.61 13.82
2/9/2021 4:15:00 AM -0.07 31.874 0.702 7.82 2.73 13.81
2/9/2021 4:30:00 AM -0.07 31.874 0.699 7.81 2.55 13.8
2/9/2021 4:45:00 AM -0.07 31.874 0.699 7.81 2.54 13.79
2/9/2021 5:00:00 AM -0.07 31.874 0.697 7.8 2.51 13.78
2/9/2021 5:15:00 AM -0.07 31.874 0.696 7.79 2.56 13.77
2/9/2021 5:30:00 AM -0.07 31.874 0.693 7.78 2.53 13.76
2/9/2021 5:45:00 AM -0.07 31.874 0.691 7.78 2.54 13.75
2/9/2021 6:00:00 AM -0.07 31.874 0.688 7.78 2.57 13.74
2/9/2021 6:15:00 AM -0.07 31.874 0.685 7.76 2.5 13.73
2/9/2021 6:30:00 AM -0.07 31.874 0.681 7.76 2.5 13.72
2/9/2021 6:45:00 AM -0.07 31.874 0.677 7.74 2.46 13.71
2/9/2021 7:00:00 AM -0.07 31.874 0.673 7.73 2.45 13.7
2/9/2021 7:15:00 AM -0.07 31.874 0.668 7.73 2.44 13.7
2/9/2021 7:30:00 AM -0.07 31.874 0.664 7.72 2.41 13.7
2/9/2021 7:45:00 AM -0.06 31.892 0.66 7.73 2.4 13.77
2/9/2021 8:00:00 AM -0.06 31.892 0.654 7.75 2.4 13.85
2/9/2021 8:15:00 AM -0.06 31.892 0.649 7.77 2.46 14
2/9/2021 8:30:00 AM -0.05 31.91 0.643 7.81 2.39 14.17
2/9/2021 8:45:00 AM -0.04 31.928 0.637 7.85 2.4 14.37
2/9/2021 9:00:00 AM -0.01 31.982 0.632 7.86 2.36 14.59
2/9/2021 9:15:00 AM 0.04 32.072 0.627 7.89 2.37 14.83
2/9/2021 9:30:00 AM 0.09 32.162 0.621 7.98 2.34 15.08
2/9/2021 9:45:00 AM 0.15 32.27 0.615 8.05 2.32 15.32
2/9/2021 10:00:00 AM 0.19 32.342 0.609 8.12 2.31 15.52
2/9/2021 10:15:00 AM 0.19 32.342 0.601 8.18 2.31 15.65
2/9/2021 10:30:00 AM 0.22 32.396 0.595 8.23 2.33 15.74
2/9/2021 10:45:00 AM 0.26 32.468 0.59 8.28 2.28 15.81
2/9/2021 11:00:00 AM 0.31 32.558 0.585 8.33 2.3 15.91
2/9/2021 11:15:00 AM 0.36 32.648 0.582 8.39 2.27 16.01
2/9/2021 11:30:00 AM 0.41 32.738 0.578 8.43 2.3 16.1
2/9/2021 11:45:00 AM 0.46 32.828 0.575 8.49 2.3 16.22
2/9/2021 12:00:00 PM 0.56 33.008 0.572 8.55 2.33 16.35
2/9/2021 12:15:00 PM 0.67 33.206 0.568 8.6 2.31 16.47
2/9/2021 12:30:00 PM 0.77 33.386 0.564 8.66 2.28 16.6
2/9/2021 12:45:00 PM 0.85 33.53 0.56 8.71 2.27 16.7
2/9/2021 1:00:00 PM 0.9 33.62 0.557 8.76 2.3 16.79
2/9/2021 1:15:00 PM 0.98 33.764 0.555 8.81 2.25 16.87
2/9/2021 1:30:00 PM 1.08 33.944 0.553 8.85 2.33 16.93
2/9/2021 1:45:00 PM 1.14 34.052 0.552 8.89 2.3 16.97
2/9/2021 2:00:00 PM 1.16 34.088 0.55 8.92 2.31 16.99
2/9/2021 2:15:00 PM 1.17 34.106 0.549 8.95 2.24 16.94
2/9/2021 2:30:00 PM 1.16 34.088 0.548 8.97 2.3 16.92
2/9/2021 2:45:00 PM 1.18 34.124 0.548 8.99 2.2 16.88
2/9/2021 3:00:00 PM 1.2 34.16 0.547 9.01 2.32 16.86
2/9/2021 3:15:00 PM 1.21 34.178 0.545 9.03 2.27 16.84
2/9/2021 3:30:00 PM 1.22 34.196 0.546 9.06 2.21 16.84
2/9/2021 3:45:00 PM 1.24 34.232 0.545 9.07 2.25 16.83
2/9/2021 4:00:00 PM 1.24 34.232 0.545 9.09 2.25 16.79
2/9/2021 4:15:00 PM 1.24 34.232 0.547 9.11 2.29 16.76
2/9/2021 4:30:00 PM 1.24 34.232 0.547 9.13 2.26 16.69
2/9/2021 4:45:00 PM 1.24 34.232 0.548 9.13 2.21 16.61
2/9/2021 5:00:00 PM 1.23 34.214 0.548 9.14 2.26 16.49
2/9/2021 5:15:00 PM 1.22 34.196 0.549 9.14 2.23 16.31
2/9/2021 5:30:00 PM 1.21 34.178 0.55 9.13 2.29 16.1
2/9/2021 5:45:00 PM 1.2 34.16 0.549 9.11 2.3 15.88
2/9/2021 6:00:00 PM 1.19 34.142 0.549 9.08 2.27 15.62
2/9/2021 6:15:00 PM 1.19 34.142 0.548 9.05 2.3 15.4
2/9/2021 6:30:00 PM 1.18 34.124 0.549 9.02 2.39 15.19
2/9/2021 6:45:00 PM 1.18 34.124 0.549 8.99 2.32 15.01
2/9/2021 7:00:00 PM 1.18 34.124 0.55 8.96 2.35 14.87
2/9/2021 7:15:00 PM 1.19 34.142 0.549 8.94 2.32 14.74
2/9/2021 7:30:00 PM 1.2 34.16 0.548 8.91 2.32 14.63
2/9/2021 7:45:00 PM 1.22 34.196 0.546 8.89 2.32 14.53
2/9/2021 8:00:00 PM 1.23 34.214 0.546 8.86 2.38 14.44
2/9/2021 8:15:00 PM 1.24 34.232 0.544 8.84 2.33 14.36
2/9/2021 8:30:00 PM 1.25 34.25 0.543 8.81 2.36 14.28
2/9/2021 8:45:00 PM 1.24 34.232 0.541 8.77 2.42 14.2
2/9/2021 9:00:00 PM 1.24 34.232 0.539 8.72 2.37 14.13
2/9/2021 9:15:00 PM 1.22 34.196 0.537 8.68 2.42 14.07
2/9/2021 9:30:00 PM 1.22 34.196 0.535 8.63 2.43 14
2/9/2021 9:45:00 PM 1.2 34.16 0.533 8.57 2.37 13.93
2/9/2021 10:00:00 PM 1.19 34.142 0.53 8.52 2.42 13.89
2/9/2021 10:15:00 PM 1.17 34.106 0.527 8.45 2.36 13.83
2/9/2021 10:30:00 PM 1.15 34.07 0.525 8.39 2.34 13.79
2/9/2021 10:45:00 PM 1.14 34.052 0.523 8.33 2.4 13.75
2/9/2021 11:00:00 PM 1.12 34.016 0.521 8.27 2.35 13.71
2/9/2021 11:15:00 PM 1.1 33.98 0.521 8.21 2.33 13.67
2/9/2021 11:30:00 PM 1.09 33.962 0.52 8.14 2.35 13.63
2/9/2021 11:45:00 PM 1.07 33.926 0.52 8.1 2.38 13.6
2/10/2021 12:00:00 AM 1.04 33.872 0.52 8.06 2.36 13.57
2/10/2021 12:15:00 AM 1.03 33.854 0.521 8.02 2.39 13.54
2/10/2021 12:30:00 AM 1.01 33.818 0.521 8 2.31 13.52
2/10/2021 12:45:00 AM 1 33.8 0.52 7.95 2.36 13.5
2/10/2021 1:00:00 AM 0.98 33.764 0.521 7.94 2.38 13.48
2/10/2021 1:15:00 AM 0.97 33.746 0.52 7.92 2.37 13.48
2/10/2021 1:30:00 AM 0.95 33.71 0.52 7.9 2.33 13.46
2/10/2021 1:45:00 AM 0.93 33.674 0.519 7.88 2.32 13.45
2/10/2021 2:00:00 AM 0.93 33.674 0.519 7.88 2.35 13.45
2/10/2021 2:15:00 AM 0.92 33.656 0.52 7.86 2.34 13.43
2/10/2021 2:30:00 AM 0.92 33.656 0.521 7.85 2.39 13.42
2/10/2021 2:45:00 AM 0.92 33.656 0.522 7.83 2.38 13.41
2/10/2021 3:00:00 AM 0.92 33.656 0.522 7.83 2.42 13.4
2/10/2021 3:15:00 AM 0.92 33.656 0.522 7.82 2.41 13.39
2/10/2021 3:30:00 AM 0.92 33.656 0.522 7.81 2.4 13.38
2/10/2021 3:45:00 AM 0.92 33.656 0.522 7.81 2.34 13.38
2/10/2021 4:00:00 AM 0.93 33.674 0.522 7.81 2.34 13.36
2/10/2021 4:15:00 AM 0.92 33.656 0.522 7.79 2.35 13.35
2/10/2021 4:30:00 AM 0.92 33.656 0.523 7.8 2.41 13.35
2/10/2021 4:45:00 AM 0.91 33.638 0.522 7.79 2.34 13.35
2/10/2021 5:00:00 AM 0.9 33.62 0.523 7.77 2.34 13.34
2/10/2021 5:15:00 AM 0.89 33.602 0.523 7.78 2.34 13.33
2/10/2021 5:30:00 AM 0.88 33.584 0.524 7.77 2.37 13.34
2/10/2021 5:45:00 AM 0.88 33.584 0.524 7.77 2.29 13.33
2/10/2021 6:00:00 AM 0.86 33.548 0.525 7.76 2.34 13.33
2/10/2021 6:15:00 AM 0.85 33.53 0.525 7.76 2.36 13.32
2/10/2021 6:30:00 AM 0.83 33.494 0.524 7.76 2.32 13.33
2/10/2021 6:45:00 AM 0.81 33.458 0.525 7.76 2.35 13.34
2/10/2021 7:00:00 AM 0.8 33.44 0.525 7.75 2.71 13.34
2/10/2021 7:15:00 AM 0.78 33.404 0.526 7.75 2.41 13.35
2/10/2021 7:30:00 AM 0.76 33.368 0.527 7.74 2.37 13.37
2/10/2021 7:45:00 AM 0.75 33.35 0.527 7.76 2.32 13.42
2/10/2021 8:00:00 AM 0.75 33.35 0.529 7.76 2.3 13.52
2/10/2021 8:15:00 AM 0.76 33.368 0.529 7.79 2.32 13.68
2/10/2021 8:30:00 AM 0.78 33.404 0.53 7.82 2.29 13.89
2/10/2021 8:45:00 AM 0.8 33.44 0.531 7.86 2.28 14.13
2/10/2021 9:00:00 AM 0.83 33.494 0.531 7.91 4.06 14.39
2/10/2021 9:15:00 AM 0.88 33.584 0.53 7.97 2.28 14.69
2/10/2021 9:30:00 AM 0.93 33.674 0.529 8.04 2.27 14.99
2/10/2021 9:45:00 AM 0.97 33.746 0.529 8.12 2.26 15.27
2/10/2021 10:00:00 AM 1.05 33.89 0.528 8.19 2.32 15.53
2/10/2021 10:15:00 AM 1.24 34.232 0.527 8.28 2.28 15.78
2/10/2021 10:30:00 AM 1.32 34.376 0.526 8.37 2.27 16
2/10/2021 10:45:00 AM 1.33 34.394 0.526 8.44 2.26 16.15
2/10/2021 11:00:00 AM 1.4 34.52 0.527 8.51 2.26 16.29
2/10/2021 11:15:00 AM 1.62 34.916 0.526 8.57 2.34 16.44
2/10/2021 11:30:00 AM 1.61 34.898 0.526 8.63 2.27 16.54
2/10/2021 11:45:00 AM 1.72 35.096 0.525 8.68 2.23 16.65
2/10/2021 12:00:00 PM 1.8 35.24 0.524 8.73 2.29 16.76
2/10/2021 12:15:00 PM 1.85 35.33 0.523 8.78 2.26 16.85
2/10/2021 12:30:00 PM 1.94 35.492 0.521 8.83 2.24 16.94
2/10/2021 12:45:00 PM 2 35.6 0.521 8.87 2.23 17.01
2/10/2021 1:00:00 PM 2.01 35.618 0.52 8.91 2.26 17.07
2/10/2021 1:15:00 PM 2.07 35.726 0.52 8.95 2.29 17.12
2/10/2021 1:30:00 PM 2.08 35.744 0.519 8.98 2.28 17.15
2/10/2021 1:45:00 PM 2.11 35.798 0.518 9 2.28 17.19
2/10/2021 2:00:00 PM 2.13 35.834 0.518 9.04 2.32 17.21
2/10/2021 2:15:00 PM 2.16 35.888 0.517 9.07 2.25 17.23
2/10/2021 2:30:00 PM 2.17 35.906 0.516 9.09 2.24 17.24
2/10/2021 2:45:00 PM 2.18 35.924 0.516 9.13 2.25 17.23
2/10/2021 3:00:00 PM 2.18 35.924 0.514 9.14 2.29 17.2
2/10/2021 3:15:00 PM 2.17 35.906 0.513 9.16 2.3 17.14
2/10/2021 3:30:00 PM 2.17 35.906 0.512 9.19 2.29 17.1
2/10/2021 3:45:00 PM 2.16 35.888 0.511 9.2 2.31 17.03
2/10/2021 4:00:00 PM 2.16 35.888 0.512 9.21 2.3 16.95
2/10/2021 4:15:00 PM 2.14 35.852 0.513 9.23 2.3 16.83
2/10/2021 4:30:00 PM 2.1 35.78 0.512 9.22 2.3 16.67
2/10/2021 4:45:00 PM 2.08 35.744 0.513 9.22 2.33 16.51
2/10/2021 5:00:00 PM 2.06 35.708 0.514 9.23 2.29 16.33
2/10/2021 5:15:00 PM 2.03 35.654 0.514 9.21 2.32 16.14
2/10/2021 5:30:00 PM 2 35.6 0.515 9.2 2.3 15.94
2/10/2021 5:45:00 PM 1.96 35.528 0.515 9.17 2.44 15.69
2/10/2021 6:00:00 PM 1.91 35.438 0.516 9.15 2.34 15.44
2/10/2021 6:15:00 PM 1.88 35.384 0.518 9.12 2.38 15.21
2/10/2021 6:30:00 PM 1.82 35.276 0.52 9.1 2.31 15
2/10/2021 6:45:00 PM 1.73 35.114 0.521 9.06 2.32 14.82
2/10/2021 7:00:00 PM 1.65 34.97 0.523 9.03 2.3 14.66
2/10/2021 7:15:00 PM 1.57 34.826 0.525 9 2.32 14.54
2/10/2021 7:30:00 PM 1.53 34.754 0.526 8.98 2.44 14.44
2/10/2021 7:45:00 PM 1.44 34.592 0.527 8.95 2.37 14.35
2/10/2021 8:00:00 PM 1.31 34.358 0.526 8.93 2.33 14.27
2/10/2021 8:15:00 PM 1.23 34.214 0.526 8.9 2.31 14.2
2/10/2021 8:30:00 PM 1.15 34.07 0.525 8.87 2.38 14.14
2/10/2021 8:45:00 PM 1.08 33.944 0.525 8.84 2.43 14.09
2/10/2021 9:00:00 PM 1 33.8 0.526 8.8 2.35 14.04
2/10/2021 9:15:00 PM 0.92 33.656 0.525 8.76 2.38 13.99
2/10/2021 9:30:00 PM 0.86 33.548 0.526 8.71 2.35 13.94
2/10/2021 9:45:00 PM 0.77 33.386 0.527 8.67 2.36 13.9
2/10/2021 10:00:00 PM 0.68 33.224 0.527 8.62 2.42 13.86
2/10/2021 10:15:00 PM 0.58 33.044 0.527 8.56 2.34 13.83
2/10/2021 10:30:00 PM 0.48 32.864 0.527 8.51 2.35 13.8
2/10/2021 10:45:00 PM 0.34 32.612 0.527 8.45 2.34 13.78
2/10/2021 11:00:00 PM 0.28 32.504 0.527 8.39 2.54 13.77
2/10/2021 11:15:00 PM 0.23 32.414 0.529 8.33 2.37 13.76
2/10/2021 11:30:00 PM 0.21 32.378 0.53 8.27 2.31 13.75
2/10/2021 11:45:00 PM 0.21 32.378 0.531 8.21 2.37 13.74
2/11/2021 12:00:00 AM 0.22 32.396 0.532 8.16 2.3 13.73
2/11/2021 12:15:00 AM 0.23 32.414 0.534 8.11 2.33 13.72
2/11/2021 12:30:00 AM 0.22 32.396 0.536 8.06 2.31 13.7
2/11/2021 12:45:00 AM 0.22 32.396 0.537 8.03 2.34 13.69
2/11/2021 1:00:00 AM 0.2 32.36 0.538 8 2.38 13.67
2/11/2021 1:15:00 AM 0.17 32.306 0.54 7.97 2.32 13.67
2/11/2021 1:30:00 AM 0.15 32.27 0.542 7.95 2.31 13.67
2/11/2021 1:45:00 AM 0.12 32.216 0.543 7.93 2.36 13.67
2/11/2021 2:00:00 AM 0.1 32.18 0.546 7.91 2.36 13.67
2/11/2021 2:15:00 AM 0.08 32.144 0.548 7.89 2.38 13.68
2/11/2021 2:30:00 AM 0.08 32.144 0.55 7.88 2.39 13.68
2/11/2021 2:45:00 AM 0.07 32.126 0.553 7.87 2.62 13.67
2/11/2021 3:00:00 AM 0.06 32.108 0.556 7.86 2.41 13.68
2/11/2021 3:15:00 AM 0.07 32.126 0.562 7.85 2.33 13.68
2/11/2021 3:30:00 AM 0.06 32.108 0.565 7.84 2.34 13.68
2/11/2021 3:45:00 AM 0.07 32.126 0.569 7.83 2.34 13.67
2/11/2021 4:00:00 AM 0.07 32.126 0.572 7.83 2.37 13.66
2/11/2021 4:15:00 AM 0.08 32.144 0.574 7.82 2.41 13.66
2/11/2021 4:30:00 AM 0.09 32.162 0.576 7.82 2.34 13.65
2/11/2021 4:45:00 AM 0.1 32.18 0.579 7.81 2.34 13.64
2/11/2021 5:00:00 AM 0.11 32.198 0.58 7.81 2.35 13.64
2/11/2021 5:15:00 AM 0.13 32.234 0.584 7.8 2.33 13.63
2/11/2021 5:30:00 AM 0.14 32.252 0.585 7.8 2.38 13.61
2/11/2021 5:45:00 AM 0.16 32.288 0.586 7.79 2.45 13.6
2/11/2021 6:00:00 AM 0.18 32.324 0.587 7.79 2.32 13.59
2/11/2021 6:15:00 AM 0.2 32.36 0.587 7.79 2.38 13.58
2/11/2021 6:30:00 AM 0.21 32.378 0.587 7.78 2.35 13.57
2/11/2021 6:45:00 AM 0.23 32.414 0.588 7.78 2.39 13.56
2/11/2021 7:00:00 AM 0.25 32.45 0.587 7.78 2.39 13.55
2/11/2021 7:15:00 AM 0.26 32.468 0.586 7.77 2.4 13.55
2/11/2021 7:30:00 AM 0.28 32.504 0.586 7.77 2.45 13.57
2/11/2021 7:45:00 AM 0.3 32.54 0.586 7.78 2.44 13.61
2/11/2021 8:00:00 AM 0.32 32.576 0.585 7.8 2.37 13.73
2/11/2021 8:15:00 AM 0.34 32.612 0.584 7.82 2.45 13.86
2/11/2021 8:30:00 AM 0.38 32.684 0.583 7.85 2.41 14.03
2/11/2021 8:45:00 AM 0.39 32.702 0.581 7.88 2.49 14.23
2/11/2021 9:00:00 AM 0.43 32.774 0.579 7.92 2.6 14.41
2/11/2021 9:15:00 AM 0.47 32.846 0.577 7.94 2.4 14.61
2/11/2021 9:30:00 AM 0.52 32.936 0.575 8 2.37 14.8
2/11/2021 9:45:00 AM 0.59 33.062 0.572 8.05 2.41 15.04
2/11/2021 10:00:00 AM 0.67 33.206 0.568 8.13 2.44 15.3
2/11/2021 10:15:00 AM 0.72 33.296 0.564 8.19 2.37 15.51
2/11/2021 10:30:00 AM 0.78 33.404 0.561 8.27 2.33 15.71
2/11/2021 10:45:00 AM 0.84 33.512 0.558 8.33 2.33 15.89
2/11/2021 11:00:00 AM 0.87 33.566 0.556 8.41 2.32 16.01
2/11/2021 11:15:00 AM 0.95 33.71 0.555 8.47 2.34 16.17
2/11/2021 11:30:00 AM 1 33.8 0.553 8.52 2.31 16.28
2/11/2021 11:45:00 AM 1.06 33.908 0.551 8.58 2.3 16.41
2/11/2021 12:00:00 PM 1.11 33.998 0.55 8.64 2.37 16.51
2/11/2021 12:15:00 PM 1.16 34.088 0.55 8.67 2.37 16.59
2/11/2021 12:30:00 PM 1.16 34.088 0.549 8.72 2.75 16.65
2/11/2021 12:45:00 PM 1.2 34.16 0.549 8.76 2.37 16.72
2/11/2021 1:00:00 PM 1.23 34.214 0.548 8.8 2.37 16.76
2/11/2021 1:15:00 PM 1.27 34.286 0.547 8.83 2.41 16.82
2/11/2021 1:30:00 PM 1.33 34.394 0.547 8.86 2.45 16.9
2/11/2021 1:45:00 PM 1.38 34.484 0.544 8.91 2.35 16.96
2/11/2021 2:00:00 PM 1.44 34.592 0.542 8.94 2.38 17.03
2/11/2021 2:15:00 PM 1.49 34.682 0.539 8.98 2.33 17.09
2/11/2021 2:30:00 PM 1.55 34.79 0.536 9.02 2.35 17.14
2/11/2021 2:45:00 PM 1.59 34.862 0.532 9.05 2.38 17.17
2/11/2021 3:00:00 PM 1.62 34.916 0.529 9.07 2.34 17.19
2/11/2021 3:15:00 PM 1.64 34.952 0.526 9.11 2.29 17.18
2/11/2021 3:30:00 PM 1.66 34.988 0.522 9.13 2.3 17.16
2/11/2021 3:45:00 PM 1.66 34.988 0.519 9.16 2.54 17.13
2/11/2021 4:00:00 PM 1.66 34.988 0.518 9.18 2.33 17.09
2/11/2021 4:15:00 PM 1.66 34.988 0.515 9.19 2.35 17.02
2/11/2021 4:30:00 PM 1.64 34.952 0.513 9.2 2.42 16.94
2/11/2021 4:45:00 PM 1.62 34.916 0.511 9.21 2.38 16.82
2/11/2021 5:00:00 PM 1.6 34.88 0.509 9.22 2.37 16.68
2/11/2021 5:15:00 PM 1.56 34.808 0.507 9.21 2.37 16.48
2/11/2021 5:30:00 PM 1.53 34.754 0.505 9.2 2.43 16.25
2/11/2021 5:45:00 PM 1.49 34.682 0.504 9.18 2.43 15.99
2/11/2021 6:00:00 PM 1.46 34.628 0.503 9.15 2.42 15.72
2/11/2021 6:15:00 PM 1.43 34.574 0.502 9.12 2.5 15.46
2/11/2021 6:30:00 PM 1.39 34.502 0.502 9.07 2.45 15.24
2/11/2021 6:45:00 PM 1.36 34.448 0.502 9.04 2.43 15.04
2/11/2021 7:00:00 PM 1.32 34.376 0.503 9.01 2.38 14.89
2/11/2021 7:15:00 PM 1.28 34.304 0.502 8.98 2.37 14.76
2/11/2021 7:30:00 PM 1.26 34.268 0.503 8.95 2.38 14.65
2/11/2021 7:45:00 PM 1.24 34.232 0.503 8.92 2.4 14.55
2/11/2021 8:00:00 PM 1.22 34.196 0.502 8.89 2.45 14.48
2/11/2021 8:15:00 PM 1.18 34.124 0.502 8.87 2.43 14.41
2/11/2021 8:30:00 PM 1.15 34.07 0.501 8.84 2.44 14.35
2/11/2021 8:45:00 PM 1.11 33.998 0.502 8.81 2.43 14.28
2/11/2021 9:00:00 PM 1.08 33.944 0.502 8.78 2.45 14.22
2/11/2021 9:15:00 PM 1.05 33.89 0.503 8.74 2.52 14.16
2/11/2021 9:30:00 PM 1.03 33.854 0.504 8.7 2.45 14.1
2/11/2021 9:45:00 PM 1 33.8 0.505 8.66 2.44 14.04
2/11/2021 10:00:00 PM 0.98 33.764 0.507 8.62 2.47 13.98
2/11/2021 10:15:00 PM 0.95 33.71 0.507 8.56 2.42 13.94
2/11/2021 10:30:00 PM 0.91 33.638 0.508 8.51 2.42 13.89
2/11/2021 10:45:00 PM 0.88 33.584 0.508 8.45 2.48 13.85
2/11/2021 11:00:00 PM 0.84 33.512 0.508 8.4 2.39 13.82
2/11/2021 11:15:00 PM 0.81 33.458 0.508 8.34 2.4 13.78
2/11/2021 11:30:00 PM 0.77 33.386 0.508 8.26 2.43 13.75
2/11/2021 11:45:00 PM 0.74 33.332 0.508 8.21 2.42 13.72
2/12/2021 12:00:00 AM 0.7 33.26 0.508 8.16 2.43 13.69
2/12/2021 12:15:00 AM 0.65 33.17 0.508 8.11 2.39 13.67
2/12/2021 12:30:00 AM 0.6 33.08 0.509 8.07 2.44 13.65
2/12/2021 12:45:00 AM 0.54 32.972 0.509 8.01 2.39 13.64
2/12/2021 1:00:00 AM 0.49 32.882 0.508 7.99 2.38 13.64
2/12/2021 1:15:00 AM 0.44 32.792 0.508 7.97 2.39 13.63
2/12/2021 1:30:00 AM 0.38 32.684 0.507 7.95 2.35 13.63
2/12/2021 1:45:00 AM 0.33 32.594 0.507 7.91 2.38 13.64
2/12/2021 2:00:00 AM 0.27 32.486 0.506 7.9 2.31 13.65
2/12/2021 2:15:00 AM 0.23 32.414 0.506 7.88 2.38 13.66
2/12/2021 2:30:00 AM 0.2 32.36 0.507 7.88 2.35 13.66
2/12/2021 2:45:00 AM 0.17 32.306 0.507 7.85 2.34 13.66
2/12/2021 3:00:00 AM 0.15 32.27 0.509 7.85 2.33 13.67
2/12/2021 3:15:00 AM 0.12 32.216 0.51 7.85 2.37 13.67
2/12/2021 3:30:00 AM 0.09 32.162 0.511 7.84 2.37 13.67
2/12/2021 3:45:00 AM 0.05 32.09 0.512 7.82 2.31 13.69
2/12/2021 4:00:00 AM 0.01 32.018 0.513 7.82 2.34 13.69
2/12/2021 4:15:00 AM -0.03 31.946 0.515 7.81 2.32 13.7
2/12/2021 4:30:00 AM -0.05 31.91 0.516 7.8 2.31 13.7
2/12/2021 4:45:00 AM -0.05 31.91 0.518 7.81 2.31 13.71
2/12/2021 5:00:00 AM -0.05 31.91 0.519 7.8 2.43 13.71
2/12/2021 5:15:00 AM -0.07 31.874 0.52 7.8 2.36 13.71
2/12/2021 5:30:00 AM -0.09 31.838 0.522 7.79 2.34 13.72
2/12/2021 5:45:00 AM -0.1 31.82 0.524 7.79 2.3 13.72
2/12/2021 6:00:00 AM -0.1 31.82 0.525 7.78 2.35 13.73
2/12/2021 6:15:00 AM -0.08 31.856 0.528 7.78 2.33 13.74
2/12/2021 6:30:00 AM -0.07 31.874 0.529 7.78 2.32 13.74
2/12/2021 6:45:00 AM -0.06 31.892 0.531 7.78 2.31 13.74
2/12/2021 7:00:00 AM -0.06 31.892 0.532 7.78 2.31 13.74
2/12/2021 7:15:00 AM -0.06 31.892 0.534 7.77 2.35 13.74
2/12/2021 7:30:00 AM -0.06 31.892 0.535 7.77 2.26 13.77
2/12/2021 7:45:00 AM -0.05 31.91 0.536 7.78 2.34 13.82
2/12/2021 8:00:00 AM -0.05 31.91 0.537 7.79 2.29 13.9
2/12/2021 8:15:00 AM -0.05 31.91 0.539 7.8 2.29 14.01
2/12/2021 8:30:00 AM -0.05 31.91 0.54 7.83 2.37 14.17
2/12/2021 8:45:00 AM -0.04 31.928 0.541 7.84 4.3 14.36
2/12/2021 9:00:00 AM -0.04 31.928 0.543 7.88 2.33 14.58
2/12/2021 9:15:00 AM -0.03 31.946 0.544 7.93 2.43 14.81
2/12/2021 9:30:00 AM -0.03 31.946 0.546 7.97 2.39 15.04
2/12/2021 9:45:00 AM -0.03 31.946 0.546 8.04 2.27 15.29
2/12/2021 10:00:00 AM -0.02 31.964 0.547 8.09 2.35 15.55
2/12/2021 10:15:00 AM -0.02 31.964 0.547 8.17 2.28 15.8
2/12/2021 10:30:00 AM -0.01 31.982 0.549 8.26 2.27 16.04
2/12/2021 10:45:00 AM -0.01 31.982 0.546 8.32 2.36 16.24
2/12/2021 11:00:00 AM 0.04 32.072 0.547 8.41 2.36 16.44
2/12/2021 11:15:00 AM 0.15 32.27 0.549 8.49 2.36 16.59
2/12/2021 11:30:00 AM 0.26 32.468 0.551 8.54 2.33 16.7
2/12/2021 11:45:00 AM 0.38 32.684 0.554 8.61 2.31 16.82
2/12/2021 12:00:00 PM 0.46 32.828 0.557 8.65 2.3 16.92
2/12/2021 12:15:00 PM 0.54 32.972 0.559 8.7 2.3 17.02
2/12/2021 12:30:00 PM 0.64 33.152 0.561 8.75 2.38 17.11
2/12/2021 12:45:00 PM 0.7 33.26 0.562 8.78 2.29 17.19
2/12/2021 1:00:00 PM 0.8 33.44 0.564 8.83 2.32 17.26
2/12/2021 1:15:00 PM 0.92 33.656 0.565 8.87 2.32 17.33
2/12/2021 1:30:00 PM 1.03 33.854 0.567 8.91 2.38 17.4
2/12/2021 1:45:00 PM 1.09 33.962 0.568 8.93 2.3 17.45
2/12/2021 2:00:00 PM 1.12 34.016 0.569 8.98 2.3 17.47
2/12/2021 2:15:00 PM 1.11 33.998 0.572 8.99 2.31 17.47
2/12/2021 2:30:00 PM 1.09 33.962 0.574 9.02 2.29 17.42
2/12/2021 2:45:00 PM 1.07 33.926 0.578 9.04 2.35 17.38
2/12/2021 3:00:00 PM 1.05 33.89 0.58 9.04 2.32 17.32
2/12/2021 3:15:00 PM 1.05 33.89 0.583 9.06 2.3 17.28
2/12/2021 3:30:00 PM 1.06 33.908 0.588 9.08 2.3 17.27
2/12/2021 3:45:00 PM 1.05 33.89 0.593 9.1 2.31 17.23
2/12/2021 4:00:00 PM 1.05 33.89 0.599 9.11 2.32 17.18
2/12/2021 4:15:00 PM 1.04 33.872 0.607 9.11 2.33 17.11
2/12/2021 4:30:00 PM 1.04 33.872 0.615 9.13 2.63 17.03
2/12/2021 4:45:00 PM 1.02 33.836 0.622 9.13 2.38 16.87
2/12/2021 5:00:00 PM 1.02 33.836 0.632 9.14 2.58 16.69
2/12/2021 5:15:00 PM 1.01 33.818 0.64 9.14 2.33 16.48
2/12/2021 5:30:00 PM 1 33.8 0.649 9.13 2.35 16.25
2/12/2021 5:45:00 PM 1 33.8 0.658 9.11 2.49 16
2/12/2021 6:00:00 PM 0.99 33.782 0.664 9.09 2.4 15.74
2/12/2021 6:15:00 PM 0.98 33.764 0.67 9.07 2.38 15.5
2/12/2021 6:30:00 PM 0.97 33.746 0.674 9.04 2.4 15.3
2/12/2021 6:45:00 PM 0.95 33.71 0.676 9.02 2.41 15.12
2/12/2021 7:00:00 PM 0.95 33.71 0.678 9 2.34 14.99
2/12/2021 7:15:00 PM 0.94 33.692 0.677 8.98 2.35 14.85
2/12/2021 7:30:00 PM 0.92 33.656 0.675 8.93 2.4 14.74
2/12/2021 7:45:00 PM 0.9 33.62 0.672 8.92 2.44 14.64
2/12/2021 8:00:00 PM 0.88 33.584 0.668 8.89 2.44 14.55
2/12/2021 8:15:00 PM 0.86 33.548 0.664 8.87 2.32 14.47
2/12/2021 8:30:00 PM 0.84 33.512 0.659 8.83 2.4 14.4
2/12/2021 8:45:00 PM 0.82 33.476 0.655 8.79 2.31 14.33
2/12/2021 9:00:00 PM 0.79 33.422 0.652 8.74 2.32 14.26
2/12/2021 9:15:00 PM 0.76 33.368 0.648 8.69 2.3 14.2
2/12/2021 9:30:00 PM 0.73 33.314 0.644 8.64 2.32 14.15
2/12/2021 9:45:00 PM 0.7 33.26 0.642 8.59 2.31 14.1
2/12/2021 10:00:00 PM 0.67 33.206 0.639 8.52 2.36 14.05
2/12/2021 10:15:00 PM 0.63 33.134 0.636 8.46 2.32 14.02
2/12/2021 10:30:00 PM 0.6 33.08 0.634 8.41 2.34 13.98
2/12/2021 10:45:00 PM 0.58 33.044 0.633 8.33 2.32 13.95
2/12/2021 11:00:00 PM 0.55 32.99 0.632 8.29 2.28 13.92
2/12/2021 11:15:00 PM 0.53 32.954 0.633 8.22 2.3 13.88
2/12/2021 11:30:00 PM 0.5 32.9 0.635 8.17 2.28 13.85
2/12/2021 11:45:00 PM 0.48 32.864 0.637 8.13 2.34 13.82
2/13/2021 12:00:00 AM 0.46 32.828 0.641 8.09 2.29 13.8
2/13/2021 12:15:00 AM 0.45 32.81 0.645 8.06 2.27 13.77
2/13/2021 12:30:00 AM 0.44 32.792 0.65 8.02 2.35 13.75
2/13/2021 12:45:00 AM 0.42 32.756 0.652 7.99 2.28 13.74
2/13/2021 1:00:00 AM 0.41 32.738 0.655 7.97 2.37 13.72
2/13/2021 1:15:00 AM 0.4 32.72 0.66 7.95 2.38 13.7
2/13/2021 1:30:00 AM 0.39 32.702 0.663 7.93 2.26 13.69
2/13/2021 1:45:00 AM 0.37 32.666 0.666 7.92 2.33 13.69
2/13/2021 2:00:00 AM 0.36 32.648 0.67 7.9 2.36 13.68
2/13/2021 2:15:00 AM 0.35 32.63 0.674 7.89 2.34 13.67
2/13/2021 2:30:00 AM 0.35 32.63 0.678 7.88 2.34 13.66
2/13/2021 2:45:00 AM 0.34 32.612 0.683 7.87 2.34 13.65
2/13/2021 3:00:00 AM 0.34 32.612 0.688 7.86 2.33 13.64
2/13/2021 3:15:00 AM 0.34 32.612 0.693 7.85 2.4 13.63
2/13/2021 3:30:00 AM 0.34 32.612 0.696 7.85 2.38 13.62
2/13/2021 3:45:00 AM 0.34 32.612 0.702 7.84 2.35 13.61
2/13/2021 4:00:00 AM 0.33 32.594 0.706 7.83 2.34 13.6
2/13/2021 4:15:00 AM 0.32 32.576 0.709 7.82 2.34 13.6
2/13/2021 4:30:00 AM 0.31 32.558 0.711 7.82 2.3 13.6
2/13/2021 4:45:00 AM 0.31 32.558 0.713 7.81 2.31 13.59
2/13/2021 5:00:00 AM 0.3 32.54 0.714 7.8 2.35 13.59
2/13/2021 5:15:00 AM 0.29 32.522 0.715 7.8 2.64 13.58
2/13/2021 5:30:00 AM 0.29 32.522 0.716 7.8 2.3 13.58
2/13/2021 5:45:00 AM 0.29 32.522 0.719 7.78 2.35 13.57
2/13/2021 6:00:00 AM 0.28 32.504 0.719 7.78 2.32 13.57
2/13/2021 6:15:00 AM 0.27 32.486 0.718 7.79 2.34 13.56
2/13/2021 6:30:00 AM 0.26 32.468 0.719 7.78 2.32 13.57
2/13/2021 6:45:00 AM 0.26 32.468 0.719 7.78 2.34 13.56
2/13/2021 7:00:00 AM 0.25 32.45 0.718 7.77 2.32 13.56
2/13/2021 7:15:00 AM 0.25 32.45 0.716 7.78 2.37 13.57
2/13/2021 7:30:00 AM 0.23 32.414 0.714 7.77 2.29 13.6
2/13/2021 7:45:00 AM 0.22 32.396 0.712 7.77 2.34 13.66
2/13/2021 8:00:00 AM 0.22 32.396 0.71 7.8 2.47 13.76
2/13/2021 8:15:00 AM 0.22 32.396 0.709 7.8 2.47 13.89
2/13/2021 8:30:00 AM 0.21 32.378 0.707 7.84 2.34 14.05
2/13/2021 8:45:00 AM 0.21 32.378 0.706 7.86 2.31 14.22
2/13/2021 9:00:00 AM 0.2 32.36 0.704 7.89 2.3 14.4
2/13/2021 9:15:00 AM 0.21 32.378 0.703 7.93 2.33 14.59
2/13/2021 9:30:00 AM 0.21 32.378 0.7 7.97 2.35 14.78
2/13/2021 9:45:00 AM 0.22 32.396 0.698 8.02 2.34 14.98
2/13/2021 10:00:00 AM 0.23 32.414 0.694 8.06 2.32 15.17
2/13/2021 10:15:00 AM 0.24 32.432 0.692 8.12 2.39 15.36
2/13/2021 10:30:00 AM 0.25 32.45 0.689 8.18 2.35 15.55
2/13/2021 10:45:00 AM 0.27 32.486 0.687 8.25 2.43 15.75
2/13/2021 11:00:00 AM 0.29 32.522 0.683 8.31 2.3 15.91
2/13/2021 11:15:00 AM 0.31 32.558 0.681 8.37 2.32 16.06
2/13/2021 11:30:00 AM 0.33 32.594 0.679 8.43 2.29 16.18
2/13/2021 11:45:00 AM 0.35 32.63 0.676 8.47 2.29 16.29
2/13/2021 12:00:00 PM 0.36 32.648 0.675 8.52 2.31 16.38
2/13/2021 12:15:00 PM 0.37 32.666 0.673 8.57 2.32 16.45
2/13/2021 12:30:00 PM 0.38 32.684 0.67 8.6 2.29 16.52
2/13/2021 12:45:00 PM 0.4 32.72 0.668 8.65 2.35 16.57
2/13/2021 1:00:00 PM 0.41 32.738 0.666 8.69 2.34 16.63
2/13/2021 1:15:00 PM 0.42 32.756 0.664 8.71 2.31 16.67
2/13/2021 1:30:00 PM 0.43 32.774 0.664 8.75 2.26 16.72
2/13/2021 1:45:00 PM 0.45 32.81 0.662 8.77 2.29 16.74
2/13/2021 2:00:00 PM 0.47 32.846 0.661 8.81 2.29 16.77
2/13/2021 2:15:00 PM 0.49 32.882 0.661 8.84 2.29 16.82
2/13/2021 2:30:00 PM 0.49 32.882 0.659 8.86 2.29 16.83
2/13/2021 2:45:00 PM 0.51 32.918 0.658 8.88 2.28 16.84
2/13/2021 3:00:00 PM 0.51 32.918 0.658 8.89 2.31 16.8
2/13/2021 3:15:00 PM 0.51 32.918 0.657 8.91 2.31 16.78
2/13/2021 3:30:00 PM 0.51 32.918 0.656 8.94 2.27 16.75
2/13/2021 3:45:00 PM 0.51 32.918 0.655 8.94 2.27 16.69
2/13/2021 4:00:00 PM 0.5 32.9 0.654 8.96 2.29 16.62
2/13/2021 4:15:00 PM 0.5 32.9 0.653 8.96 2.3 16.56
2/13/2021 4:30:00 PM 0.49 32.882 0.653 8.96 2.29 16.46
2/13/2021 4:45:00 PM 0.48 32.864 0.652 8.97 2.39 16.38
2/13/2021 5:00:00 PM 0.47 32.846 0.652 8.97 2.53 16.27
2/13/2021 5:15:00 PM 0.46 32.828 0.652 8.97 2.34 16.14
2/13/2021 5:30:00 PM 0.44 32.792 0.65 8.95 2.4 15.95
2/13/2021 5:45:00 PM 0.43 32.774 0.65 8.94 2.29 15.77
2/13/2021 6:00:00 PM 0.41 32.738 0.648 8.92 2.37 15.57
2/13/2021 6:15:00 PM 0.4 32.72 0.647 8.89 2.35 15.38
2/13/2021 6:30:00 PM 0.39 32.702 0.646 8.86 2.27 15.21
2/13/2021 6:45:00 PM 0.37 32.666 0.645 8.83 2.33 15.06
2/13/2021 7:00:00 PM 0.36 32.648 0.643 8.8 2.37 14.94
2/13/2021 7:15:00 PM 0.35 32.63 0.641 8.78 2.33 14.83
2/13/2021 7:30:00 PM 0.34 32.612 0.639 8.73 2.38 14.74
2/13/2021 7:45:00 PM 0.33 32.594 0.636 8.72 2.37 14.65
2/13/2021 8:00:00 PM 0.33 32.594 0.635 8.68 2.39 14.58
2/13/2021 8:15:00 PM 0.31 32.558 0.63 8.65 2.34 14.51
2/13/2021 8:30:00 PM 0.3 32.54 0.628 8.61 2.38 14.46
2/13/2021 8:45:00 PM 0.29 32.522 0.626 8.58 2.34 14.41
2/13/2021 9:00:00 PM 0.28 32.504 0.622 8.55 2.33 14.35
2/13/2021 9:15:00 PM 0.27 32.486 0.62 8.51 2.31 14.3
2/13/2021 9:30:00 PM 0.26 32.468 0.618 8.47 2.35 14.24
2/13/2021 9:45:00 PM 0.26 32.468 0.616 8.41 2.34 14.19
2/13/2021 10:00:00 PM 0.25 32.45 0.614 8.37 2.33 14.14
2/13/2021 10:15:00 PM 0.24 32.432 0.612 8.32 2.33 14.1
2/13/2021 10:30:00 PM 0.23 32.414 0.61 8.27 2.35 14.06
2/13/2021 10:45:00 PM 0.23 32.414 0.607 8.22 2.32 14.02
2/13/2021 11:00:00 PM 0.21 32.378 0.604 8.18 2.31 13.99
2/13/2021 11:15:00 PM 0.21 32.378 0.602 8.14 2.32 13.96
2/13/2021 11:30:00 PM 0.2 32.36 0.599 8.1 2.47 13.93
2/13/2021 11:45:00 PM 0.19 32.342 0.596 8.06 2.3 13.9
2/14/2021 12:00:00 AM 0.18 32.324 0.594 8.03 2.25 13.87
2/14/2021 12:15:00 AM 0.18 32.324 0.593 7.99 2.28 13.85
2/14/2021 12:30:00 AM 0.17 32.306 0.591 7.98 2.3 13.82
2/14/2021 12:45:00 AM 0.17 32.306 0.59 7.96 2.3 13.81
2/14/2021 1:00:00 AM 0.17 32.306 0.588 7.93 2.33 13.79
2/14/2021 1:15:00 AM 0.16 32.288 0.586 7.91 2.26 13.77
2/14/2021 1:30:00 AM 0.16 32.288 0.585 7.9 2.27 13.75
2/14/2021 1:45:00 AM 0.15 32.27 0.583 7.88 2.29 13.75
2/14/2021 2:00:00 AM 0.14 32.252 0.581 7.87 2.24 13.74
2/14/2021 2:15:00 AM 0.14 32.252 0.58 7.86 2.27 13.74
2/14/2021 2:30:00 AM 0.14 32.252 0.579 7.85 2.27 13.73
2/14/2021 2:45:00 AM 0.14 32.252 0.578 7.84 2.25 13.71
2/14/2021 3:00:00 AM 0.14 32.252 0.578 7.84 2.29 13.71
2/14/2021 3:15:00 AM 0.14 32.252 0.578 7.82 2.27 13.7
2/14/2021 3:30:00 AM 0.14 32.252 0.578 7.82 2.28 13.7
2/14/2021 3:45:00 AM 0.14 32.252 0.578 7.82 2.27 13.69
2/14/2021 4:00:00 AM 0.14 32.252 0.579 7.81 2.3 13.69
2/14/2021 4:15:00 AM 0.14 32.252 0.579 7.81 2.29 13.68
2/14/2021 4:30:00 AM 0.14 32.252 0.579 7.8 2.3 13.68
2/14/2021 4:45:00 AM 0.15 32.27 0.579 7.8 2.27 13.68
2/14/2021 5:00:00 AM 0.15 32.27 0.579 7.8 2.28 13.68
2/14/2021 5:15:00 AM 0.15 32.27 0.579 7.8 2.27 13.68
2/14/2021 5:30:00 AM 0.15 32.27 0.579 7.78 2.3 13.67
2/14/2021 5:45:00 AM 0.15 32.27 0.58 7.77 2.3 13.67
2/14/2021 6:00:00 AM 0.16 32.288 0.581 7.78 2.34 13.66
2/14/2021 6:15:00 AM 0.16 32.288 0.583 7.77 2.42 13.66
2/14/2021 6:30:00 AM 0.17 32.306 0.585 7.77 2.31 13.65
2/14/2021 6:45:00 AM 0.17 32.306 0.586 7.77 2.3 13.64
2/14/2021 7:00:00 AM 0.18 32.324 0.588 7.77 2.34 13.64
2/14/2021 7:15:00 AM 0.18 32.324 0.589 7.76 2.3 13.64
2/14/2021 7:30:00 AM 0.19 32.342 0.59 7.76 2.29 13.66
2/14/2021 7:45:00 AM 0.19 32.342 0.591 7.76 2.28 13.7
2/14/2021 8:00:00 AM 0.2 32.36 0.592 7.78 2.32 13.79
2/14/2021 8:15:00 AM 0.22 32.396 0.594 7.8 2.3 13.91
2/14/2021 8:30:00 AM 0.24 32.432 0.595 7.82 2.3 14.05
2/14/2021 8:45:00 AM 0.27 32.486 0.596 7.85 2.29 14.21
2/14/2021 9:00:00 AM 0.31 32.558 0.597 7.89 2.3 14.42
2/14/2021 9:15:00 AM 0.35 32.63 0.598 7.93 2.29 14.65
2/14/2021 9:30:00 AM 0.39 32.702 0.599 7.97 2.31 14.9
2/14/2021 9:45:00 AM 0.44 32.792 0.599 8.04 2.29 15.13
2/14/2021 10:00:00 AM 0.48 32.864 0.6 8.1 2.3 15.32
2/14/2021 10:15:00 AM 0.53 32.954 0.599 8.16 2.28 15.52
2/14/2021 10:30:00 AM 0.58 33.044 0.599 8.23 2.33 15.7
2/14/2021 10:45:00 AM 0.64 33.152 0.599 8.29 2.27 15.86
2/14/2021 11:00:00 AM 0.72 33.296 0.599 8.37 2.24 16.04
2/14/2021 11:15:00 AM 0.76 33.368 0.598 8.43 2.28 16.16
2/14/2021 11:30:00 AM 0.82 33.476 0.598 8.49 2.32 16.28
2/14/2021 11:45:00 AM 0.85 33.53 0.597 8.54 2.34 16.35
2/14/2021 12:00:00 PM 0.92 33.656 0.597 8.59 2.45 16.46
2/14/2021 12:15:00 PM 0.98 33.764 0.596 8.64 2.3 16.57
2/14/2021 12:30:00 PM 1.05 33.89 0.593 8.68 2.49 16.68
2/14/2021 12:45:00 PM 1.12 34.016 0.593 8.75 2.4 16.77
2/14/2021 1:00:00 PM 1.17 34.106 0.591 8.79 2.4 16.87
2/14/2021 1:15:00 PM 1.27 34.286 0.589 8.83 2.34 16.96
2/14/2021 1:30:00 PM 1.32 34.376 0.586 8.87 2.34 17.02
2/14/2021 1:45:00 PM 1.35 34.43 0.584 8.91 2.32 17.03
2/14/2021 2:00:00 PM 1.37 34.466 0.583 8.94 2.38 17.03
2/14/2021 2:15:00 PM 1.4 34.52 0.581 8.96 2.34 17.03
2/14/2021 2:30:00 PM 1.44 34.592 0.579 8.98 2.37 17.04
2/14/2021 2:45:00 PM 1.5 34.7 0.577 9.02 2.28 17.06
2/14/2021 3:00:00 PM 1.56 34.808 0.575 9.04 2.24 17.1
2/14/2021 3:15:00 PM 1.59 34.862 0.572 9.07 2.33 17.12
2/14/2021 3:30:00 PM 1.6 34.88 0.569 9.09 2.3 17.1
2/14/2021 3:45:00 PM 1.6 34.88 0.566 9.11 2.33 17.07
2/14/2021 4:00:00 PM 1.59 34.862 0.564 9.13 2.26 16.98
2/14/2021 4:15:00 PM 1.57 34.826 0.561 9.14 2.51 16.86
2/14/2021 4:30:00 PM 1.55 34.79 0.559 9.15 2.27 16.72
2/14/2021 4:45:00 PM 1.54 34.772 0.556 9.15 2.29 16.55
2/14/2021 5:00:00 PM 1.54 34.772 0.554 9.15 2.32 16.37
2/14/2021 5:15:00 PM 1.52 34.736 0.552 9.14 2.31 16.17
2/14/2021 5:30:00 PM 1.51 34.718 0.548 9.12 2.32 15.95
2/14/2021 5:45:00 PM 1.49 34.682 0.546 9.1 2.35 15.7
2/14/2021 6:00:00 PM 1.47 34.646 0.543 9.09 2.32 15.46
2/14/2021 6:15:00 PM 1.45 34.61 0.541 9.05 2.29 15.23
2/14/2021 6:30:00 PM 1.43 34.574 0.539 9.02 2.37 15.03
2/14/2021 6:45:00 PM 1.42 34.556 0.536 8.99 2.32 14.85
2/14/2021 7:00:00 PM 1.42 34.556 0.533 8.97 2.35 14.7
2/14/2021 7:15:00 PM 1.41 34.538 0.531 8.94 2.31 14.58
2/14/2021 7:30:00 PM 1.4 34.52 0.53 8.92 2.38 14.46
2/14/2021 7:45:00 PM 1.39 34.502 0.528 8.9 2.38 14.38
2/14/2021 8:00:00 PM 1.37 34.466 0.525 8.87 2.37 14.29
2/14/2021 8:15:00 PM 1.36 34.448 0.524 8.85 2.34 14.22
2/14/2021 8:30:00 PM 1.34 34.412 0.522 8.82 2.34 14.15
2/14/2021 8:45:00 PM 1.33 34.394 0.52 8.79 2.31 14.08
2/14/2021 9:00:00 PM 1.32 34.376 0.518 8.76 2.33 14.02
2/14/2021 9:15:00 PM 1.31 34.358 0.516 8.72 2.34 13.95
2/14/2021 9:30:00 PM 1.3 34.34 0.515 8.69 2.37 13.9
2/14/2021 9:45:00 PM 1.29 34.322 0.514 8.64 2.3 13.84
2/14/2021 10:00:00 PM 1.27 34.286 0.514 8.6 2.32 13.79
2/14/2021 10:15:00 PM 1.27 34.286 0.513 8.53 2.34 13.74
2/14/2021 10:30:00 PM 1.26 34.268 0.512 8.49 2.3 13.7
2/14/2021 10:45:00 PM 1.25 34.25 0.512 8.44 2.29 13.65
2/14/2021 11:00:00 PM 1.24 34.232 0.512 8.37 2.36 13.62
2/14/2021 11:15:00 PM 1.22 34.196 0.512 8.31 2.24 13.58
2/14/2021 11:30:00 PM 1.21 34.178 0.512 8.25 2.27 13.55
2/14/2021 11:45:00 PM 1.19 34.142 0.512 8.2 2.3 13.51
2/15/2021 12:00:00 AM 1.18 34.124 0.512 8.14 2.31 13.49
2/15/2021 12:15:00 AM 1.16 34.088 0.512 8.11 2.3 13.45
2/15/2021 12:30:00 AM 1.15 34.07 0.513 8.06 2.33 13.43
2/15/2021 12:45:00 AM 1.14 34.052 0.514 8.01 2.35 13.41
2/15/2021 1:00:00 AM 1.12 34.016 0.514 7.99 2.27 13.39
2/15/2021 1:15:00 AM 1.11 33.998 0.515 7.97 2.31 13.37
2/15/2021 1:30:00 AM 1.1 33.98 0.514 7.94 2.31 13.36
2/15/2021 1:45:00 AM 1.09 33.962 0.514 7.92 2.32 13.35
2/15/2021 2:00:00 AM 1.08 33.944 0.513 7.89 2.29 13.34
2/15/2021 2:15:00 AM 1.07 33.926 0.512 7.88 2.34 13.33
2/15/2021 2:30:00 AM 1.06 33.908 0.512 7.88 2.33 13.31
2/15/2021 2:45:00 AM 1.05 33.89 0.511 7.86 2.33 13.31
2/15/2021 3:00:00 AM 1.05 33.89 0.51 7.84 2.32 13.29
2/15/2021 3:15:00 AM 1.04 33.872 0.51 7.84 2.33 13.29
2/15/2021 3:30:00 AM 1.04 33.872 0.51 7.83 2.35 13.28
2/15/2021 3:45:00 AM 1.04 33.872 0.509 7.82 2.34 13.29
2/15/2021 4:00:00 AM 1.03 33.854 0.509 7.82 2.33 13.28
2/15/2021 4:15:00 AM 1.02 33.836 0.507 7.81 2.34 13.28
2/15/2021 4:30:00 AM 1.02 33.836 0.507 7.8 2.39 13.27
2/15/2021 4:45:00 AM 1.01 33.818 0.507 7.8 2.37 13.27
2/15/2021 5:00:00 AM 1 33.8 0.506 7.79 2.31 13.27
2/15/2021 5:15:00 AM 1 33.8 0.506 7.79 2.33 13.26
2/15/2021 5:30:00 AM 0.99 33.782 0.505 7.78 2.29 13.27
2/15/2021 5:45:00 AM 0.99 33.782 0.505 7.78 2.34 13.26
2/15/2021 6:00:00 AM 0.99 33.782 0.506 7.78 2.31 13.26
2/15/2021 6:15:00 AM 0.98 33.764 0.506 7.77 2.32 13.25
2/15/2021 6:30:00 AM 0.98 33.764 0.507 7.77 2.25 13.25
2/15/2021 6:45:00 AM 0.98 33.764 0.507 7.76 2.34 13.25
2/15/2021 7:00:00 AM 0.98 33.764 0.508 7.76 2.26 13.24
2/15/2021 7:15:00 AM 0.97 33.746 0.508 7.76 2.3 13.26
2/15/2021 7:30:00 AM 0.96 33.728 0.509 7.76 2.36 13.26
2/15/2021 7:45:00 AM 0.96 33.728 0.509 7.76 2.29 13.31
2/15/2021 8:00:00 AM 0.96 33.728 0.509 7.77 2.35 13.39
2/15/2021 8:15:00 AM 0.96 33.728 0.51 7.79 2.23 13.47
2/15/2021 8:30:00 AM 0.96 33.728 0.51 7.81 2.29 13.58
2/15/2021 8:45:00 AM 0.97 33.746 0.511 7.82 2.3 13.71
2/15/2021 9:00:00 AM 0.98 33.764 0.513 7.86 2.3 13.88
2/15/2021 9:15:00 AM 0.98 33.764 0.513 7.89 2.34 14.04
2/15/2021 9:30:00 AM 0.99 33.782 0.514 7.92 2.34 14.23
2/15/2021 9:45:00 AM 0.99 33.782 0.515 7.96 2.41 14.37
2/15/2021 10:00:00 AM 1 33.8 0.515 8.01 2.33 14.52
2/15/2021 10:15:00 AM 1 33.8 0.515 8.04 2.28 14.63
2/15/2021 10:30:00 AM 0.97 33.746 0.514 8.06 2.3 14.74
2/15/2021 10:45:00 AM 0.97 33.746 0.514 8.09 2.3 14.86
2/15/2021 11:00:00 AM 0.9 33.62 0.513 8.15 2.35 15.01
2/15/2021 11:15:00 AM 0.95 33.71 0.513 8.22 2.28 15.22
2/15/2021 11:30:00 AM 1.02 33.836 0.512 8.27 2.31 15.45
2/15/2021 11:45:00 AM 1.13 34.034 0.512 8.37 2.27 15.71
2/15/2021 12:00:00 PM 1.18 34.124 0.511 8.43 2.29 15.9
2/15/2021 12:15:00 PM 1.27 34.286 0.51 8.52 2.27 16.11
2/15/2021 12:30:00 PM 1.31 34.358 0.51 8.59 2.33 16.25
2/15/2021 12:45:00 PM 1.38 34.484 0.508 8.66 2.38 16.41
2/15/2021 1:00:00 PM 1.41 34.538 0.508 8.71 2.28 16.5
2/15/2021 1:15:00 PM 1.47 34.646 0.507 8.76 2.24 16.6
2/15/2021 1:30:00 PM 1.5 34.7 0.506 8.81 2.27 16.66
2/15/2021 1:45:00 PM 1.55 34.79 0.505 8.86 2.31 16.74
2/15/2021 2:00:00 PM 1.6 34.88 0.504 8.88 2.27 16.78
2/15/2021 2:15:00 PM 1.61 34.898 0.504 8.91 2.28 16.77
2/15/2021 2:30:00 PM 1.62 34.916 0.503 8.95 2.35 16.75
2/15/2021 2:45:00 PM 1.61 34.898 0.504 8.94 2.31 16.69
2/15/2021 3:00:00 PM 1.62 34.916 0.503 8.98 2.28 16.67
2/15/2021 3:15:00 PM 1.62 34.916 0.502 8.97 2.36 16.63
2/15/2021 3:30:00 PM 1.6 34.88 0.501 9 2.5 16.54
2/15/2021 3:45:00 PM 1.6 34.88 0.501 8.99 2.29 16.46
2/15/2021 4:00:00 PM 1.59 34.862 0.5 9.01 2.27 16.37
2/15/2021 4:15:00 PM 1.58 34.844 0.499 9.02 2.31 16.28
2/15/2021 4:30:00 PM 1.57 34.826 0.5 9.01 2.27 16.13
2/15/2021 4:45:00 PM 1.56 34.808 0.499 8.99 2.27 15.94
2/15/2021 5:00:00 PM 1.54 34.772 0.499 8.98 2.28 15.75
2/15/2021 5:15:00 PM 1.53 34.754 0.498 8.96 2.3 15.56
2/15/2021 5:30:00 PM 1.52 34.736 0.498 8.94 2.3 15.38
2/15/2021 5:45:00 PM 1.51 34.718 0.498 8.91 2.39 15.17
2/15/2021 6:00:00 PM 1.49 34.682 0.497 8.88 2.29 14.97
2/15/2021 6:15:00 PM 1.47 34.646 0.495 8.85 2.3 14.79
2/15/2021 6:30:00 PM 1.46 34.628 0.493 8.82 2.25 14.63
2/15/2021 6:45:00 PM 1.44 34.592 0.492 8.8 2.3 14.48
2/15/2021 7:00:00 PM 1.43 34.574 0.49 8.76 2.29 14.37
2/15/2021 7:15:00 PM 1.33 34.394 0.488 8.74 2.31 14.25
2/15/2021 7:30:00 PM 1.31 34.358 0.487 8.73 2.32 14.17
2/15/2021 7:45:00 PM 1.28 34.304 0.486 8.69 2.37 14.1
2/15/2021 8:00:00 PM 1.16 34.088 0.485 8.69 2.32 14.02
2/15/2021 8:15:00 PM 1.17 34.106 0.483 8.66 2.35 13.96
2/15/2021 8:30:00 PM 1.16 34.088 0.482 8.63 2.38 13.89
2/15/2021 8:45:00 PM 1.09 33.962 0.48 8.6 2.34 13.84
2/15/2021 9:00:00 PM 1.06 33.908 0.48 8.57 2.36 13.78
2/15/2021 9:15:00 PM 1.04 33.872 0.479 8.51 2.35 13.74
2/15/2021 9:30:00 PM 1.06 33.908 0.478 8.48 2.3 13.68
2/15/2021 9:45:00 PM 0.89 33.602 0.477 8.42 2.36 13.64
2/15/2021 10:00:00 PM 0.73 33.314 0.476 8.37 2.32 13.6
2/15/2021 10:15:00 PM 0.57 33.026 0.475 8.3 2.39 13.57
2/15/2021 10:30:00 PM 0.46 32.828 0.473 8.26 2.32 13.55
2/15/2021 10:45:00 PM 0.27 32.486 0.473 8.19 2.36 13.55
2/15/2021 11:00:00 PM 0.3 32.54 0.471 8.14 2.35 13.54
2/15/2021 11:15:00 PM 0.36 32.648 0.47 8.1 2.32 13.54
2/15/2021 11:30:00 PM 0.39 32.702 0.468 8.05 2.42 13.52
2/15/2021 11:45:00 PM 0.42 32.756 0.468 7.99 2.36 13.51
2/16/2021 12:00:00 AM 0.44 32.792 0.466 7.97 2.35 13.49
2/16/2021 12:15:00 AM 0.48 32.864 0.465 7.94 2.36 13.47
2/16/2021 12:30:00 AM 0.5 32.9 0.464 7.92 2.31 13.45
2/16/2021 12:45:00 AM 0.52 32.936 0.461 7.9 2.43 13.45
2/16/2021 1:00:00 AM 0.55 32.99 0.459 7.87 2.42 13.42
2/16/2021 1:15:00 AM 0.57 33.026 0.456 7.84 2.42 13.41
2/16/2021 1:30:00 AM 0.58 33.044 0.452 7.84 2.5 13.41
2/16/2021 1:45:00 AM 0.58 33.044 0.447 7.81 2.45 13.4
2/16/2021 2:00:00 AM 0.58 33.044 0.444 7.8 2.4 13.4
2/16/2021 2:15:00 AM 0.58 33.044 0.443 7.78 2.45 13.38
2/16/2021 2:30:00 AM 0.58 33.044 0.441 7.77 2.48 13.37
2/16/2021 2:45:00 AM 0.59 33.062 0.441 7.76 2.44 13.36
2/16/2021 3:00:00 AM 0.59 33.062 0.442 7.75 2.54 13.34
2/16/2021 3:15:00 AM 0.61 33.098 0.445 7.75 2.57 13.32
2/16/2021 3:30:00 AM 0.62 33.116 0.449 7.73 2.55 13.31
2/16/2021 3:45:00 AM 0.64 33.152 0.455 7.73 2.56 13.3
2/16/2021 4:00:00 AM 0.65 33.17 0.46 7.71 2.59 13.29
2/16/2021 4:15:00 AM 0.66 33.188 0.463 7.7 2.71 13.28
2/16/2021 4:30:00 AM 0.67 33.206 0.464 7.7 2.82 13.26
2/16/2021 4:45:00 AM 0.68 33.224 0.464 7.69 2.87 13.26
2/16/2021 5:00:00 AM 0.7 33.26 0.464 7.69 3.01 13.24
2/16/2021 5:15:00 AM 0.71 33.278 0.462 7.69 2.95 13.22
2/16/2021 5:30:00 AM 0.73 33.314 0.463 7.67 3.01 13.21
2/16/2021 5:45:00 AM 0.76 33.368 0.468 7.67 3.16 13.19
2/16/2021 6:00:00 AM 0.79 33.422 0.476 7.67 3.21 13.18
2/16/2021 6:15:00 AM 0.8 33.44 0.484 7.66 3.36 13.16
2/16/2021 6:30:00 AM 0.81 33.458 0.491 7.66 3.5 13.15
2/16/2021 6:45:00 AM 0.83 33.494 0.497 7.65 3.57 13.14
2/16/2021 7:00:00 AM 0.83 33.494 0.498 7.63 3.69 13.14
2/16/2021 7:15:00 AM 0.85 33.53 0.5 7.64 4.19 13.14
2/16/2021 7:30:00 AM 0.88 33.584 0.503 7.64 4.09 13.15
2/16/2021 7:45:00 AM 0.89 33.602 0.505 7.63 4.14 13.21
2/16/2021 8:00:00 AM 0.92 33.656 0.508 7.65 4.32 13.3
2/16/2021 8:15:00 AM 0.96 33.728 0.51 7.67 4.27 13.48
2/16/2021 8:30:00 AM 1.01 33.818 0.509 7.71 4.1 13.77
2/16/2021 8:45:00 AM 1.05 33.89 0.508 7.77 4.12 14.02
2/16/2021 9:00:00 AM 1.07 33.926 0.509 7.81 4.12 14.15
2/16/2021 9:15:00 AM 1.09 33.962 0.509 7.84 4.15 14.18
2/16/2021 9:30:00 AM 1.15 34.07 0.51 7.86 4.37 14.31
2/16/2021 9:45:00 AM 1.18 34.124 0.511 7.91 4.23 14.46
2/16/2021 10:00:00 AM 1.21 34.178 0.514 7.95 3.99 14.57
2/16/2021 10:15:00 AM 1.25 34.25 0.517 8.01 4.12 14.72
2/16/2021 10:30:00 AM 1.29 34.322 0.518 8.06 4.33 14.82
2/16/2021 10:45:00 AM 1.35 34.43 0.518 8.11 4.2 14.95
2/16/2021 11:00:00 AM 1.41 34.538 0.516 8.18 4.17 15.11
2/16/2021 11:15:00 AM 1.47 34.646 0.515 8.25 4.16 15.25
2/16/2021 11:30:00 AM 1.48 34.664 0.514 8.32 4.28 15.33
2/16/2021 11:45:00 AM 1.51 34.718 0.514 8.37 4.57 15.37
2/16/2021 12:00:00 PM 1.58 34.844 0.516 8.41 4.34 15.47
2/16/2021 12:15:00 PM 1.62 34.916 0.517 8.48 4.12 15.56
2/16/2021 12:30:00 PM 1.61 34.898 0.52 8.54 4.2 15.6
2/16/2021 12:45:00 PM 1.6 34.88 0.524 8.58 4.47 15.58
2/16/2021 1:00:00 PM 1.61 34.898 0.531 8.59 4.27 15.55
2/16/2021 1:15:00 PM 1.61 34.898 0.538 8.61 4.3 15.51
2/16/2021 1:30:00 PM 1.6 34.88 0.545 8.62 4.44 15.44
2/16/2021 1:45:00 PM 1.61 34.898 0.553 8.6 4.37 15.35
2/16/2021 2:00:00 PM 1.62 34.916 0.56 8.61 4.32 15.31
2/16/2021 2:15:00 PM 1.62 34.916 0.566 8.61 4.25 15.31
2/16/2021 2:30:00 PM 1.64 34.952 0.571 8.64 4.18 15.36
2/16/2021 2:45:00 PM 1.68 35.024 0.577 8.69 4.29 15.46
2/16/2021 3:00:00 PM 1.71 35.078 0.58 8.72 4.12 15.56
2/16/2021 3:15:00 PM 1.72 35.096 0.585 8.77 4.36 15.62
2/16/2021 3:30:00 PM 1.71 35.078 0.588 8.79 4.4 15.64
2/16/2021 3:45:00 PM 1.69 35.042 0.592 8.81 4.15 15.6
2/16/2021 4:00:00 PM 1.68 35.024 0.598 8.81 4.1 15.55
2/16/2021 4:15:00 PM 1.66 34.988 0.606 8.8 4.48 15.5
2/16/2021 4:30:00 PM 1.62 34.916 0.617 8.78 4.14 15.4
2/16/2021 4:45:00 PM 1.57 34.826 0.638 8.76 5.26 15.33
2/16/2021 5:00:00 PM 1.53 34.754 0.67 8.72 4.22 15.21
2/16/2021 5:15:00 PM 1.47 34.646 0.719 8.67 4.4 15.11
2/16/2021 5:30:00 PM 1.4 34.52 0.787 8.61 4.39 14.98
2/16/2021 5:45:00 PM 1.36 34.448 0.875 8.54 5 14.83
2/16/2021 6:00:00 PM 1.31 34.358 0.98 8.47 4.43 14.7
2/16/2021 6:15:00 PM 1.26 34.268 1.099 8.39 4.91 14.57
2/16/2021 6:30:00 PM 1.23 34.214 1.194 8.32 4.79 14.47
2/16/2021 6:45:00 PM 1.19 34.142 1.293 8.27 4.92 14.38
2/16/2021 7:00:00 PM 1.15 34.07 1.357 8.22 4.77 14.27
2/16/2021 7:15:00 PM 1.11 33.998 1.398 8.17 4.66 14.2
2/16/2021 7:30:00 PM 1.06 33.908 1.407 8.13 4.71 14.12
2/16/2021 7:45:00 PM 1.02 33.836 1.398 8.1 4.77 14.05
2/16/2021 8:00:00 PM 1 33.8 1.376 8.05 4.48 13.97
2/16/2021 8:15:00 PM 0.97 33.746 1.348 8.01 4.67 13.91
2/16/2021 8:30:00 PM 0.94 33.692 1.316 7.97 4.53 13.84
2/16/2021 8:45:00 PM 0.92 33.656 1.284 7.93 4.4 13.77
2/16/2021 9:00:00 PM 0.89 33.602 1.253 7.9 4.41 13.72
2/16/2021 9:15:00 PM 0.87 33.566 1.227 7.86 4.4 13.68
2/16/2021 9:30:00 PM 0.84 33.512 1.208 7.84 4.22 13.65
2/16/2021 9:45:00 PM 0.82 33.476 1.19 7.81 4.36 13.62
2/16/2021 10:00:00 PM 0.79 33.422 1.178 7.79 4.23 13.59
2/16/2021 10:15:00 PM 0.76 33.368 1.17 7.77 4.17 13.58
2/16/2021 10:30:00 PM 0.73 33.314 1.165 7.76 4.14 13.56
2/16/2021 10:45:00 PM 0.7 33.26 1.173 7.75 4.09 13.54
2/16/2021 11:00:00 PM 0.67 33.206 1.18 7.72 4.06 13.54
2/16/2021 11:15:00 PM 0.63 33.134 1.199 7.71 4.22 13.52
2/16/2021 11:30:00 PM 0.6 33.08 1.215 7.7 4.2 13.51
2/16/2021 11:45:00 PM 0.56 33.008 1.237 7.69 4.09 13.5
2/17/2021 12:00:00 AM 0.53 32.954 1.264 7.68 4.11 13.5
2/17/2021 12:15:00 AM 0.5 32.9 1.287 7.67 4.06 13.5
2/17/2021 12:30:00 AM 0.47 32.846 1.319 7.66 4.3 13.5
2/17/2021 12:45:00 AM 0.43 32.774 1.33 7.65 4.14 13.51
2/17/2021 1:00:00 AM 0.38 32.684 1.344 7.65 4.19 13.51
2/17/2021 1:15:00 AM 0.33 32.594 1.362 7.64 4.44 13.52
2/17/2021 1:30:00 AM 0.29 32.522 1.376 7.63 4.26 13.52
2/17/2021 1:45:00 AM 0.24 32.432 1.391 7.62 4.28 13.53
2/17/2021 2:00:00 AM 0.21 32.378 1.406 7.62 4.23 13.52
2/17/2021 2:15:00 AM 0.17 32.306 1.415 7.62 4.15 13.53
2/17/2021 2:30:00 AM 0.13 32.234 1.42 7.62 4.06 13.53
2/17/2021 2:45:00 AM 0.08 32.144 1.421 7.61 4.22 13.53
2/17/2021 3:00:00 AM 0.04 32.072 1.423 7.61 4.24 13.53
2/17/2021 3:15:00 AM 0 32 1.427 7.61 4.15 13.54
2/17/2021 3:30:00 AM -0.03 31.946 1.439 7.6 4.12 13.54
2/17/2021 3:45:00 AM -0.06 31.892 1.435 7.6 4.36 13.55
2/17/2021 4:00:00 AM -0.1 31.82 1.441 7.6 4.19 13.55
2/17/2021 4:15:00 AM -0.12 31.784 1.454 7.6 4.24 13.56
2/17/2021 4:30:00 AM -0.1 31.82 1.448 7.6 4.2 13.58
2/17/2021 4:45:00 AM -0.09 31.838 1.452 7.6 4.05 13.58
2/17/2021 5:00:00 AM -0.09 31.838 1.453 7.59 4.2 13.58
2/17/2021 5:15:00 AM -0.1 31.82 1.453 7.59 4.51 13.6
2/17/2021 5:30:00 AM -0.09 31.838 1.452 7.59 4.24 13.61
2/17/2021 5:45:00 AM -0.09 31.838 1.451 7.59 3.99 13.62
2/17/2021 6:00:00 AM -0.09 31.838 1.444 7.59 3.94 13.63
2/17/2021 6:15:00 AM -0.09 31.838 1.446 7.59 3.91 13.63
2/17/2021 6:30:00 AM -0.09 31.838 1.439 7.59 3.81 13.63
2/17/2021 6:45:00 AM -0.09 31.838 1.436 7.59 3.73 13.63
2/17/2021 7:00:00 AM -0.09 31.838 1.434 7.59 3.7 13.64
2/17/2021 7:15:00 AM -0.09 31.838 1.434 7.59 3.79 13.65
2/17/2021 7:30:00 AM -0.09 31.838 1.431 7.6 3.93 13.71
2/17/2021 7:45:00 AM -0.08 31.856 1.43 7.61 4.01 13.82
2/17/2021 8:00:00 AM -0.08 31.856 1.425 7.63 3.95 13.97
2/17/2021 8:15:00 AM -0.07 31.874 1.424 7.65 3.74 14.19
2/17/2021 8:30:00 AM -0.07 31.874 1.419 7.68 3.8 14.43
2/17/2021 8:45:00 AM -0.07 31.874 1.414 7.72 3.7 14.68
2/17/2021 9:00:00 AM -0.06 31.892 1.403 7.75 3.77 14.88
2/17/2021 9:15:00 AM -0.06 31.892 1.398 7.8 3.63 15.08
2/17/2021 9:30:00 AM -0.04 31.928 1.386 7.84 3.69 15.26
2/17/2021 9:45:00 AM -0.04 31.928 1.37 7.89 3.63 15.45
2/17/2021 10:00:00 AM -0.03 31.946 1.358 7.94 3.53 15.63
2/17/2021 10:15:00 AM -0.01 31.982 1.344 8 3.48 15.81
2/17/2021 10:30:00 AM 0.02 32.036 1.33 8.07 3.71 15.98
2/17/2021 10:45:00 AM 0.06 32.108 1.303 8.12 3.69 16.1
2/17/2021 11:00:00 AM 0.16 32.288 1.279 8.18 3.62 16.21
2/17/2021 11:15:00 AM 0.31 32.558 1.258 8.23 3.59 16.33
2/17/2021 11:30:00 AM 0.5 32.9 1.243 8.29 3.53 16.4
2/17/2021 11:45:00 AM 0.66 33.188 1.228 8.34 3.49 16.46
2/17/2021 12:00:00 PM 0.73 33.314 1.211 8.39 3.52 16.5
2/17/2021 12:15:00 PM 0.82 33.476 1.219 8.45 3.53 16.56
2/17/2021 12:30:00 PM 0.82 33.476 1.22 8.49 3.47 16.59
2/17/2021 12:45:00 PM 0.88 33.584 1.238 8.54 3.42 16.65
2/17/2021 1:00:00 PM 0.93 33.674 1.262 8.6 3.58 16.73
2/17/2021 1:15:00 PM 0.99 33.782 1.279 8.65 3.54 16.79
2/17/2021 1:30:00 PM 1.05 33.89 1.276 8.69 3.65 16.82
2/17/2021 1:45:00 PM 1.17 34.106 1.283 8.73 3.44 16.88
2/17/2021 2:00:00 PM 1.25 34.25 1.284 8.77 3.55 16.89
2/17/2021 2:15:00 PM 1.34 34.412 1.3 8.81 3.52 16.9
2/17/2021 2:30:00 PM 1.42 34.556 1.299 8.84 3.4 16.88
2/17/2021 2:45:00 PM 1.48 34.664 1.31 8.87 3.41 16.89
2/17/2021 3:00:00 PM 1.54 34.772 1.313 8.91 3.31 16.85
2/17/2021 3:15:00 PM 1.57 34.826 1.318 8.93 3.33 16.8
2/17/2021 3:30:00 PM 1.6 34.88 1.324 8.96 3.34 16.76
2/17/2021 3:45:00 PM 1.61 34.898 1.32 8.97 3.28 16.69
2/17/2021 4:00:00 PM 1.65 34.97 1.325 8.99 3.42 16.65
2/17/2021 4:15:00 PM 1.67 35.006 1.324 9 3.29 16.61
2/17/2021 4:30:00 PM 1.65 34.97 1.324 9 3.23 16.54
2/17/2021 4:45:00 PM 1.61 34.898 1.322 9.01 3.58 16.41
2/17/2021 5:00:00 PM 1.57 34.826 1.321 9.01 3.17 16.24
2/17/2021 5:15:00 PM 1.55 34.79 1.315 8.99 3.22 16.08
2/17/2021 5:30:00 PM 1.52 34.736 1.305 8.97 3.28 15.85
2/17/2021 5:45:00 PM 1.51 34.718 1.301 8.93 3.21 15.64
2/17/2021 6:00:00 PM 1.49 34.682 1.29 8.9 3.13 15.43
2/17/2021 6:15:00 PM 1.46 34.628 1.278 8.86 3.14 15.21
2/17/2021 6:30:00 PM 1.43 34.574 1.269 8.81 3.16 15.03
2/17/2021 6:45:00 PM 1.41 34.538 1.265 8.77 3.07 14.89
2/17/2021 7:00:00 PM 1.38 34.484 1.262 8.72 3.1 14.75
2/17/2021 7:15:00 PM 1.34 34.412 1.259 8.67 3.15 14.64
2/17/2021 7:30:00 PM 1.3 34.34 1.256 8.62 3.1 14.54
2/17/2021 7:45:00 PM 1.26 34.268 1.259 8.56 3.17 14.43
2/17/2021 8:00:00 PM 1.23 34.214 1.255 8.51 3.19 14.35
2/17/2021 8:15:00 PM 1.19 34.142 1.253 8.45 3.13 14.26
2/17/2021 8:30:00 PM 1.16 34.088 1.253 8.38 3.18 14.18
2/17/2021 8:45:00 PM 1.14 34.052 1.257 8.32 3.15 14.1
2/17/2021 9:00:00 PM 1.11 33.998 1.265 8.26 3.13 14.03
2/17/2021 9:15:00 PM 1.1 33.98 1.271 8.21 3.08 13.96
2/17/2021 9:30:00 PM 1.09 33.962 1.272 8.15 3.13 13.89
2/17/2021 9:45:00 PM 1.07 33.926 1.277 8.1 3.17 13.83
2/17/2021 10:00:00 PM 1.06 33.908 1.279 8.05 3.1 13.77
2/17/2021 10:15:00 PM 1.05 33.89 1.283 8.01 2.98 13.71
2/17/2021 10:30:00 PM 1.04 33.872 1.282 7.97 3.09 13.65
2/17/2021 10:45:00 PM 1.02 33.836 1.285 7.94 3.17 13.6
2/17/2021 11:00:00 PM 0.98 33.764 1.285 7.9 3.01 13.56
2/17/2021 11:15:00 PM 0.95 33.71 1.283 7.88 3.02 13.52
2/17/2021 11:30:00 PM 0.89 33.602 1.282 7.86 3.04 13.49
2/17/2021 11:45:00 PM 0.86 33.548 1.281 7.84 3 13.45
2/18/2021 12:00:00 AM 0.81 33.458 1.271 7.82 3 13.44
2/18/2021 12:15:00 AM 0.76 33.368 1.267 7.81 3.05 13.43
2/18/2021 12:30:00 AM 0.75 33.35 1.26 7.79 3.1 13.43
2/18/2021 12:45:00 AM 0.75 33.35 1.248 7.78 3.06 13.42
2/18/2021 1:00:00 AM 0.75 33.35 1.236 7.77 3.18 13.42
2/18/2021 1:15:00 AM 0.73 33.314 1.225 7.76 3.01 13.41
2/18/2021 1:30:00 AM 0.67 33.206 1.209 7.75 3 13.41
2/18/2021 1:45:00 AM 0.63 33.134 1.196 7.75 2.97 13.42
2/18/2021 2:00:00 AM 0.57 33.026 1.18 7.74 2.99 13.42
2/18/2021 2:15:00 AM 0.54 32.972 1.163 7.74 2.96 13.43
2/18/2021 2:30:00 AM 0.56 33.008 1.153 7.73 3.04 13.44
2/18/2021 2:45:00 AM 0.55 32.99 1.136 7.72 2.95 13.45
2/18/2021 3:00:00 AM 0.52 32.936 1.123 7.72 3.06 13.46
2/18/2021 3:15:00 AM 0.51 32.918 1.107 7.71 2.9 13.48
2/18/2021 3:30:00 AM 0.5 32.9 1.098 7.71 2.98 13.49
2/18/2021 3:45:00 AM 0.49 32.882 1.086 7.7 2.9 13.5
2/18/2021 4:00:00 AM 0.47 32.846 1.075 7.69 3 13.52
2/18/2021 4:15:00 AM 0.43 32.774 1.068 7.69 2.92 13.53
2/18/2021 4:30:00 AM 0.36 32.648 1.058 7.69 2.93 13.54
2/18/2021 4:45:00 AM 0.34 32.612 1.051 7.69 2.93 13.55
2/18/2021 5:00:00 AM 0.31 32.558 1.043 7.68 2.9 13.57
2/18/2021 5:15:00 AM 0.29 32.522 1.035 7.68 2.95 13.58
2/18/2021 5:30:00 AM 0.27 32.486 1.023 7.68 2.91 13.59
2/18/2021 5:45:00 AM 0.25 32.45 1.019 7.67 2.92 13.6
2/18/2021 6:00:00 AM 0.19 32.342 1.012 7.67 2.9 13.62
2/18/2021 6:15:00 AM 0.16 32.288 1.005 7.67 2.8 13.63
2/18/2021 6:30:00 AM 0.14 32.252 1.003 7.67 2.88 13.63
2/18/2021 6:45:00 AM 0.14 32.252 0.999 7.67 2.87 13.65
2/18/2021 7:00:00 AM 0.13 32.234 0.997 7.66 2.9 13.66
2/18/2021 7:15:00 AM 0.11 32.198 0.997 7.66 2.79 13.67
2/18/2021 7:30:00 AM 0.1 32.18 0.997 7.67 2.84 13.69
2/18/2021 7:45:00 AM 0.08 32.144 0.999 7.67 2.89 13.74
2/18/2021 8:00:00 AM 0.05 32.09 0.997 7.68 2.84 13.81
2/18/2021 8:15:00 AM 0.03 32.054 0.999 7.7 2.97 13.9
2/18/2021 8:30:00 AM 0 32 1 7.71 2.87 13.99
2/18/2021 8:45:00 AM -0.03 31.946 1.002 7.73 2.8 14.15
2/18/2021 9:00:00 AM -0.04 31.928 1.004 7.76 2.9 14.34
2/18/2021 9:15:00 AM -0.03 31.946 1.005 7.79 2.85 14.54
2/18/2021 9:30:00 AM -0.02 31.964 1.007 7.83 2.87 14.74
2/18/2021 9:45:00 AM 0 32 1.009 7.87 2.87 14.93
2/18/2021 10:00:00 AM 0.06 32.108 1.005 7.92 2.93 15.14
2/18/2021 10:15:00 AM 0.09 32.162 1.004 7.97 2.95 15.3
2/18/2021 10:30:00 AM 0.13 32.234 1.005 8.02 2.92 15.45
2/18/2021 10:45:00 AM 0.15 32.27 1.003 8.06 2.94 15.55
2/18/2021 11:00:00 AM 0.18 32.324 1.001 8.1 2.83 15.65
2/18/2021 11:15:00 AM 0.21 32.378 0.995 8.15 2.79 15.73
2/18/2021 11:30:00 AM 0.24 32.432 0.993 8.2 2.82 15.82
2/18/2021 11:45:00 AM 0.27 32.486 0.989 8.23 2.86 15.9
2/18/2021 12:00:00 PM 0.29 32.522 0.983 8.27 2.85 15.95
2/18/2021 12:15:00 PM 0.31 32.558 0.981 8.32 2.79 16.05
2/18/2021 12:30:00 PM 0.33 32.594 0.977 8.36 2.91 16.12
2/18/2021 12:45:00 PM 0.33 32.594 0.974 8.4 2.78 16.17
2/18/2021 1:00:00 PM 0.33 32.594 0.972 8.44 2.88 16.2
2/18/2021 1:15:00 PM 0.36 32.648 0.971 8.48 2.78 16.26
2/18/2021 1:30:00 PM 0.4 32.72 0.97 8.52 2.75 16.35
2/18/2021 1:45:00 PM 0.42 32.756 0.962 8.56 2.81 16.41
2/18/2021 2:00:00 PM 0.46 32.828 0.962 8.61 2.73 16.5
2/18/2021 2:15:00 PM 0.51 32.918 0.956 8.65 2.81 16.58
2/18/2021 2:30:00 PM 0.56 33.008 0.949 8.7 2.84 16.68
2/18/2021 2:45:00 PM 0.6 33.08 0.946 8.75 2.78 16.75
2/18/2021 3:00:00 PM 0.62 33.116 0.94 8.79 2.81 16.78
2/18/2021 3:15:00 PM 0.65 33.17 0.937 8.83 2.77 16.78
2/18/2021 3:30:00 PM 0.69 33.242 0.931 8.86 2.74 16.8
2/18/2021 3:45:00 PM 0.7 33.26 0.928 8.88 2.74 16.77
2/18/2021 4:00:00 PM 0.7 33.26 0.926 8.9 2.79 16.69
2/18/2021 4:15:00 PM 0.7 33.26 0.921 8.91 2.79 16.59
2/18/2021 4:30:00 PM 0.7 33.26 0.917 8.92 2.86 16.48
2/18/2021 4:45:00 PM 0.7 33.26 0.908 8.92 2.81 16.36
2/18/2021 5:00:00 PM 0.7 33.26 0.906 8.91 2.81 16.24
2/18/2021 5:15:00 PM 0.7 33.26 0.902 8.9 2.81 16.1
2/18/2021 5:30:00 PM 0.68 33.224 0.898 8.88 2.9 15.9
2/18/2021 5:45:00 PM 0.67 33.206 0.9 8.85 2.89 15.67
2/18/2021 6:00:00 PM 0.66 33.188 0.896 8.81 2.92 15.46
2/18/2021 6:15:00 PM 0.62 33.116 0.894 8.77 2.91 15.26
2/18/2021 6:30:00 PM 0.58 33.044 0.892 8.73 2.94 15.09
2/18/2021 6:45:00 PM 0.53 32.954 0.886 8.69 2.96 14.95
2/18/2021 7:00:00 PM 0.51 32.918 0.88 8.64 2.85 14.84
2/18/2021 7:15:00 PM 0.49 32.882 0.877 8.6 2.83 14.74
2/18/2021 7:30:00 PM 0.46 32.828 0.869 8.56 2.83 14.66
2/18/2021 7:45:00 PM 0.45 32.81 0.867 8.52 2.84 14.58
2/18/2021 8:00:00 PM 0.44 32.792 0.862 8.48 2.9 14.51
2/18/2021 8:15:00 PM 0.43 32.774 0.86 8.44 2.85 14.44
2/18/2021 8:30:00 PM 0.43 32.774 0.856 8.39 2.82 14.37
2/18/2021 8:45:00 PM 0.43 32.774 0.854 8.34 2.88 14.29
2/18/2021 9:00:00 PM 0.44 32.792 0.853 8.29 2.84 14.23
2/18/2021 9:15:00 PM 0.43 32.774 0.851 8.23 2.78 14.16
2/18/2021 9:30:00 PM 0.42 32.756 0.849 8.18 2.78 14.1
2/18/2021 9:45:00 PM 0.39 32.702 0.846 8.12 2.81 14.05
2/18/2021 10:00:00 PM 0.37 32.666 0.845 8.08 2.8 14.01
2/18/2021 10:15:00 PM 0.34 32.612 0.842 8.03 2.79 13.96
2/18/2021 10:30:00 PM 0.31 32.558 0.841 7.99 2.85 13.93
2/18/2021 10:45:00 PM 0.29 32.522 0.841 7.96 2.79 13.89
2/18/2021 11:00:00 PM 0.28 32.504 0.837 7.92 2.72 13.86
2/18/2021 11:15:00 PM 0.26 32.468 0.837 7.9 2.76 13.83
2/18/2021 11:30:00 PM 0.25 32.45 0.834 7.87 2.8 13.81
2/18/2021 11:45:00 PM 0.24 32.432 0.832 7.85 2.83 13.78
2/19/2021 12:00:00 AM 0.25 32.45 0.83 7.83 2.87 13.76
2/19/2021 12:15:00 AM 0.26 32.468 0.831 7.82 2.78 13.74
2/19/2021 12:30:00 AM 0.27 32.486 0.83 7.8 2.74 13.72
2/19/2021 12:45:00 AM 0.27 32.486 0.832 7.79 2.79 13.7
2/19/2021 1:00:00 AM 0.27 32.486 0.83 7.78 2.74 13.69
2/19/2021 1:15:00 AM 0.26 32.468 0.833 7.77 2.76 13.68
2/19/2021 1:30:00 AM 0.26 32.468 0.834 7.76 2.67 13.67
2/19/2021 1:45:00 AM 0.26 32.468 0.836 7.76 2.78 13.66
2/19/2021 2:00:00 AM 0.25 32.45 0.839 7.75 2.69 13.65
2/19/2021 2:15:00 AM 0.24 32.432 0.841 7.74 2.71 13.65
2/19/2021 2:30:00 AM 0.24 32.432 0.842 7.74 2.73 13.63
2/19/2021 2:45:00 AM 0.25 32.45 0.843 7.73 2.71 13.63
2/19/2021 3:00:00 AM 0.26 32.468 0.844 7.72 2.73 13.62
2/19/2021 3:15:00 AM 0.27 32.486 0.845 7.72 2.71 13.61
2/19/2021 3:30:00 AM 0.29 32.522 0.844 7.72 2.72 13.59
2/19/2021 3:45:00 AM 0.29 32.522 0.844 7.71 2.71 13.59
2/19/2021 4:00:00 AM 0.3 32.54 0.842 7.71 2.61 13.58
2/19/2021 4:15:00 AM 0.31 32.558 0.842 7.7 2.73 13.58
2/19/2021 4:30:00 AM 0.32 32.576 0.843 7.71 2.72 13.56
2/19/2021 4:45:00 AM 0.32 32.576 0.84 7.7 2.69 13.56
2/19/2021 5:00:00 AM 0.33 32.594 0.838 7.7 2.65 13.55
2/19/2021 5:15:00 AM 0.34 32.612 0.84 7.69 2.68 13.54
2/19/2021 5:30:00 AM 0.34 32.612 0.839 7.7 2.77 13.53
2/19/2021 5:45:00 AM 0.34 32.612 0.837 7.69 2.63 13.53
2/19/2021 6:00:00 AM 0.35 32.63 0.835 7.69 2.64 13.52
2/19/2021 6:15:00 AM 0.35 32.63 0.836 7.69 2.62 13.52
2/19/2021 6:30:00 AM 0.36 32.648 0.835 7.69 2.69 13.52
2/19/2021 6:45:00 AM 0.35 32.63 0.833 7.68 2.68 13.51
2/19/2021 7:00:00 AM 0.36 32.648 0.833 7.68 2.65 13.51
2/19/2021 7:15:00 AM 0.36 32.648 0.833 7.68 2.6 13.53
2/19/2021 7:30:00 AM 0.37 32.666 0.833 7.68 2.68 13.57
2/19/2021 7:45:00 AM 0.38 32.684 0.832 7.7 2.66 13.68
2/19/2021 8:00:00 AM 0.41 32.738 0.834 7.73 2.6 13.87
2/19/2021 8:15:00 AM 0.46 32.828 0.834 7.77 2.63 14.11
2/19/2021 8:30:00 AM 0.51 32.918 0.833 7.81 2.64 14.41
2/19/2021 8:45:00 AM 0.57 33.026 0.833 7.87 2.74 14.68
2/19/2021 9:00:00 AM 0.63 33.134 0.832 7.93 2.61 14.94
2/19/2021 9:15:00 AM 0.67 33.206 0.833 7.99 2.64 15.15
2/19/2021 9:30:00 AM 0.68 33.224 0.834 8.05 2.63 15.26
2/19/2021 9:45:00 AM 0.69 33.242 0.837 8.08 2.66 15.3
2/19/2021 10:00:00 AM 0.72 33.296 0.84 8.11 2.64 15.37
2/19/2021 10:15:00 AM 0.78 33.404 0.844 8.16 2.6 15.49
2/19/2021 10:30:00 AM 0.83 33.494 0.849 8.21 2.63 15.59
2/19/2021 10:45:00 AM 0.91 33.638 0.855 8.26 2.61 15.71
2/19/2021 11:00:00 AM 1.02 33.836 0.866 8.32 2.79 15.88
2/19/2021 11:15:00 AM 1.08 33.944 0.877 8.39 2.59 16.02
2/19/2021 11:30:00 AM 1.12 34.016 0.89 8.45 2.68 16.11
2/19/2021 11:45:00 AM 1.18 34.124 0.905 8.5 2.62 16.2
2/19/2021 12:00:00 PM 1.28 34.304 0.918 8.56 2.63 16.33
2/19/2021 12:15:00 PM 1.31 34.358 0.924 8.6 2.6 16.38
2/19/2021 12:30:00 PM 1.32 34.376 0.93 8.65 2.6 16.35
2/19/2021 12:45:00 PM 1.34 34.412 0.939 8.68 2.67 16.35
2/19/2021 1:00:00 PM 1.34 34.412 0.94 8.71 2.64 16.33
2/19/2021 1:15:00 PM 1.35 34.43 0.941 8.73 2.69 16.34
2/19/2021 1:30:00 PM 1.38 34.484 0.942 8.76 2.59 16.34
2/19/2021 1:45:00 PM 1.4 34.52 0.941 8.78 2.72 16.36
2/19/2021 2:00:00 PM 1.43 34.574 0.935 8.82 2.56 16.36
2/19/2021 2:15:00 PM 1.47 34.646 0.931 8.85 2.59 16.4
2/19/2021 2:30:00 PM 1.51 34.718 0.927 8.87 2.58 16.43
2/19/2021 2:45:00 PM 1.51 34.718 0.921 8.91 2.64 16.37
2/19/2021 3:00:00 PM 1.5 34.7 0.917 8.92 2.62 16.27
2/19/2021 3:15:00 PM 1.52 34.736 0.913 8.93 2.66 16.2
2/19/2021 3:30:00 PM 1.52 34.736 0.91 8.94 2.63 16.11
2/19/2021 3:45:00 PM 1.53 34.754 0.905 8.94 2.59 16.01
2/19/2021 4:00:00 PM 1.53 34.754 0.899 8.95 2.63 15.91
2/19/2021 4:15:00 PM 1.53 34.754 0.893 8.95 2.72 15.85
2/19/2021 4:30:00 PM 1.52 34.736 0.886 8.95 2.6 15.76
2/19/2021 4:45:00 PM 1.52 34.736 0.88 8.95 2.64 15.68
2/19/2021 5:00:00 PM 1.51 34.718 0.874 8.94 2.63 15.58
2/19/2021 5:15:00 PM 1.49 34.682 0.869 8.93 2.63 15.42
2/19/2021 5:30:00 PM 1.47 34.646 0.867 8.91 2.6 15.24
2/19/2021 5:45:00 PM 1.45 34.61 0.864 8.86 2.65 15.06
2/19/2021 6:00:00 PM 1.43 34.574 0.862 8.83 2.61 14.87
2/19/2021 6:15:00 PM 1.4 34.52 0.86 8.78 2.69 14.69
2/19/2021 6:30:00 PM 1.38 34.484 0.862 8.73 2.66 14.53
2/19/2021 6:45:00 PM 1.35 34.43 0.864 8.68 2.62 14.39
2/19/2021 7:00:00 PM 1.31 34.358 0.865 8.62 2.68 14.28
2/19/2021 7:15:00 PM 1.29 34.322 0.868 8.57 2.68 14.19
2/19/2021 7:30:00 PM 1.26 34.268 0.867 8.52 2.73 14.11
2/19/2021 7:45:00 PM 1.23 34.214 0.868 8.45 2.68 14.05
2/19/2021 8:00:00 PM 1.2 34.16 0.869 8.41 2.66 13.99
2/19/2021 8:15:00 PM 1.18 34.124 0.871 8.36 2.68 13.93
2/19/2021 8:30:00 PM 1.15 34.07 0.875 8.3 2.57 13.87
2/19/2021 8:45:00 PM 1.12 34.016 0.877 8.25 2.62 13.82
2/19/2021 9:00:00 PM 1.1 33.98 0.882 8.2 2.62 13.77
2/19/2021 9:15:00 PM 1.07 33.926 0.884 8.15 2.6 13.72
2/19/2021 9:30:00 PM 1.03 33.854 0.887 8.1 2.7 13.69
2/19/2021 9:45:00 PM 1.01 33.818 0.891 8.06 2.69 13.64
2/19/2021 10:00:00 PM 0.97 33.746 0.892 8.02 2.62 13.61
2/19/2021 10:15:00 PM 0.94 33.692 0.894 7.99 2.64 13.58
2/19/2021 10:30:00 PM 0.91 33.638 0.9 7.95 2.63 13.56
2/19/2021 10:45:00 PM 0.86 33.548 0.901 7.92 2.63 13.53
2/19/2021 11:00:00 PM 0.83 33.494 0.905 7.9 2.66 13.51
2/19/2021 11:15:00 PM 0.8 33.44 0.91 7.88 2.62 13.49
2/19/2021 11:30:00 PM 0.79 33.422 0.914 7.86 2.63 13.47
2/19/2021 11:45:00 PM 0.76 33.368 0.916 7.85 2.64 13.46
2/20/2021 12:00:00 AM 0.74 33.332 0.921 7.83 2.63 13.45
2/20/2021 12:15:00 AM 0.72 33.296 0.923 7.82 2.58 13.44
2/20/2021 12:30:00 AM 0.71 33.278 0.926 7.8 2.56 13.43
2/20/2021 12:45:00 AM 0.67 33.206 0.927 7.79 2.58 13.43
2/20/2021 1:00:00 AM 0.66 33.188 0.93 7.78 2.58 13.43
2/20/2021 1:15:00 AM 0.62 33.116 0.934 7.77 2.56 13.43
2/20/2021 1:30:00 AM 0.59 33.062 0.936 7.76 2.56 13.43
2/20/2021 1:45:00 AM 0.56 33.008 0.936 7.75 2.58 13.44
2/20/2021 2:00:00 AM 0.54 32.972 0.941 7.75 2.6 13.44
2/20/2021 2:15:00 AM 0.5 32.9 0.943 7.75 2.58 13.45
2/20/2021 2:30:00 AM 0.46 32.828 0.946 7.74 2.57 13.46
2/20/2021 2:45:00 AM 0.43 32.774 0.95 7.73 2.58 13.46
2/20/2021 3:00:00 AM 0.4 32.72 0.953 7.73 2.57 13.46
2/20/2021 3:15:00 AM 0.37 32.666 0.953 7.73 2.59 13.48
2/20/2021 3:30:00 AM 0.35 32.63 0.956 7.72 2.58 13.48
2/20/2021 3:45:00 AM 0.32 32.576 0.958 7.72 2.6 13.49
2/20/2021 4:00:00 AM 0.31 32.558 0.96 7.71 2.63 13.49
2/20/2021 4:15:00 AM 0.29 32.522 0.961 7.71 2.6 13.5
2/20/2021 4:30:00 AM 0.28 32.504 0.961 7.71 2.63 13.5
2/20/2021 4:45:00 AM 0.27 32.486 0.963 7.71 2.62 13.5
2/20/2021 5:00:00 AM 0.26 32.468 0.965 7.7 2.63 13.51
2/20/2021 5:15:00 AM 0.25 32.45 0.967 7.7 2.61 13.51
2/20/2021 5:30:00 AM 0.24 32.432 0.97 7.7 2.57 13.51
2/20/2021 5:45:00 AM 0.23 32.414 0.969 7.69 2.65 13.52
2/20/2021 6:00:00 AM 0.21 32.378 0.968 7.69 2.58 13.52
2/20/2021 6:15:00 AM 0.2 32.36 0.967 7.69 2.56 13.53
2/20/2021 6:30:00 AM 0.18 32.324 0.964 7.69 2.59 13.54
2/20/2021 6:45:00 AM 0.15 32.27 0.964 7.69 2.56 13.54
2/20/2021 7:00:00 AM 0.14 32.252 0.963 7.69 2.53 13.55
2/20/2021 7:15:00 AM 0.12 32.216 0.961 7.68 2.59 13.58
2/20/2021 7:30:00 AM 0.1 32.18 0.962 7.7 2.58 13.65
2/20/2021 7:45:00 AM 0.09 32.162 0.965 7.7 2.54 13.76
2/20/2021 8:00:00 AM 0.09 32.162 0.967 7.73 2.66 13.93
2/20/2021 8:15:00 AM 0.1 32.18 0.969 7.76 2.55 14.15
2/20/2021 8:30:00 AM 0.11 32.198 0.968 7.8 2.55 14.4
2/20/2021 8:45:00 AM 0.13 32.234 0.967 7.83 2.74 14.65
2/20/2021 9:00:00 AM 0.17 32.306 0.967 7.9 2.58 14.91
2/20/2021 9:15:00 AM 0.21 32.378 0.962 7.95 2.58 15.18
2/20/2021 9:30:00 AM 0.29 32.522 0.958 8.02 2.49 15.46
2/20/2021 9:45:00 AM 0.36 32.648 0.958 8.09 2.65 15.72
2/20/2021 10:00:00 AM 0.46 32.828 0.954 8.17 2.59 15.94
2/20/2021 10:15:00 AM 0.53 32.954 0.956 8.25 2.56 16.13
2/20/2021 10:30:00 AM 0.61 33.098 0.958 8.32 2.6 16.29
2/20/2021 10:45:00 AM 0.68 33.224 0.969 8.4 2.58 16.41
2/20/2021 11:00:00 AM 0.73 33.314 0.978 8.46 2.6 16.51
2/20/2021 11:15:00 AM 0.76 33.368 0.987 8.52 2.59 16.6
2/20/2021 11:30:00 AM 0.82 33.476 0.998 8.57 2.58 16.68
2/20/2021 11:45:00 AM 0.91 33.638 1.006 8.61 2.55 16.75
2/20/2021 12:00:00 PM 0.96 33.728 1.015 8.66 2.55 16.82
2/20/2021 12:15:00 PM 0.99 33.782 1.022 8.71 2.55 16.87
2/20/2021 12:30:00 PM 1.01 33.818 1.031 8.74 2.56 16.91
2/20/2021 12:45:00 PM 1.01 33.818 1.041 8.78 2.6 16.93
2/20/2021 1:00:00 PM 1.03 33.854 1.052 8.81 2.55 16.96
2/20/2021 1:15:00 PM 1.08 33.944 1.056 8.84 2.51 16.98
2/20/2021 1:30:00 PM 1.13 34.034 1.065 8.87 2.59 17.03
2/20/2021 1:45:00 PM 1.16 34.088 1.073 8.91 2.62 17.07
2/20/2021 2:00:00 PM 1.2 34.16 1.075 8.93 2.59 17.1
2/20/2021 2:15:00 PM 1.21 34.178 1.077 8.97 2.7 17.11
2/20/2021 2:30:00 PM 1.27 34.286 1.078 9 2.58 17.13
2/20/2021 2:45:00 PM 1.29 34.322 1.075 9.03 2.54 17.15
2/20/2021 3:00:00 PM 1.29 34.322 1.077 9.06 2.54 17.14
2/20/2021 3:15:00 PM 1.31 34.358 1.077 9.08 2.56 17.12
2/20/2021 3:30:00 PM 1.33 34.394 1.074 9.1 2.59 17.1
2/20/2021 3:45:00 PM 1.35 34.43 1.07 9.13 2.61 17.06
2/20/2021 4:00:00 PM 1.33 34.394 1.069 9.15 2.54 17.01
2/20/2021 4:15:00 PM 1.31 34.358 1.067 9.16 2.53 16.97
2/20/2021 4:30:00 PM 1.26 34.268 1.063 9.18 2.55 16.9
2/20/2021 4:45:00 PM 1.24 34.232 1.057 9.19 2.54 16.81
2/20/2021 5:00:00 PM 1.21 34.178 1.052 9.19 2.54 16.72
2/20/2021 5:15:00 PM 1.14 34.052 1.044 9.19 2.54 16.57
2/20/2021 5:30:00 PM 1.06 33.908 1.038 9.18 2.65 16.36
2/20/2021 5:45:00 PM 0.99 33.782 1.031 9.16 2.57 16.14
2/20/2021 6:00:00 PM 0.91 33.638 1.025 9.13 2.58 15.92
2/20/2021 6:15:00 PM 0.84 33.512 1.019 9.1 2.59 15.69
2/20/2021 6:30:00 PM 0.78 33.404 1.012 9.07 2.61 15.47
2/20/2021 6:45:00 PM 0.71 33.278 1.006 9.01 2.59 15.29
2/20/2021 7:00:00 PM 0.66 33.188 0.998 8.99 2.57 15.13
2/20/2021 7:15:00 PM 0.62 33.116 0.991 8.95 2.58 15.01
2/20/2021 7:30:00 PM 0.56 33.008 0.982 8.92 2.56 14.9
2/20/2021 7:45:00 PM 0.52 32.936 0.979 8.89 2.63 14.82
2/20/2021 8:00:00 PM 0.47 32.846 0.976 8.86 2.67 14.75
2/20/2021 8:15:00 PM 0.42 32.756 0.975 8.83 2.63 14.68
2/20/2021 8:30:00 PM 0.38 32.684 0.975 8.8 2.56 14.61
2/20/2021 8:45:00 PM 0.35 32.63 0.977 8.76 2.59 14.55
2/20/2021 9:00:00 PM 0.35 32.63 0.98 8.72 2.6 14.49
2/20/2021 9:15:00 PM 0.34 32.612 0.983 8.68 2.57 14.42
2/20/2021 9:30:00 PM 0.32 32.576 0.986 8.64 2.67 14.36
2/20/2021 9:45:00 PM 0.31 32.558 0.985 8.58 2.61 14.3
2/20/2021 10:00:00 PM 0.29 32.522 0.985 8.53 2.56 14.25
2/20/2021 10:15:00 PM 0.26 32.468 0.981 8.46 2.72 14.2
2/20/2021 10:30:00 PM 0.23 32.414 0.982 8.39 2.66 14.16
2/20/2021 10:45:00 PM 0.2 32.36 0.977 8.34 2.64 14.12
2/20/2021 11:00:00 PM 0.17 32.306 0.977 8.27 2.63 14.08
2/20/2021 11:15:00 PM 0.15 32.27 0.976 8.21 2.64 14.05
2/20/2021 11:30:00 PM 0.12 32.216 0.973 8.15 2.68 14.02
2/20/2021 11:45:00 PM 0.1 32.18 0.973 8.1 2.59 13.99
2/21/2021 12:00:00 AM 0.08 32.144 0.972 8.06 2.63 13.96
2/21/2021 12:15:00 AM 0.05 32.09 0.971 8.01 2.63 13.94
2/21/2021 12:30:00 AM 0.02 32.036 0.97 7.98 2.66 13.93
2/21/2021 12:45:00 AM -0.02 31.964 0.97 7.95 2.65 13.91
2/21/2021 1:00:00 AM -0.05 31.91 0.969 7.93 2.61 13.91
2/21/2021 1:15:00 AM -0.09 31.838 0.97 7.91 2.6 13.9
2/21/2021 1:30:00 AM -0.11 31.802 0.972 7.88 2.63 13.89
2/21/2021 1:45:00 AM -0.12 31.784 0.976 7.87 2.59 13.89
2/21/2021 2:00:00 AM -0.11 31.802 0.984 7.86 2.53 13.88
2/21/2021 2:15:00 AM -0.1 31.82 0.99 7.85 2.53 13.88
2/21/2021 2:30:00 AM -0.09 31.838 0.996 7.84 2.6 13.87
2/21/2021 2:45:00 AM -0.09 31.838 1.003 7.83 2.65 13.86
2/21/2021 3:00:00 AM -0.09 31.838 1.012 7.82 2.68 13.86
2/21/2021 3:15:00 AM -0.08 31.856 1.019 7.82 2.6 13.86
2/21/2021 3:30:00 AM -0.08 31.856 1.024 7.81 2.64 13.85
2/21/2021 3:45:00 AM -0.08 31.856 1.031 7.81 3.27 13.84
2/21/2021 4:00:00 AM -0.08 31.856 1.036 7.79 4.26 13.83
2/21/2021 4:15:00 AM -0.08 31.856 1.041 7.79 4.02 13.82
2/21/2021 4:30:00 AM -0.08 31.856 1.045 7.78 4.99 13.82
2/21/2021 4:45:00 AM -0.08 31.856 1.047 7.77 5.03 13.81
2/21/2021 5:00:00 AM -0.08 31.856 1.05 7.77 4.25 13.81
2/21/2021 5:15:00 AM -0.08 31.856 1.055 7.76 4.53 13.81
2/21/2021 5:30:00 AM -0.08 31.856 1.058 7.76 4.76 13.81
2/21/2021 5:45:00 AM -0.08 31.856 1.058 7.75 4.67 13.81
2/21/2021 6:00:00 AM -0.08 31.856 1.06 7.74 6.08 13.8
2/21/2021 6:15:00 AM -0.08 31.856 1.058 7.74 4.38 13.8
2/21/2021 6:30:00 AM -0.08 31.856 1.056 7.73 3.46 13.83
2/21/2021 6:45:00 AM -0.08 31.856 1.053 7.74 3.28 13.84
2/21/2021 7:00:00 AM -0.07 31.874 1.047 7.73 3.48 13.85
2/21/2021 7:15:00 AM -0.07 31.874 1.043 7.73 3.1 13.87
2/21/2021 7:30:00 AM -0.07 31.874 1.037 7.73 2.87 13.94
2/21/2021 7:45:00 AM -0.07 31.874 1.031 7.73 4.75 14.03
2/21/2021 8:00:00 AM -0.06 31.892 1.026 7.75 4.39 14.17
2/21/2021 8:15:00 AM -0.06 31.892 1.02 7.76 4.45 14.34
2/21/2021 8:30:00 AM -0.05 31.91 1.015 7.78 3.49 14.53
2/21/2021 8:45:00 AM -0.04 31.928 1.008 7.8 3.72 14.77
2/21/2021 9:00:00 AM -0.03 31.946 0.998 7.84 3.04 15.02
2/21/2021 9:15:00 AM -0.02 31.964 0.991 7.87 3.07 15.25
2/21/2021 9:30:00 AM -0.01 31.982 0.985 7.91 3.4 15.47
2/21/2021 9:45:00 AM 0.01 32.018 0.975 7.96 2.72 15.7
2/21/2021 10:00:00 AM 0.02 32.036 0.964 8.02 2.73 15.92
2/21/2021 10:15:00 AM 0.05 32.09 0.951 8.08 2.73 16.13
2/21/2021 10:30:00 AM 0.07 32.126 0.94 8.16 2.76 16.34
2/21/2021 10:45:00 AM 0.1 32.18 0.94 8.24 2.9 16.51
2/21/2021 11:00:00 AM 0.15 32.27 0.92 8.3 3.64 16.61
2/21/2021 11:15:00 AM 0.26 32.468 0.896 8.35 2.84 16.68
2/21/2021 11:30:00 AM 0.38 32.684 0.882 8.41 2.76 16.74
2/21/2021 11:45:00 AM 0.45 32.81 0.873 8.47 2.79 16.82
2/21/2021 12:00:00 PM 0.48 32.864 0.863 8.52 2.83 16.84
2/21/2021 12:15:00 PM 0.53 32.954 0.861 8.57 2.85 16.86
2/21/2021 12:30:00 PM 0.62 33.116 0.858 8.61 2.83 16.83
2/21/2021 12:45:00 PM 0.76 33.368 0.856 8.64 2.78 16.81
2/21/2021 1:00:00 PM 0.92 33.656 0.859 8.67 2.74 16.8
2/21/2021 1:15:00 PM 1.09 33.962 0.865 8.7 2.81 16.81
2/21/2021 1:30:00 PM 1.21 34.178 0.874 8.74 2.92 16.82
2/21/2021 1:45:00 PM 1.35 34.43 0.886 8.78 2.72 16.85
2/21/2021 2:00:00 PM 1.46 34.628 0.897 8.81 2.78 16.89
2/21/2021 2:15:00 PM 1.58 34.844 0.9 8.84 2.75 16.89
2/21/2021 2:30:00 PM 1.66 34.988 0.904 8.88 2.71 16.9
2/21/2021 2:45:00 PM 1.72 35.096 0.901 8.9 2.69 16.87
2/21/2021 3:00:00 PM 1.77 35.186 0.904 8.93 2.7 16.87
2/21/2021 3:15:00 PM 1.78 35.204 0.906 8.95 2.75 16.86
2/21/2021 3:30:00 PM 1.76 35.168 0.909 8.96 2.7 16.84
2/21/2021 3:45:00 PM 1.7 35.06 0.912 8.99 2.66 16.82
2/21/2021 4:00:00 PM 1.63 34.934 0.915 9 2.75 16.79
2/21/2021 4:15:00 PM 1.59 34.862 0.923 9.02 2.79 16.76
2/21/2021 4:30:00 PM 1.5 34.7 0.921 9.03 2.74 16.69
2/21/2021 4:45:00 PM 1.43 34.574 0.921 9.04 2.71 16.62
2/21/2021 5:00:00 PM 1.36 34.448 0.916 9.04 2.84 16.52
2/21/2021 5:15:00 PM 1.28 34.304 0.909 9.04 2.74 16.38
2/21/2021 5:30:00 PM 1.2 34.16 0.902 9.04 2.84 16.22
2/21/2021 5:45:00 PM 1.14 34.052 0.892 9.03 2.78 16.02
2/21/2021 6:00:00 PM 1.07 33.926 0.879 9 2.75 15.8
2/21/2021 6:15:00 PM 1.02 33.836 0.867 8.98 2.78 15.57
2/21/2021 6:30:00 PM 0.97 33.746 0.855 8.95 2.73 15.37
2/21/2021 6:45:00 PM 0.93 33.674 0.839 8.92 2.75 15.18
2/21/2021 7:00:00 PM 0.92 33.656 0.824 8.86 2.79 15.01
2/21/2021 7:15:00 PM 0.9 33.62 0.811 8.84 2.83 14.87
2/21/2021 7:30:00 PM 0.9 33.62 0.799 8.8 2.73 14.75
2/21/2021 7:45:00 PM 0.88 33.584 0.788 8.75 2.84 14.65
2/21/2021 8:00:00 PM 0.87 33.566 0.782 8.71 2.76 14.55
2/21/2021 8:15:00 PM 0.84 33.512 0.778 8.66 2.84 14.48
2/21/2021 8:30:00 PM 0.81 33.458 0.774 8.6 2.79 14.4
2/21/2021 8:45:00 PM 0.78 33.404 0.775 8.54 2.82 14.34
2/21/2021 9:00:00 PM 0.75 33.35 0.776 8.47 2.83 14.27
2/21/2021 9:15:00 PM 0.71 33.278 0.778 8.41 2.75 14.21
2/21/2021 9:30:00 PM 0.67 33.206 0.78 8.34 2.72 14.16
2/21/2021 9:45:00 PM 0.64 33.152 0.783 8.26 2.74 14.1
2/21/2021 10:00:00 PM 0.61 33.098 0.786 8.2 2.73 14.05
2/21/2021 10:15:00 PM 0.58 33.044 0.791 8.14 2.85 14
2/21/2021 10:30:00 PM 0.57 33.026 0.796 8.09 2.82 13.95
2/21/2021 10:45:00 PM 0.56 33.008 0.8 8.04 2.75 13.91
2/21/2021 11:00:00 PM 0.56 33.008 0.809 8.01 2.86 13.85
2/21/2021 11:15:00 PM 0.56 33.008 0.813 7.97 2.81 13.81
2/21/2021 11:30:00 PM 0.57 33.026 0.821 7.95 2.78 13.76
2/21/2021 11:45:00 PM 0.58 33.044 0.827 7.92 2.75 13.72
2/22/2021 12:00:00 AM 0.59 33.062 0.833 7.9 2.74 13.68
2/22/2021 12:15:00 AM 0.61 33.098 0.842 7.88 2.84 13.63
2/22/2021 12:30:00 AM 0.61 33.098 0.85 7.86 2.75 13.59
2/22/2021 12:45:00 AM 0.63 33.134 0.855 7.85 2.71 13.56
2/22/2021 1:00:00 AM 0.64 33.152 0.862 7.83 2.87 13.52
2/22/2021 1:15:00 AM 0.66 33.188 0.867 7.82 2.76 13.48
2/22/2021 1:30:00 AM 0.68 33.224 0.871 7.81 2.82 13.45
2/22/2021 1:45:00 AM 0.69 33.242 0.874 7.79 2.81 13.41
2/22/2021 2:00:00 AM 0.72 33.296 0.875 7.8 2.73 13.37
2/22/2021 2:15:00 AM 0.75 33.35 0.873 7.78 2.74 13.34
2/22/2021 2:30:00 AM 0.78 33.404 0.874 7.78 2.8 13.31
2/22/2021 2:45:00 AM 0.8 33.44 0.871 7.77 2.84 13.28
2/22/2021 3:00:00 AM 0.83 33.494 0.867 7.77 2.77 13.25
2/22/2021 3:15:00 AM 0.86 33.548 0.862 7.76 2.81 13.23
2/22/2021 3:30:00 AM 0.87 33.566 0.856 7.75 2.8 13.21
2/22/2021 3:45:00 AM 0.89 33.602 0.851 7.75 2.7 13.2
2/22/2021 4:00:00 AM 0.9 33.62 0.846 7.75 2.79 13.18
2/22/2021 4:15:00 AM 0.91 33.638 0.841 7.73 2.99 13.17
2/22/2021 4:30:00 AM 0.92 33.656 0.837 7.73 2.8 13.16
2/22/2021 4:45:00 AM 0.92 33.656 0.832 7.73 2.82 13.15
2/22/2021 5:00:00 AM 0.93 33.674 0.828 7.72 2.77 13.14
2/22/2021 5:15:00 AM 0.94 33.692 0.824 7.71 2.74 13.13
2/22/2021 5:30:00 AM 0.95 33.71 0.821 7.71 2.75 13.12
2/22/2021 5:45:00 AM 0.96 33.728 0.816 7.71 2.75 13.11
2/22/2021 6:00:00 AM 0.96 33.728 0.81 7.7 2.68 13.11
2/22/2021 6:15:00 AM 0.89 33.602 0.804 7.7 2.72 13.11
2/22/2021 6:30:00 AM 0.75 33.35 0.797 7.7 2.74 13.12
2/22/2021 6:45:00 AM 0.65 33.17 0.792 7.69 2.72 13.14
2/22/2021 7:00:00 AM 0.56 33.008 0.784 7.69 2.75 13.15
2/22/2021 7:15:00 AM 0.48 32.864 0.778 7.69 2.85 13.18
2/22/2021 7:30:00 AM 0.39 32.702 0.773 7.69 2.8 13.23
2/22/2021 7:45:00 AM 0.28 32.504 0.768 7.7 2.67 13.28
2/22/2021 8:00:00 AM 0.2 32.36 0.763 7.71 2.66 13.35
2/22/2021 8:15:00 AM 0.12 32.216 0.759 7.71 2.67 13.44
2/22/2021 8:30:00 AM 0.05 32.09 0.753 7.74 2.66 13.56
2/22/2021 8:45:00 AM -0.01 31.982 0.748 7.76 2.64 13.7
2/22/2021 9:00:00 AM -0.02 31.964 0.744 7.77 2.7 13.87
2/22/2021 9:15:00 AM -0.01 31.982 0.74 7.8 2.68 14
2/22/2021 9:30:00 AM -0.02 31.964 0.735 7.83 2.64 14.17
2/22/2021 9:45:00 AM -0.04 31.928 0.73 7.86 2.84 14.35
2/22/2021 10:00:00 AM -0.04 31.928 0.727 7.89 2.81 14.51
2/22/2021 10:15:00 AM -0.04 31.928 0.725 7.92 2.85 14.69
2/22/2021 10:30:00 AM -0.03 31.946 0.722 7.96 2.67 14.86
2/22/2021 10:45:00 AM -0.01 31.982 0.718 8.01 2.72 15.04
2/22/2021 11:00:00 AM 0.02 32.036 0.714 8.05 2.67 15.19
2/22/2021 11:15:00 AM 0.05 32.09 0.71 8.1 2.65 15.35
2/22/2021 11:30:00 AM 0.09 32.162 0.707 8.16 2.68 15.5
2/22/2021 11:45:00 AM 0.13 32.234 0.703 8.21 2.65 15.64
2/22/2021 12:00:00 PM 0.16 32.288 0.699 8.26 2.66 15.72
2/22/2021 12:15:00 PM 0.16 32.288 0.695 8.3 2.71 15.77
2/22/2021 12:30:00 PM 0.17 32.306 0.692 8.34 2.69 15.83
2/22/2021 12:45:00 PM 0.2 32.36 0.689 8.38 2.7 15.9
2/22/2021 1:00:00 PM 0.21 32.378 0.685 8.42 2.68 15.92
2/22/2021 1:15:00 PM 0.23 32.414 0.683 8.45 2.7 15.94
2/22/2021 1:30:00 PM 0.25 32.45 0.682 8.48 2.76 15.98
2/22/2021 1:45:00 PM 0.24 32.432 0.681 8.51 2.72 16.03
2/22/2021 2:00:00 PM 0.21 32.378 0.68 8.54 2.72 16.05
2/22/2021 2:15:00 PM 0.23 32.414 0.677 8.57 2.67 16.09
2/22/2021 2:30:00 PM 0.29 32.522 0.677 8.61 2.71 16.18
2/22/2021 2:45:00 PM 0.35 32.63 0.676 8.65 2.74 16.26
2/22/2021 3:00:00 PM 0.41 32.738 0.676 8.69 2.64 16.32
2/22/2021 3:15:00 PM 0.46 32.828 0.677 8.73 2.64 16.33
2/22/2021 3:30:00 PM 0.51 32.918 0.679 8.76 2.74 16.37
2/22/2021 3:45:00 PM 0.55 32.99 0.681 8.79 2.71 16.34
2/22/2021 4:00:00 PM 0.62 33.116 0.684 8.81 2.69 16.35
2/22/2021 4:15:00 PM 0.66 33.188 0.687 8.84 2.77 16.33
2/22/2021 4:30:00 PM 0.69 33.242 0.687 8.84 2.71 16.2
2/22/2021 4:45:00 PM 0.72 33.296 0.687 8.84 2.67 16.06
2/22/2021 5:00:00 PM 0.77 33.386 0.687 8.85 3.15 16.01
2/22/2021 5:15:00 PM 0.8 33.44 0.684 8.86 2.65 15.94
2/22/2021 5:30:00 PM 0.81 33.458 0.678 8.85 2.69 15.82
2/22/2021 5:45:00 PM 0.82 33.476 0.675 8.85 2.67 15.64
2/22/2021 6:00:00 PM 0.83 33.494 0.673 8.82 2.68 15.4
2/22/2021 6:15:00 PM 0.85 33.53 0.67 8.77 2.67 15.16
2/22/2021 6:30:00 PM 0.87 33.566 0.669 8.73 2.65 14.95
2/22/2021 6:45:00 PM 0.88 33.584 0.667 8.69 2.7 14.77
2/22/2021 7:00:00 PM 0.9 33.62 0.666 8.63 2.71 14.61
2/22/2021 7:15:00 PM 0.92 33.656 0.668 8.6 2.87 14.49
2/22/2021 7:30:00 PM 0.93 33.674 0.67 8.53 2.71 14.36
2/22/2021 7:45:00 PM 0.94 33.692 0.673 8.5 2.73 14.26
2/22/2021 8:00:00 PM 0.96 33.728 0.675 8.45 2.74 14.18
2/22/2021 8:15:00 PM 0.97 33.746 0.676 8.4 2.73 14.09
2/22/2021 8:30:00 PM 0.98 33.764 0.675 8.36 2.76 14.02
2/22/2021 8:45:00 PM 1 33.8 0.674 8.31 2.68 13.94
2/22/2021 9:00:00 PM 1 33.8 0.672 8.26 2.68 13.87
2/22/2021 9:15:00 PM 1.01 33.818 0.671 8.22 2.67 13.79
2/22/2021 9:30:00 PM 1.02 33.836 0.671 8.17 2.63 13.72
2/22/2021 9:45:00 PM 1.02 33.836 0.67 8.12 2.66 13.66
2/22/2021 10:00:00 PM 1.03 33.854 0.667 8.06 2.68 13.6
2/22/2021 10:15:00 PM 1.04 33.872 0.667 8.02 2.69 13.53
2/22/2021 10:30:00 PM 1.04 33.872 0.666 7.99 2.64 13.49
2/22/2021 10:45:00 PM 1.04 33.872 0.665 7.94 2.73 13.45
2/22/2021 11:00:00 PM 1.04 33.872 0.663 7.92 2.69 13.41
2/22/2021 11:15:00 PM 1.05 33.89 0.663 7.9 2.7 13.37
2/22/2021 11:30:00 PM 1.04 33.872 0.66 7.87 2.75 13.34
2/22/2021 11:45:00 PM 1.03 33.854 0.659 7.85 2.71 13.31
2/23/2021 12:00:00 AM 1.02 33.836 0.656 7.84 2.65 13.29
2/23/2021 12:15:00 AM 1.01 33.818 0.653 7.81 2.8 13.27
2/23/2021 12:30:00 AM 1.01 33.818 0.65 7.8 2.64 13.25
2/23/2021 12:45:00 AM 1.01 33.818 0.649 7.79 2.78 13.24
2/23/2021 1:00:00 AM 1.01 33.818 0.649 7.79 2.64 13.22
2/23/2021 1:15:00 AM 1.01 33.818 0.65 7.78 2.69 13.21
2/23/2021 1:30:00 AM 1.02 33.836 0.651 7.76 2.67 13.19
2/23/2021 1:45:00 AM 1.01 33.818 0.653 7.75 2.68 13.18
2/23/2021 2:00:00 AM 1.01 33.818 0.655 7.74 2.66 13.17
2/23/2021 2:15:00 AM 1 33.8 0.657 7.75 2.65 13.15
2/23/2021 2:30:00 AM 0.99 33.782 0.661 7.74 2.62 13.14
2/23/2021 2:45:00 AM 0.98 33.764 0.664 7.73 2.67 13.12
2/23/2021 3:00:00 AM 0.97 33.746 0.665 7.72 2.61 13.11
2/23/2021 3:15:00 AM 0.96 33.728 0.666 7.71 2.66 13.1
2/23/2021 3:30:00 AM 0.94 33.692 0.668 7.72 2.69 13.1
2/23/2021 3:45:00 AM 0.93 33.674 0.669 7.71 2.6 13.09
2/23/2021 4:00:00 AM 0.92 33.656 0.671 7.71 2.63 13.08
2/23/2021 4:15:00 AM 0.9 33.62 0.673 7.71 2.62 13.08
2/23/2021 4:30:00 AM 0.88 33.584 0.672 7.69 2.62 13.07
2/23/2021 4:45:00 AM 0.86 33.548 0.673 7.69 2.65 13.07
2/23/2021 5:00:00 AM 0.84 33.512 0.674 7.7 2.63 13.05
2/23/2021 5:15:00 AM 0.82 33.476 0.673 7.7 2.62 13.05
2/23/2021 5:30:00 AM 0.81 33.458 0.672 7.69 2.59 13.05
2/23/2021 5:45:00 AM 0.79 33.422 0.672 7.68 2.64 13.05
2/23/2021 6:00:00 AM 0.77 33.386 0.672 7.69 2.62 13.05
2/23/2021 6:15:00 AM 0.75 33.35 0.672 7.67 2.64 13.05
2/23/2021 6:30:00 AM 0.74 33.332 0.673 7.68 2.61 13.06
2/23/2021 6:45:00 AM 0.72 33.296 0.672 7.68 2.62 13.06
2/23/2021 7:00:00 AM 0.72 33.296 0.676 7.68 2.61 13.07
2/23/2021 7:15:00 AM 0.72 33.296 0.676 7.69 2.84 13.1
2/23/2021 7:30:00 AM 0.75 33.35 0.677 7.69 2.59 13.21
2/23/2021 7:45:00 AM 0.79 33.422 0.679 7.72 2.65 13.37
2/23/2021 8:00:00 AM 0.83 33.494 0.682 7.74 2.53 13.59
2/23/2021 8:15:00 AM 0.87 33.566 0.683 7.79 2.61 13.83
2/23/2021 8:30:00 AM 0.91 33.638 0.683 7.82 2.67 14.02
2/23/2021 8:45:00 AM 0.96 33.728 0.684 7.87 2.58 14.24
2/23/2021 9:00:00 AM 0.99 33.782 0.686 7.91 2.66 14.35
2/23/2021 9:15:00 AM 1.02 33.836 0.689 7.94 2.62 14.47
2/23/2021 9:30:00 AM 1.06 33.908 0.691 7.98 2.64 14.58
2/23/2021 9:45:00 AM 1.11 33.998 0.693 8.01 2.57 14.73
2/23/2021 10:00:00 AM 1.18 34.124 0.696 8.08 2.61 14.9
2/23/2021 10:15:00 AM 1.28 34.304 0.696 8.12 2.66 15.06
2/23/2021 10:30:00 AM 1.41 34.538 0.701 8.21 2.57 15.25
2/23/2021 10:45:00 AM 1.54 34.772 0.703 8.28 2.63 15.42
2/23/2021 11:00:00 AM 1.71 35.078 0.705 8.35 2.65 15.58
2/23/2021 11:15:00 AM 1.87 35.366 0.704 8.42 2.67 15.72
2/23/2021 11:30:00 AM 1.99 35.582 0.703 8.5 2.59 15.85
2/23/2021 11:45:00 AM 2.18 35.924 0.704 8.55 2.68 15.98
2/23/2021 12:00:00 PM 2.42 36.356 0.701 8.63 2.65 16.08
2/23/2021 12:15:00 PM 2.56 36.608 0.703 8.67 2.52 16.14
2/23/2021 12:30:00 PM 2.78 37.004 0.702 8.73 2.62 16.18
2/23/2021 12:45:00 PM 2.98 37.364 0.701 8.77 2.62 16.24
2/23/2021 1:00:00 PM 3.02 37.436 0.699 8.83 2.65 16.28
2/23/2021 1:15:00 PM 3.04 37.472 0.698 8.85 2.59 16.3
2/23/2021 1:30:00 PM 3.05 37.49 0.696 8.91 2.59 16.31
2/23/2021 1:45:00 PM 3.06 37.508 0.691 8.92 2.7 16.31
2/23/2021 2:00:00 PM 3.07 37.526 0.689 8.96 2.63 16.3
2/23/2021 2:15:00 PM 3.08 37.544 0.683 8.99 2.71 16.31
2/23/2021 2:30:00 PM 3.07 37.526 0.676 9.02 2.66 16.28
2/23/2021 2:45:00 PM 3.03 37.454 0.672 9.02 2.79 16.24
2/23/2021 3:00:00 PM 3 37.4 0.667 9.05 2.81 16.19
2/23/2021 3:15:00 PM 3.01 37.418 0.666 9.06 2.84 16.16
2/23/2021 3:30:00 PM 3.02 37.436 0.665 9.08 2.96 16.15
2/23/2021 3:45:00 PM 3.02 37.436 0.663 9.1 2.98 16.09
2/23/2021 4:00:00 PM 3.03 37.454 0.663 9.11 2.97 16.03
2/23/2021 4:15:00 PM 2.99 37.382 0.662 9.12 3.15 15.89
2/23/2021 4:30:00 PM 2.95 37.31 0.665 9.1 3.28 15.69
2/23/2021 4:45:00 PM 2.92 37.256 0.667 9.09 3.35 15.53
2/23/2021 5:00:00 PM 2.89 37.202 0.67 9.08 3.58 15.4
2/23/2021 5:15:00 PM 2.85 37.13 0.674 9.08 3.76 15.26
2/23/2021 5:30:00 PM 2.82 37.076 0.681 9.05 3.89 15.08
2/23/2021 5:45:00 PM 2.78 37.004 0.685 9.04 3.91 14.87
2/23/2021 6:00:00 PM 2.75 36.95 0.69 9 4.18 14.64
2/23/2021 6:15:00 PM 2.7 36.86 0.694 8.96 4.26 14.41
2/23/2021 6:30:00 PM 2.67 36.806 0.702 8.91 4.4 14.23
2/23/2021 6:45:00 PM 2.65 36.77 0.71 8.87 4.35 14.07
2/23/2021 7:00:00 PM 2.62 36.716 0.721 8.83 4.55 13.94
2/23/2021 7:15:00 PM 2.59 36.662 0.733 8.79 4.57 13.84
2/23/2021 7:30:00 PM 2.57 36.626 0.747 8.73 4.54 13.75
2/23/2021 7:45:00 PM 2.56 36.608 0.764 8.7 4.95 13.68
2/23/2021 8:00:00 PM 2.53 36.554 0.786 8.65 4.48 13.61
2/23/2021 8:15:00 PM 2.47 36.446 0.802 8.58 4.77 13.53
2/23/2021 8:30:00 PM 2.43 36.374 0.829 8.5 4.74 13.45
2/23/2021 8:45:00 PM 2.35 36.23 0.854 8.4 5.05 13.38
2/23/2021 9:00:00 PM 2.29 36.122 0.88 8.3 4.74 13.31
2/23/2021 9:15:00 PM 2.26 36.068 0.91 8.2 4.67 13.24
2/23/2021 9:30:00 PM 2.24 36.032 0.94 8.11 4.72 13.17
2/23/2021 9:45:00 PM 2.24 36.032 0.965 8.04 4.46 13.09
2/23/2021 10:00:00 PM 2.26 36.068 0.992 7.98 4.66 13.03
2/23/2021 10:15:00 PM 2.27 36.086 1.004 7.94 4.77 12.97
2/23/2021 10:30:00 PM 2.3 36.14 1.014 7.9 4.72 12.92
2/23/2021 10:45:00 PM 2.32 36.176 1.021 7.87 4.53 12.87
2/23/2021 11:00:00 PM 2.34 36.212 1.026 7.85 4.81 12.83
2/23/2021 11:15:00 PM 2.36 36.248 1.027 7.83 4.67 12.79
2/23/2021 11:30:00 PM 2.38 36.284 1.033 7.79 4.59 12.75
2/23/2021 11:45:00 PM 2.39 36.302 1.044 7.78 4.48 12.71
2/24/2021 12:00:00 AM 2.39 36.302 1.054 7.76 4.54 12.69
2/24/2021 12:15:00 AM 2.39 36.302 1.072 7.74 4.63 12.67
2/24/2021 12:30:00 AM 2.39 36.302 1.092 7.73 4.67 12.65
2/24/2021 12:45:00 AM 2.38 36.284 1.113 7.71 4.53 12.62
2/24/2021 1:00:00 AM 2.35 36.23 1.127 7.7 4.66 12.61
2/24/2021 1:15:00 AM 2.31 36.158 1.144 7.69 4.45 12.59
2/24/2021 1:30:00 AM 2.33 36.194 1.166 7.67 4.58 12.56
2/24/2021 1:45:00 AM 2.32 36.176 1.186 7.66 4.69 12.54
2/24/2021 2:00:00 AM 2.31 36.158 1.197 7.65 4.68 12.52
2/24/2021 2:15:00 AM 2.28 36.104 1.202 7.64 4.58 12.52
2/24/2021 2:30:00 AM 2.25 36.05 1.212 7.62 4.56 12.52
2/24/2021 2:45:00 AM 2.22 35.996 1.211 7.62 4.48 12.53
2/24/2021 3:00:00 AM 2.18 35.924 1.212 7.61 4.57 12.54
2/24/2021 3:15:00 AM 2.14 35.852 1.208 7.61 4.51 12.54
2/24/2021 3:30:00 AM 2.09 35.762 1.2 7.6 4.4 12.55
2/24/2021 3:45:00 AM 2.05 35.69 1.196 7.6 4.47 12.56
2/24/2021 4:00:00 AM 2.02 35.636 1.194 7.59 4.5 12.56
2/24/2021 4:15:00 AM 1.98 35.564 1.189 7.58 4.45 12.57
2/24/2021 4:30:00 AM 1.95 35.51 1.191 7.58 4.58 12.56
2/24/2021 4:45:00 AM 1.9 35.42 1.191 7.57 4.47 12.58
2/24/2021 5:00:00 AM 1.85 35.33 1.182 7.58 4.53 12.59
2/24/2021 5:15:00 AM 1.8 35.24 1.185 7.55 4.68 12.61
2/24/2021 5:30:00 AM 1.75 35.15 1.181 7.56 4.52 12.64
2/24/2021 5:45:00 AM 1.69 35.042 1.176 7.56 4.34 12.66
2/24/2021 6:00:00 AM 1.64 34.952 1.172 7.55 4.31 12.68
2/24/2021 6:15:00 AM 1.59 34.862 1.167 7.55 4.38 12.7
2/24/2021 6:30:00 AM 1.54 34.772 1.163 7.55 4.25 12.72
2/24/2021 6:45:00 AM 1.48 34.664 1.158 7.55 4.4 12.74
2/24/2021 7:00:00 AM 1.44 34.592 1.152 7.55 4.08 12.77
2/24/2021 7:15:00 AM 1.4 34.52 1.143 7.56 4.32 12.84
2/24/2021 7:30:00 AM 1.38 34.484 1.142 7.56 4.24 12.94
2/24/2021 7:45:00 AM 1.34 34.412 1.134 7.58 4.26 13.07
2/24/2021 8:00:00 AM 1.31 34.358 1.122 7.6 4.3 13.22
2/24/2021 8:15:00 AM 1.3 34.34 1.112 7.63 4.35 13.39
2/24/2021 8:30:00 AM 1.33 34.394 1.107 7.65 4.31 13.62
2/24/2021 8:45:00 AM 1.36 34.448 1.098 7.69 4.24 13.85
2/24/2021 9:00:00 AM 1.42 34.556 1.088 7.72 4.27 14.06
2/24/2021 9:15:00 AM 1.51 34.718 1.084 7.76 4.18 14.25
2/24/2021 9:30:00 AM 1.6 34.88 1.072 7.8 4.27 14.45
2/24/2021 9:45:00 AM 1.75 35.15 1.062 7.86 4.11 14.65
2/24/2021 10:00:00 AM 1.94 35.492 1.061 7.91 4.19 14.83
2/24/2021 10:15:00 AM 2.1 35.78 1.059 7.98 4.13 14.98
2/24/2021 10:30:00 AM 2.27 36.086 1.052 8.04 4.05 15.09
2/24/2021 10:45:00 AM 2.44 36.392 1.045 8.1 3.86 15.2
2/24/2021 11:00:00 AM 2.6 36.68 1.039 8.15 3.9 15.29
2/24/2021 11:15:00 AM 2.76 36.968 1.032 8.23 3.8 15.37
2/24/2021 11:30:00 AM 2.92 37.256 1.019 8.28 3.84 15.43
2/24/2021 11:45:00 AM 3.06 37.508 1.011 8.34 3.77 15.48
2/24/2021 12:00:00 PM 3.21 37.778 1.006 8.41 3.81 15.56
2/24/2021 12:15:00 PM 3.34 38.012 1.002 8.47 3.93 15.57
2/24/2021 12:30:00 PM 3.49 38.282 0.992 8.51 3.89 15.6
2/24/2021 12:45:00 PM 3.65 38.57 0.983 8.57 3.97 15.63
2/24/2021 1:00:00 PM 3.81 38.858 0.977 8.62 4 15.63
2/24/2021 1:15:00 PM 3.97 39.146 0.969 8.65 3.95 15.64
2/24/2021 1:30:00 PM 4.12 39.416 0.952 8.71 3.94 15.62
2/24/2021 1:45:00 PM 4.28 39.704 0.935 8.74 3.98 15.58
2/24/2021 2:00:00 PM 4.41 39.938 0.916 8.75 4.16 15.53
2/24/2021 2:15:00 PM 4.51 40.118 0.904 8.8 4.07 15.44
2/24/2021 2:30:00 PM 4.55 40.19 0.88 8.81 4.39 15.35
2/24/2021 2:45:00 PM 4.5 40.1 0.858 8.8 4.89 15.26
2/24/2021 3:00:00 PM 4.43 39.974 0.834 8.83 6.05 15.19
2/24/2021 3:15:00 PM 4.32 39.776 0.812 8.81 6.8 15.09
2/24/2021 3:30:00 PM 4.14 39.452 0.795 8.81 8.59 14.95
2/24/2021 3:45:00 PM 3.99 39.182 0.777 8.79 11.3 14.82
2/24/2021 4:00:00 PM 3.85 38.93 0.763 8.75 13.95 14.67
2/24/2021 4:15:00 PM 3.69 38.642 0.743 8.69 19.5 14.52
2/24/2021 4:30:00 PM 3.52 38.336 0.725 8.64 21.47 14.34
2/24/2021 4:45:00 PM 3.45 38.21 0.717 8.56 23.34 14.15
2/24/2021 5:00:00 PM 3.4 38.12 0.71 8.48 23.07 13.96
2/24/2021 5:15:00 PM 3.4 38.12 0.713 8.41 23.25 13.82
2/24/2021 5:30:00 PM 3.39 38.102 0.727 8.35 22.42 13.69
2/24/2021 5:45:00 PM 3.36 38.048 0.742 8.29 23.3 13.6
2/24/2021 6:00:00 PM 3.32 37.976 0.76 8.24 21.03 13.51
2/24/2021 6:15:00 PM 3.22 37.796 0.76 8.14 21.94 13.43
2/24/2021 6:30:00 PM 3.12 37.616 0.756 8.08 24.07 13.35
2/24/2021 6:45:00 PM 3.05 37.49 0.752 7.98 22.14 13.29
2/24/2021 7:00:00 PM 3 37.4 0.746 7.87 39.13 13.22
2/24/2021 7:15:00 PM 2.97 37.346 0.751 7.81 23.26 13.14
2/24/2021 7:30:00 PM 2.93 37.274 0.748 7.75 22.54 13.06
2/24/2021 7:45:00 PM 2.92 37.256 0.753 7.71 26.3 12.99
2/24/2021 8:00:00 PM 2.91 37.238 0.749 7.65 27.03 12.92
2/24/2021 8:15:00 PM 2.83 37.094 0.724 7.6 35.54 12.89
2/24/2021 8:30:00 PM 2.75 36.95 0.715 7.54 32.88 12.87
2/24/2021 8:45:00 PM 2.68 36.824 0.717 7.51 47.01 12.87
2/24/2021 9:00:00 PM 2.59 36.662 0.723 7.49 54.34 12.87
2/24/2021 9:15:00 PM 2.53 36.554 0.735 7.47 83.99 12.87
2/24/2021 9:30:00 PM 2.5 36.5 0.746 7.43 56.7 12.84
2/24/2021 9:45:00 PM 2.49 36.482 0.75 7.42 54.22 12.81
2/24/2021 10:00:00 PM 2.5 36.5 0.746 7.39 49.23 12.76
2/24/2021 10:15:00 PM 2.51 36.518 0.739 7.38 45.54 12.72
2/24/2021 10:30:00 PM 2.5 36.5 0.732 7.37 45.1 12.69
2/24/2021 10:45:00 PM 2.51 36.518 0.73 7.4 48.2 12.66
2/24/2021 11:00:00 PM 2.51 36.518 0.721 7.38 47.53 12.64
2/24/2021 11:15:00 PM 2.51 36.518 0.732 7.35 56.11 12.61
2/24/2021 11:30:00 PM 2.52 36.536 0.745 7.34 40.61 12.51
2/24/2021 11:45:00 PM 2.48 36.464 0.746 7.32 63.75 12.49
2/25/2021 12:00:00 AM 2.4 36.32 0.736 7.32 51.89 12.54
2/25/2021 12:15:00 AM 2.33 36.194 0.73 7.3 54.55 12.54
2/25/2021 12:30:00 AM 2.29 36.122 0.724 7.29 54.01 12.51
2/25/2021 12:45:00 AM 2.26 36.068 0.722 7.31 57.16 12.53
2/25/2021 1:00:00 AM 2.22 35.996 0.722 7.31 48.62 12.6
2/25/2021 1:15:00 AM 2.18 35.924 0.716 7.28 59.13 12.66
2/25/2021 1:30:00 AM 2.14 35.852 0.695 7.34 67.97 12.73
2/25/2021 1:45:00 AM 2.1 35.78 0.719 7.31 51.05 12.76
2/25/2021 2:00:00 AM 2.08 35.744 0.762 7.33 58.75 12.73
2/25/2021 2:15:00 AM 2.09 35.762 0.78 7.31 59.36 12.7
2/25/2021 2:30:00 AM 2.1 35.78 0.771 7.31 45.74 12.7
2/25/2021 2:45:00 AM 2.1 35.78 0.744 7.35 51.37 12.74
2/25/2021 3:00:00 AM 2.09 35.762 0.708 7.32 45.29 12.8
2/25/2021 3:15:00 AM 2.08 35.744 0.689 7.32 44.77 12.82
2/25/2021 3:30:00 AM 2.08 35.744 0.665 7.36 39.85 12.82
2/25/2021 3:45:00 AM 2.09 35.762 0.655 7.31 41.28 12.82
2/25/2021 4:00:00 AM 2.11 35.798 0.646 7.34 44.72 12.82
2/25/2021 4:15:00 AM 2.1 35.78 0.638 7.35 33.53 12.85
2/25/2021 4:30:00 AM 2.09 35.762 0.625 7.35 35.04 12.9
2/25/2021 4:45:00 AM 2.07 35.726 0.619 7.32 25.91 12.94
2/25/2021 5:00:00 AM 2.05 35.69 0.616 7.34 31.21 12.96
2/25/2021 5:15:00 AM 2.04 35.672 0.608 7.37 28.58 12.97
2/25/2021 5:30:00 AM 2.04 35.672 0.609 7.36 32.32 12.95
2/25/2021 5:45:00 AM 2.05 35.69 0.603 7.34 39.55 12.94
2/25/2021 6:00:00 AM 2.06 35.708 0.603 7.37 25.11 12.94
2/25/2021 6:15:00 AM 2.04 35.672 0.595 7.36 19.17 12.97
2/25/2021 6:30:00 AM 2.01 35.618 0.586 7.36 22.12 13
2/25/2021 6:45:00 AM 1.98 35.564 0.576 7.35 22.41 13.03
2/25/2021 7:00:00 AM 1.95 35.51 0.567 7.38 21.54 13.06
2/25/2021 7:15:00 AM 1.95 35.51 0.564 7.37 21.38 13.08
2/25/2021 7:30:00 AM 1.95 35.51 0.562 7.37 16.41 13.1
2/25/2021 7:45:00 AM 1.96 35.528 0.561 7.38 19.98 13.11
2/25/2021 8:00:00 AM 1.97 35.546 0.563 7.4 19.48 13.14
2/25/2021 8:15:00 AM 2 35.6 0.558 7.39 19.62 13.2
2/25/2021 8:30:00 AM 2.04 35.672 0.551 7.42 19.74 13.29
2/25/2021 8:45:00 AM 2.1 35.78 0.544 7.44 18.84 13.38
2/25/2021 9:00:00 AM 2.16 35.888 0.536 7.45 17.31 13.46
2/25/2021 9:15:00 AM 2.23 36.014 0.535 7.49 16.96 13.53
2/25/2021 9:30:00 AM 2.3 36.14 0.529 7.48 15.84 13.59
2/25/2021 9:45:00 AM 2.38 36.284 0.534 7.52 16.11 13.62
2/25/2021 10:00:00 AM 2.47 36.446 0.531 7.53 14.48 13.64
2/25/2021 10:15:00 AM 2.58 36.644 0.537 7.53 15.16 13.67
2/25/2021 10:30:00 AM 2.7 36.86 0.534 7.57 14.49 13.71
2/25/2021 10:45:00 AM 2.81 37.058 0.53 7.57 14.85 13.76
2/25/2021 11:00:00 AM 2.92 37.256 0.521 7.6 14.71 13.8
2/25/2021 11:15:00 AM 3.03 37.454 0.516 7.62 13.7 13.83
2/25/2021 11:30:00 AM 3.16 37.688 0.512 7.64 13.51 13.86
2/25/2021 11:45:00 AM 3.28 37.904 0.51 7.66 13.28 13.88
2/25/2021 12:00:00 PM 3.43 38.174 0.508 7.69 13.01 13.87
2/25/2021 12:15:00 PM 3.58 38.444 0.51 7.68 13.68 13.86
2/25/2021 12:30:00 PM 3.74 38.732 0.506 7.73 13.09 13.84
2/25/2021 12:45:00 PM 3.9 39.02 0.503 7.7 13.98 13.83
2/25/2021 1:00:00 PM 4.05 39.29 0.498 7.75 13.49 13.8
2/25/2021 1:15:00 PM 4.17 39.506 0.486 7.76 13.78 13.8
2/25/2021 1:30:00 PM 4.27 39.686 0.481 7.76 13.65 13.79
2/25/2021 1:45:00 PM 4.33 39.794 0.477 7.8 13.96 13.8
2/25/2021 2:00:00 PM 4.39 39.902 0.471 7.77 13.85 13.77
2/25/2021 2:15:00 PM 4.43 39.974 0.473 7.79 14 13.73
2/25/2021 2:30:00 PM 4.47 40.046 0.462 7.76 15.41 13.67
2/25/2021 2:45:00 PM 4.48 40.064 0.46 7.75 14.85 13.61
2/25/2021 3:00:00 PM 4.47 40.046 0.456 7.74 17.33 13.58
2/25/2021 3:15:00 PM 4.42 39.956 0.455 7.75 17.29 13.56
2/25/2021 3:30:00 PM 4.37 39.866 0.445 7.72 17.64 13.54
2/25/2021 3:45:00 PM 4.31 39.758 0.443 7.71 18.18 13.51
2/25/2021 4:00:00 PM 4.26 39.668 0.448 7.71 18.8 13.48
2/25/2021 4:15:00 PM 4.21 39.578 0.453 7.7 18.41 13.44
2/25/2021 4:30:00 PM 4.15 39.47 0.455 7.65 17.65 13.37
2/25/2021 4:45:00 PM 4.11 39.398 0.457 7.66 17.36 13.3
2/25/2021 5:00:00 PM 4.04 39.272 0.452 7.63 17.13 13.24
2/25/2021 5:15:00 PM 4 39.2 0.451 7.59 17.36 13.18
2/25/2021 5:30:00 PM 3.95 39.11 0.452 7.58 12.99 13.13
2/25/2021 5:45:00 PM 3.92 39.056 0.454 7.56 15.37 13.07
2/25/2021 6:00:00 PM 3.89 39.002 0.459 7.55 15.15 13
2/25/2021 6:15:00 PM 3.87 38.966 0.464 7.5 15.46 12.91
2/25/2021 6:30:00 PM 3.85 38.93 0.468 7.51 14.98 12.82
2/25/2021 6:45:00 PM 3.82 38.876 0.471 7.46 14.11 12.76
2/25/2021 7:00:00 PM 3.79 38.822 0.471 7.47 13.65 12.71
2/25/2021 7:15:00 PM 3.72 38.696 0.465 7.45 14.21 12.7
2/25/2021 7:30:00 PM 3.65 38.57 0.462 7.43 14.52 12.69
2/25/2021 7:45:00 PM 3.57 38.426 0.457 7.43 14.69 12.68
2/25/2021 8:00:00 PM 3.51 38.318 0.457 7.41 14.85 12.66
2/25/2021 8:15:00 PM 3.44 38.192 0.456 7.4 14.61 12.68
2/25/2021 8:30:00 PM 3.38 38.084 0.456 7.39 14.78 12.65
2/25/2021 8:45:00 PM 3.31 37.958 0.459 7.39 14.34 12.63
2/25/2021 9:00:00 PM 3.26 37.868 0.463 7.38 13.88 12.63
2/25/2021 9:15:00 PM 3.19 37.742 0.459 7.38 13.96 12.64
2/25/2021 9:30:00 PM 3.12 37.616 0.454 7.38 13.95 12.67
2/25/2021 9:45:00 PM 3.05 37.49 0.449 7.37 13.57 12.7
2/25/2021 10:00:00 PM 2.97 37.346 0.444 7.35 13.88 12.73
2/25/2021 10:15:00 PM 2.91 37.238 0.442 7.36 12.96 12.75
2/25/2021 10:30:00 PM 2.85 37.13 0.442 7.35 13.06 12.77
2/25/2021 10:45:00 PM 2.8 37.04 0.441 7.36 12.95 12.79
2/25/2021 11:00:00 PM 2.74 36.932 0.441 7.34 12.39 12.81
2/25/2021 11:15:00 PM 2.71 36.878 0.448 7.34 12.97 12.8
2/25/2021 11:30:00 PM 2.67 36.806 0.451 7.36 12.09 12.81
2/25/2021 11:45:00 PM 2.64 36.752 0.452 7.35 12.61 12.81
2/26/2021 12:00:00 AM 2.6 36.68 0.447 7.37 11.58 12.83
2/26/2021 12:15:00 AM 2.56 36.608 0.443 7.33 12.04 12.86
2/26/2021 12:30:00 AM 2.53 36.554 0.444 7.36 14.47 12.89
2/26/2021 12:45:00 AM 2.48 36.464 0.433 7.34 10.32 12.92
2/26/2021 1:00:00 AM 2.45 36.41 0.434 7.37 10.11 12.94
2/26/2021 1:15:00 AM 2.42 36.356 0.434 7.38 10.14 12.95
2/26/2021 1:30:00 AM 2.39 36.302 0.433 7.37 9.82 12.97
2/26/2021 1:45:00 AM 2.37 36.266 0.434 7.35 10.02 12.98
2/26/2021 2:00:00 AM 2.35 36.23 0.439 7.36 10.15 12.97
2/26/2021 2:15:00 AM 2.33 36.194 0.445 7.36 10.2 12.97
2/26/2021 2:30:00 AM 2.3 36.14 0.44 7.36 9.51 12.98
2/26/2021 2:45:00 AM 2.27 36.086 0.439 7.38 9.27 13
2/26/2021 3:00:00 AM 2.23 36.014 0.44 7.38 9.6 13.02
2/26/2021 3:15:00 AM 2.19 35.942 0.438 7.38 9.32 13.05
2/26/2021 3:30:00 AM 2.14 35.852 0.437 7.38 8.99 13.07
2/26/2021 3:45:00 AM 2.1 35.78 0.435 7.35 8.73 13.09
2/26/2021 4:00:00 AM 2.06 35.708 0.432 7.37 8.49 13.11
2/26/2021 4:15:00 AM 2.02 35.636 0.431 7.39 8.8 13.13
2/26/2021 4:30:00 AM 1.98 35.564 0.43 7.39 8.51 13.15
2/26/2021 4:45:00 AM 1.94 35.492 0.429 7.39 8.44 13.17
2/26/2021 5:00:00 AM 1.9 35.42 0.431 7.39 8.51 13.18
2/26/2021 5:15:00 AM 1.87 35.366 0.431 7.37 8.24 13.2
2/26/2021 5:30:00 AM 1.83 35.294 0.432 7.37 7.7 13.21
2/26/2021 5:45:00 AM 1.79 35.222 0.433 7.38 8.05 13.22
2/26/2021 6:00:00 AM 1.76 35.168 0.434 7.4 8.15 13.23
2/26/2021 6:15:00 AM 1.74 35.132 0.439 7.38 9.75 13.21
2/26/2021 6:30:00 AM 1.72 35.096 0.443 7.4 7.76 13.22
2/26/2021 6:45:00 AM 1.69 35.042 0.442 7.4 7.7 13.24
2/26/2021 7:00:00 AM 1.66 34.988 0.437 7.37 7.17 13.27
2/26/2021 7:15:00 AM 1.62 34.916 0.435 7.4 7.18 13.33
2/26/2021 7:30:00 AM 1.58 34.844 0.431 7.39 7.34 13.4
2/26/2021 7:45:00 AM 1.55 34.79 0.429 7.42 7.22 13.47
2/26/2021 8:00:00 AM 1.53 34.754 0.429 7.41 7.22 13.55
2/26/2021 8:15:00 AM 1.54 34.772 0.428 7.44 6.95 13.63
2/26/2021 8:30:00 AM 1.57 34.826 0.426 7.47 6.94 13.73
2/26/2021 8:45:00 AM 1.62 34.916 0.43 7.48 6.87 13.81
2/26/2021 9:00:00 AM 1.7 35.06 0.428 7.48 6.9 13.9
2/26/2021 9:15:00 AM 1.8 35.24 0.432 7.52 6.74 13.97
2/26/2021 9:30:00 AM 1.92 35.456 0.435 7.56 6.85 14.04
2/26/2021 9:45:00 AM 2.04 35.672 0.433 7.57 6.39 14.1
2/26/2021 10:00:00 AM 2.18 35.924 0.431 7.62 6.51 14.16
2/26/2021 10:15:00 AM 2.29 36.122 0.427 7.62 6.05 14.22
2/26/2021 10:30:00 AM 2.39 36.302 0.425 7.66 6.2 14.29
2/26/2021 10:45:00 AM 2.49 36.482 0.422 7.7 6.13 14.34
2/26/2021 11:00:00 AM 2.61 36.698 0.419 7.73 6.01 14.4
2/26/2021 11:15:00 AM 2.72 36.896 0.421 7.77 6.31 14.43
2/26/2021 11:30:00 AM 2.83 37.094 0.417 7.81 6.14 14.47
2/26/2021 11:45:00 AM 2.94 37.292 0.418 7.85 5.95 14.48
2/26/2021 12:00:00 PM 3.06 37.508 0.421 7.88 6.16 14.49
2/26/2021 12:15:00 PM 3.19 37.742 0.423 7.9 6.27 14.5
2/26/2021 12:30:00 PM 3.36 38.048 0.423 7.95 6.05 14.51
2/26/2021 12:45:00 PM 3.5 38.3 0.419 7.96 5.98 14.5
2/26/2021 1:00:00 PM 3.62 38.516 0.416 8.02 5.86 14.51
2/26/2021 1:15:00 PM 3.73 38.714 0.415 8.05 5.84 14.5
2/26/2021 1:30:00 PM 3.83 38.894 0.407 8.08 6.17 14.48
2/26/2021 1:45:00 PM 3.9 39.02 0.408 8.09 6.21 14.47
2/26/2021 2:00:00 PM 3.97 39.146 0.406 8.12 6.15 14.46
2/26/2021 2:15:00 PM 4.05 39.29 0.403 8.17 5.92 14.43
2/26/2021 2:30:00 PM 4.11 39.398 0.403 8.15 6.35 14.41
2/26/2021 2:45:00 PM 4.16 39.488 0.404 8.2 6.32 14.41
2/26/2021 3:00:00 PM 4.21 39.578 0.404 8.2 6.43 14.33
2/26/2021 3:15:00 PM 4.23 39.614 0.407 8.21 6.02 14.29
2/26/2021 3:30:00 PM 4.25 39.65 0.402 8.2 5.99 14.22
2/26/2021 3:45:00 PM 4.25 39.65 0.402 8.18 6.37 14.15
2/26/2021 4:00:00 PM 4.25 39.65 0.399 8.13 6.4 14.07
2/26/2021 4:15:00 PM 4.22 39.596 0.397 8.11 6.64 14
2/26/2021 4:30:00 PM 4.2 39.56 0.397 8.07 6.41 13.9
2/26/2021 4:45:00 PM 4.17 39.506 0.393 8.02 6.55 13.82
2/26/2021 5:00:00 PM 4.13 39.434 0.393 7.99 6.41 13.74
2/26/2021 5:15:00 PM 4.1 39.38 0.397 7.95 6.07 13.64
2/26/2021 5:30:00 PM 4.07 39.326 0.394 7.89 6.15 13.53
2/26/2021 5:45:00 PM 4.06 39.308 0.394 7.85 6.09 13.41
2/26/2021 6:00:00 PM 4.05 39.29 0.394 7.8 6.22 13.29
2/26/2021 6:15:00 PM 4.03 39.254 0.388 7.72 5.99 13.17
2/26/2021 6:30:00 PM 4 39.2 0.384 7.69 6.09 13.08
2/26/2021 6:45:00 PM 3.97 39.146 0.379 7.67 6.29 13.01
2/26/2021 7:00:00 PM 3.94 39.092 0.377 7.66 6.01 12.94
2/26/2021 7:15:00 PM 3.92 39.056 0.376 7.61 6.19 12.89
2/26/2021 7:30:00 PM 3.88 38.984 0.377 7.62 6.67 12.85
2/26/2021 7:45:00 PM 3.83 38.894 0.381 7.57 6.51 12.81
2/26/2021 8:00:00 PM 3.81 38.858 0.39 7.58 5.97 12.76
2/26/2021 8:15:00 PM 3.79 38.822 0.396 7.53 6.3 12.72
2/26/2021 8:30:00 PM 3.78 38.804 0.404 7.54 6.26 12.67
2/26/2021 8:45:00 PM 3.78 38.804 0.408 7.52 6.11 12.63
2/26/2021 9:00:00 PM 3.78 38.804 0.412 7.53 6.07 12.61
2/26/2021 9:15:00 PM 3.78 38.804 0.41 7.52 5.98 12.59
2/26/2021 9:30:00 PM 3.77 38.786 0.412 7.49 5.83 12.57
2/26/2021 9:45:00 PM 3.77 38.786 0.41 7.5 6.25 12.56
2/26/2021 10:00:00 PM 3.76 38.768 0.409 7.49 6.13 12.55
2/26/2021 10:15:00 PM 3.75 38.75 0.408 7.5 6.22 12.54
2/26/2021 10:30:00 PM 3.73 38.714 0.409 7.47 6.26 12.52
2/26/2021 10:45:00 PM 3.73 38.714 0.415 7.49 5.92 12.5
2/26/2021 11:00:00 PM 3.72 38.696 0.412 7.46 6.02 12.48
2/26/2021 11:15:00 PM 3.7 38.66 0.41 7.48 5.93 12.48
2/26/2021 11:30:00 PM 3.68 38.624 0.409 7.47 5.94 12.48
2/26/2021 11:45:00 PM 3.67 38.606 0.408 7.44 5.71 12.48
2/27/2021 12:00:00 AM 3.63 38.534 0.402 7.47 5.89 12.48
2/27/2021 12:15:00 AM 3.61 38.498 0.4 7.44 5.72 12.48
2/27/2021 12:30:00 AM 3.58 38.444 0.398 7.46 5.83 12.49
2/27/2021 12:45:00 AM 3.55 38.39 0.394 7.44 5.95 12.49
2/27/2021 1:00:00 AM 3.5 38.3 0.394 7.46 5.95 12.5
2/27/2021 1:15:00 AM 3.47 38.246 0.389 7.46 5.74 12.51
2/27/2021 1:30:00 AM 3.42 38.156 0.389 7.42 5.53 12.52
2/27/2021 1:45:00 AM 3.39 38.102 0.384 7.44 5.59 12.53
2/27/2021 2:00:00 AM 3.38 38.084 0.384 7.44 5.89 12.53
2/27/2021 2:15:00 AM 3.36 38.048 0.384 7.44 5.93 12.54
2/27/2021 2:30:00 AM 3.34 38.012 0.383 7.45 5.73 12.54
2/27/2021 2:45:00 AM 3.32 37.976 0.378 7.45 5.74 12.55
2/27/2021 3:00:00 AM 3.29 37.922 0.376 7.42 5.66 12.57
2/27/2021 3:15:00 AM 3.26 37.868 0.373 7.43 6.06 12.58
2/27/2021 3:30:00 AM 3.24 37.832 0.373 7.45 5.7 12.59
2/27/2021 3:45:00 AM 3.22 37.796 0.373 7.45 5.64 12.6
2/27/2021 4:00:00 AM 3.21 37.778 0.372 7.45 5.76 12.6
2/27/2021 4:15:00 AM 3.19 37.742 0.373 7.45 5.62 12.6
2/27/2021 4:30:00 AM 3.19 37.742 0.375 7.45 5.72 12.59
2/27/2021 4:45:00 AM 3.19 37.742 0.378 7.45 5.6 12.58
2/27/2021 5:00:00 AM 3.18 37.724 0.377 7.45 5.63 12.58
2/27/2021 5:15:00 AM 3.17 37.706 0.374 7.45 5.69 12.59
2/27/2021 5:30:00 AM 3.16 37.688 0.373 7.4 5.62 12.6
2/27/2021 5:45:00 AM 3.15 37.67 0.371 7.44 5.61 12.6
2/27/2021 6:00:00 AM 3.13 37.634 0.371 7.43 5.51 12.61
2/27/2021 6:15:00 AM 3.12 37.616 0.37 7.44 5.46 12.62
2/27/2021 6:30:00 AM 3.11 37.598 0.368 7.45 5.58 12.63
2/27/2021 6:45:00 AM 3.1 37.58 0.368 7.4 5.58 12.63
2/27/2021 7:00:00 AM 3.09 37.562 0.368 7.45 5.52 12.64
2/27/2021 7:15:00 AM 3.09 37.562 0.37 7.45 5.43 12.65
2/27/2021 7:30:00 AM 3.1 37.58 0.371 7.43 5.39 12.66
2/27/2021 7:45:00 AM 3.1 37.58 0.372 7.43 5.52 12.68
2/27/2021 8:00:00 AM 3.11 37.598 0.374 7.47 5.24 12.7
2/27/2021 8:15:00 AM 3.11 37.598 0.372 7.43 5.42 12.74
2/27/2021 8:30:00 AM 3.12 37.616 0.369 7.48 5.2 12.82
2/27/2021 8:45:00 AM 3.13 37.634 0.368 7.5 5.12 12.89
2/27/2021 9:00:00 AM 3.14 37.652 0.37 7.52 5.26 12.94
2/27/2021 9:15:00 AM 3.15 37.67 0.372 7.51 5.44 12.96
2/27/2021 9:30:00 AM 3.18 37.724 0.375 7.51 5.3 13.01
2/27/2021 9:45:00 AM 3.21 37.778 0.374 7.56 5.44 13.11
2/27/2021 10:00:00 AM 3.24 37.832 0.372 7.56 5.06 13.25
2/27/2021 10:15:00 AM 3.25 37.85 0.372 7.59 5.09 13.31
2/27/2021 10:30:00 AM 3.27 37.886 0.371 7.62 5.03 13.37
2/27/2021 10:45:00 AM 3.29 37.922 0.373 7.62 5.06 13.41
2/27/2021 11:00:00 AM 3.31 37.958 0.371 7.66 5.11 13.45
2/27/2021 11:15:00 AM 3.34 38.012 0.37 7.65 5.02 13.51
2/27/2021 11:30:00 AM 3.38 38.084 0.37 7.72 5.15 13.62
2/27/2021 11:45:00 AM 3.46 38.228 0.369 7.73 5.5 13.74
2/27/2021 12:00:00 PM 3.54 38.372 0.37 7.81 5.14 13.86
2/27/2021 12:15:00 PM 3.63 38.534 0.368 7.84 5.01 13.96
2/27/2021 12:30:00 PM 3.71 38.678 0.368 7.9 4.95 13.99
2/27/2021 12:45:00 PM 3.76 38.768 0.373 7.94 5.04 14.02
2/27/2021 1:00:00 PM 3.8 38.84 0.376 7.94 5.14 14
2/27/2021 1:15:00 PM 3.87 38.966 0.375 7.99 4.96 14.03
2/27/2021 1:30:00 PM 3.95 39.11 0.375 7.98 5.16 14.08
2/27/2021 1:45:00 PM 4.02 39.236 0.372 8.05 5.22 14.13
2/27/2021 2:00:00 PM 4.08 39.344 0.372 8.09 5.15 14.14
2/27/2021 2:15:00 PM 4.13 39.434 0.371 8.1 5.44 14.11
2/27/2021 2:30:00 PM 4.18 39.524 0.372 8.1 5.72 14.05
2/27/2021 2:45:00 PM 4.22 39.596 0.375 8.04 5.78 13.98
2/27/2021 3:00:00 PM 4.26 39.668 0.369 8.04 5.9 13.92
2/27/2021 3:15:00 PM 4.3 39.74 0.365 8.04 6.01 13.86
2/27/2021 3:30:00 PM 4.33 39.794 0.36 8.03 6.34 13.8
2/27/2021 3:45:00 PM 4.35 39.83 0.358 7.96 6.52 13.73
2/27/2021 4:00:00 PM 4.37 39.866 0.356 7.95 6.67 13.63
2/27/2021 4:15:00 PM 4.39 39.902 0.356 7.92 7.22 13.54
2/27/2021 4:30:00 PM 4.4 39.92 0.353 7.86 8.13 13.45
2/27/2021 4:45:00 PM 4.39 39.902 0.348 7.84 8.28 13.4
2/27/2021 5:00:00 PM 4.37 39.866 0.343 7.79 9.12 13.34
2/27/2021 5:15:00 PM 4.33 39.794 0.338 7.76 9.16 13.25
2/27/2021 5:30:00 PM 4.26 39.668 0.332 7.71 10.3 13.14
2/27/2021 5:45:00 PM 4.18 39.524 0.329 7.65 10.38 13.03
2/27/2021 6:00:00 PM 4.1 39.38 0.332 7.61 10.75 12.94
2/27/2021 6:15:00 PM 4.04 39.272 0.333 7.6 10.2 12.87
2/27/2021 6:30:00 PM 3.98 39.164 0.333 7.54 9.85 12.82
2/27/2021 6:45:00 PM 3.94 39.092 0.343 7.56 9.59 12.79
2/27/2021 7:00:00 PM 3.89 39.002 0.347 7.52 9.3 12.76
2/27/2021 7:15:00 PM 3.87 38.966 0.354 7.54 9.76 12.72
2/27/2021 7:30:00 PM 3.86 38.948 0.36 7.5 9.43 12.68
2/27/2021 7:45:00 PM 3.85 38.93 0.364 7.5 9.12 12.63
2/27/2021 8:00:00 PM 3.84 38.912 0.366 7.49 9.17 12.61
2/27/2021 8:15:00 PM 3.84 38.912 0.365 7.48 8.72 12.58
2/27/2021 8:30:00 PM 3.82 38.876 0.362 7.49 9.27 12.56
2/27/2021 8:45:00 PM 3.8 38.84 0.362 7.48 9.06 12.55
2/27/2021 9:00:00 PM 3.81 38.858 0.364 7.47 9.35 12.52
2/27/2021 9:15:00 PM 3.8 38.84 0.367 7.47 9.25 12.5
2/27/2021 9:30:00 PM 3.8 38.84 0.371 7.46 9.36 12.46
2/27/2021 9:45:00 PM 3.8 38.84 0.373 7.43 9.57 12.44
2/27/2021 10:00:00 PM 3.77 38.786 0.37 7.42 9.43 12.44
2/27/2021 10:15:00 PM 3.76 38.768 0.368 7.44 10.15 12.44
2/27/2021 10:30:00 PM 3.73 38.714 0.366 7.43 10.14 12.45
2/27/2021 10:45:00 PM 3.71 38.678 0.365 7.42 10.02 12.45
2/27/2021 11:00:00 PM 3.67 38.606 0.361 7.43 9.56 12.47
2/27/2021 11:15:00 PM 3.64 38.552 0.36 7.42 10.04 12.47
2/27/2021 11:30:00 PM 3.61 38.498 0.36 7.39 9.88 12.48
2/27/2021 11:45:00 PM 3.58 38.444 0.362 7.4 10.1 12.48
2/28/2021 12:00:00 AM 3.56 38.408 0.364 7.41 9.37 12.46
2/28/2021 12:15:00 AM 3.54 38.372 0.366 7.39 9.35 12.47
2/28/2021 12:30:00 AM 3.5 38.3 0.365 7.38 9.1 12.49
2/28/2021 12:45:00 AM 3.46 38.228 0.366 7.4 9.41 12.51
2/28/2021 1:00:00 AM 3.42 38.156 0.365 7.39 9.47 12.54
2/28/2021 1:15:00 AM 3.39 38.102 0.364 7.38 9.2 12.56
2/28/2021 1:30:00 AM 3.35 38.03 0.362 7.39 8.66 12.58
2/28/2021 1:45:00 AM 3.32 37.976 0.363 7.38 8.79 12.59
2/28/2021 2:00:00 AM 3.3 37.94 0.364 7.38 8.84 12.6
2/28/2021 2:15:00 AM 3.28 37.904 0.366 7.38 8.55 12.6
2/28/2021 2:30:00 AM 3.25 37.85 0.364 7.39 8.81 12.61
2/28/2021 2:45:00 AM 3.24 37.832 0.367 7.36 8.54 12.6
2/28/2021 3:00:00 AM 3.23 37.814 0.37 7.39 8.25 12.59
2/28/2021 3:15:00 AM 3.21 37.778 0.371 7.38 8.25 12.58
2/28/2021 3:30:00 AM 3.19 37.742 0.369 7.39 8.52 12.58
2/28/2021 3:45:00 AM 3.16 37.688 0.365 7.37 8.14 12.61
2/28/2021 4:00:00 AM 3.13 37.634 0.361 7.38 8.12 12.63
2/28/2021 4:15:00 AM 3.1 37.58 0.356 7.38 7.98 12.65
2/28/2021 4:30:00 AM 3.08 37.544 0.353 7.39 7.89 12.67
2/28/2021 4:45:00 AM 3.06 37.508 0.351 7.39 7.66 12.69
2/28/2021 5:00:00 AM 3.04 37.472 0.348 7.39 7.91 12.69
2/28/2021 5:15:00 AM 3.03 37.454 0.348 7.39 7.85 12.7
2/28/2021 5:30:00 AM 3.03 37.454 0.348 7.39 7.64 12.7
2/28/2021 5:45:00 AM 3.03 37.454 0.35 7.39 7.54 12.69
2/28/2021 6:00:00 AM 3.05 37.49 0.355 7.39 7.37 12.66
2/28/2021 6:15:00 AM 3.06 37.508 0.356 7.4 7.48 12.65
2/28/2021 6:30:00 AM 3.07 37.526 0.354 7.39 7.28 12.65
2/28/2021 6:45:00 AM 3.07 37.526 0.353 7.39 7.34 12.66
2/28/2021 7:00:00 AM 3.06 37.508 0.349 7.4 6.9 12.68
2/28/2021 7:15:00 AM 3.05 37.49 0.344 7.4 7.14 12.7
2/28/2021 7:30:00 AM 3.05 37.49 0.342 7.4 6.84 12.73
2/28/2021 7:45:00 AM 3.05 37.49 0.341 7.41 6.63 12.78
2/28/2021 8:00:00 AM 3.05 37.49 0.342 7.41 6.67 12.8
2/28/2021 8:15:00 AM 3.05 37.49 0.341 7.42 6.48 12.83
2/28/2021 8:30:00 AM 3.06 37.508 0.339 7.43 6.33 12.83
2/28/2021 8:45:00 AM 3.07 37.526 0.34 7.43 6.65 12.83
2/28/2021 9:00:00 AM 3.08 37.544 0.343 7.43 6.34 12.84
2/28/2021 9:15:00 AM 3.11 37.598 0.344 7.44 6.23 12.85
2/28/2021 9:30:00 AM 3.13 37.634 0.339 7.45 6.41 12.89
2/28/2021 9:45:00 AM 3.15 37.67 0.334 7.46 6.62 12.94
2/28/2021 10:00:00 AM 3.16 37.688 0.327 7.46 7.39 13.01
2/28/2021 10:15:00 AM 3.16 37.688 0.316 7.46 8.72 13.05
2/28/2021 10:30:00 AM 3.14 37.652 0.305 7.45 11.69 13.07